<?xml version="1.0" encoding="UTF-8" standalone="no" ?>
<gpx xmlns="http://www.topografix.com/GPX/1/1" xmlns:xsi="http://www.w3.org/2001/XMLSchema-instance" xsi:schemaLocation="http://www.topografix.com/GPX/1/1 http://www.topografix.com/GPX/1/1/gpx.xsd" version="1.1" creator="VisuGPX - https://www.visugpx.com">
  <metadata>
    <name>SSRP 2012 02</name>
    <desc><![CDATA[ébauche sortie singlespeed \"SSRP\"]]></desc>
  </metadata>
  <trk>
    <name><![CDATA[SSRP]]></name>
    <trkseg>
      <trkpt lat="48.39062" lon="2.55237">
        <ele>78</ele>
        <time>2011-07-31T08:15:37Z</time>
      </trkpt>
      <trkpt lat="48.39081" lon="2.5522">
        <ele>78</ele>
        <time>2011-07-31T08:15:44Z</time>
      </trkpt>
      <trkpt lat="48.39106" lon="2.55169">
        <ele>79</ele>
        <time>2011-07-31T08:15:56Z</time>
      </trkpt>
      <trkpt lat="48.39133" lon="2.55132">
        <ele>80</ele>
        <time>2011-07-31T08:16:06Z</time>
      </trkpt>
      <trkpt lat="48.39137" lon="2.55128">
        <ele>80</ele>
        <time>2011-07-31T08:16:07Z</time>
      </trkpt>
      <trkpt lat="48.39168" lon="2.55104">
        <ele>81</ele>
        <time>2011-07-31T08:16:19Z</time>
      </trkpt>
      <trkpt lat="48.3917" lon="2.55103">
        <ele>81</ele>
        <time>2011-07-31T08:16:20Z</time>
      </trkpt>
      <trkpt lat="48.39173" lon="2.55094">
        <ele>81</ele>
        <time>2011-07-31T08:16:23Z</time>
      </trkpt>
      <trkpt lat="48.39171" lon="2.55079">
        <ele>81</ele>
        <time>2011-07-31T08:16:28Z</time>
      </trkpt>
      <trkpt lat="48.39164" lon="2.55062">
        <ele>80</ele>
        <time>2011-07-31T08:16:33Z</time>
      </trkpt>
      <trkpt lat="48.39156" lon="2.55042">
        <ele>80</ele>
        <time>2011-07-31T08:16:38Z</time>
      </trkpt>
      <trkpt lat="48.39157" lon="2.55033">
        <ele>80</ele>
        <time>2011-07-31T08:16:40Z</time>
      </trkpt>
      <trkpt lat="48.39154" lon="2.55014">
        <ele>80</ele>
        <time>2011-07-31T08:16:44Z</time>
      </trkpt>
      <trkpt lat="48.3916" lon="2.54979">
        <ele>80</ele>
        <time>2011-07-31T08:16:51Z</time>
      </trkpt>
      <trkpt lat="48.39159" lon="2.5493">
        <ele>80</ele>
        <time>2011-07-31T08:17:02Z</time>
      </trkpt>
      <trkpt lat="48.39158" lon="2.54911">
        <ele>80</ele>
        <time>2011-07-31T08:17:06Z</time>
      </trkpt>
      <trkpt lat="48.39161" lon="2.54839">
        <ele>81</ele>
        <time>2011-07-31T08:17:21Z</time>
      </trkpt>
      <trkpt lat="48.39159" lon="2.54793">
        <ele>81</ele>
        <time>2011-07-31T08:17:32Z</time>
      </trkpt>
      <trkpt lat="48.39163" lon="2.54762">
        <ele>81</ele>
        <time>2011-07-31T08:17:39Z</time>
      </trkpt>
      <trkpt lat="48.39157" lon="2.54741">
        <ele>81</ele>
        <time>2011-07-31T08:17:45Z</time>
      </trkpt>
      <trkpt lat="48.39166" lon="2.54686">
        <ele>82</ele>
        <time>2011-07-31T08:17:57Z</time>
      </trkpt>
      <trkpt lat="48.39174" lon="2.5463">
        <ele>85</ele>
        <time>2011-07-31T08:18:11Z</time>
      </trkpt>
      <trkpt lat="48.39176" lon="2.54611">
        <ele>86</ele>
        <time>2011-07-31T08:18:16Z</time>
      </trkpt>
      <trkpt lat="48.39178" lon="2.54596">
        <ele>87</ele>
        <time>2011-07-31T08:18:20Z</time>
      </trkpt>
      <trkpt lat="48.39172" lon="2.54574">
        <ele>89</ele>
        <time>2011-07-31T08:18:27Z</time>
      </trkpt>
      <trkpt lat="48.39163" lon="2.54566">
        <ele>87</ele>
        <time>2011-07-31T08:18:32Z</time>
      </trkpt>
      <trkpt lat="48.39162" lon="2.54541">
        <ele>88</ele>
        <time>2011-07-31T08:18:41Z</time>
      </trkpt>
      <trkpt lat="48.39158" lon="2.54505">
        <ele>91</ele>
        <time>2011-07-31T08:18:55Z</time>
      </trkpt>
      <trkpt lat="48.3917" lon="2.54457">
        <ele>99</ele>
        <time>2011-07-31T08:19:12Z</time>
      </trkpt>
      <trkpt lat="48.39175" lon="2.54411">
        <ele>101</ele>
        <time>2011-07-31T08:19:29Z</time>
      </trkpt>
      <trkpt lat="48.39177" lon="2.54409">
        <ele>102</ele>
        <time>2011-07-31T08:19:32Z</time>
      </trkpt>
      <trkpt lat="48.39181" lon="2.54402">
        <ele>103</ele>
        <time>2011-07-31T08:19:36Z</time>
      </trkpt>
      <trkpt lat="48.39187" lon="2.54391">
        <ele>104</ele>
        <time>2011-07-31T08:19:41Z</time>
      </trkpt>
      <trkpt lat="48.39199" lon="2.54378">
        <ele>106</ele>
        <time>2011-07-31T08:19:51Z</time>
      </trkpt>
      <trkpt lat="48.39203" lon="2.54368">
        <ele>107</ele>
        <time>2011-07-31T08:19:56Z</time>
      </trkpt>
      <trkpt lat="48.39207" lon="2.54361">
        <ele>107</ele>
        <time>2011-07-31T08:20:00Z</time>
      </trkpt>
      <trkpt lat="48.3921" lon="2.54342">
        <ele>108</ele>
        <time>2011-07-31T08:20:09Z</time>
      </trkpt>
      <trkpt lat="48.39207" lon="2.54334">
        <ele>107</ele>
        <time>2011-07-31T08:20:14Z</time>
      </trkpt>
      <trkpt lat="48.39208" lon="2.54321">
        <ele>109</ele>
        <time>2011-07-31T08:20:20Z</time>
      </trkpt>
      <trkpt lat="48.39209" lon="2.54309">
        <ele>109</ele>
        <time>2011-07-31T08:20:25Z</time>
      </trkpt>
      <trkpt lat="48.39214" lon="2.54249">
        <ele>109</ele>
        <time>2011-07-31T08:20:41Z</time>
      </trkpt>
      <trkpt lat="48.39209" lon="2.54238">
        <ele>109</ele>
        <time>2011-07-31T08:20:44Z</time>
      </trkpt>
      <trkpt lat="48.3921" lon="2.54204">
        <ele>109</ele>
        <time>2011-07-31T08:20:51Z</time>
      </trkpt>
      <trkpt lat="48.39227" lon="2.54169">
        <ele>111</ele>
        <time>2011-07-31T08:20:59Z</time>
      </trkpt>
      <trkpt lat="48.39243" lon="2.54149">
        <ele>111</ele>
        <time>2011-07-31T08:21:05Z</time>
      </trkpt>
      <trkpt lat="48.39249" lon="2.54142">
        <ele>111</ele>
        <time>2011-07-31T08:21:07Z</time>
      </trkpt>
      <trkpt lat="48.3926" lon="2.54132">
        <ele>118</ele>
        <time>2011-07-31T08:21:11Z</time>
      </trkpt>
      <trkpt lat="48.39258" lon="2.54118">
        <ele>117</ele>
        <time>2011-07-31T08:21:15Z</time>
      </trkpt>
      <trkpt lat="48.39249" lon="2.54103">
        <ele>111</ele>
        <time>2011-07-31T08:21:18Z</time>
      </trkpt>
      <trkpt lat="48.39249" lon="2.54093">
        <ele>112</ele>
        <time>2011-07-31T08:21:22Z</time>
      </trkpt>
      <trkpt lat="48.39247" lon="2.54069">
        <ele>111</ele>
        <time>2011-07-31T08:21:30Z</time>
      </trkpt>
      <trkpt lat="48.39249" lon="2.54059">
        <ele>110</ele>
        <time>2011-07-31T08:21:44Z</time>
      </trkpt>
      <trkpt lat="48.39256" lon="2.54058">
        <ele>117</ele>
        <time>2011-07-31T08:21:49Z</time>
      </trkpt>
      <trkpt lat="48.3926" lon="2.54053">
        <ele>118</ele>
        <time>2011-07-31T08:21:57Z</time>
      </trkpt>
      <trkpt lat="48.39258" lon="2.54055">
        <ele>117</ele>
        <time>2011-07-31T08:22:08Z</time>
      </trkpt>
      <trkpt lat="48.39256" lon="2.54056">
        <ele>117</ele>
        <time>2011-07-31T08:22:10Z</time>
      </trkpt>
      <trkpt lat="48.39246" lon="2.5404">
        <ele>110</ele>
        <time>2011-07-31T08:22:17Z</time>
      </trkpt>
      <trkpt lat="48.39237" lon="2.53998">
        <ele>112</ele>
        <time>2011-07-31T08:22:26Z</time>
      </trkpt>
      <trkpt lat="48.39237" lon="2.53989">
        <ele>111</ele>
        <time>2011-07-31T08:22:28Z</time>
      </trkpt>
      <trkpt lat="48.39237" lon="2.5397">
        <ele>110</ele>
        <time>2011-07-31T08:22:33Z</time>
      </trkpt>
      <trkpt lat="48.39236" lon="2.53955">
        <ele>110</ele>
        <time>2011-07-31T08:22:36Z</time>
      </trkpt>
      <trkpt lat="48.3924" lon="2.5394">
        <ele>110</ele>
        <time>2011-07-31T08:22:40Z</time>
      </trkpt>
      <trkpt lat="48.39245" lon="2.53925">
        <ele>111</ele>
        <time>2011-07-31T08:22:46Z</time>
      </trkpt>
      <trkpt lat="48.39251" lon="2.53924">
        <ele>114</ele>
        <time>2011-07-31T08:22:48Z</time>
      </trkpt>
      <trkpt lat="48.39266" lon="2.53906">
        <ele>116</ele>
        <time>2011-07-31T08:22:55Z</time>
      </trkpt>
      <trkpt lat="48.39271" lon="2.53885">
        <ele>117</ele>
        <time>2011-07-31T08:23:00Z</time>
      </trkpt>
      <trkpt lat="48.39281" lon="2.53869">
        <ele>118</ele>
        <time>2011-07-31T08:23:04Z</time>
      </trkpt>
      <trkpt lat="48.39282" lon="2.53852">
        <ele>117</ele>
        <time>2011-07-31T08:23:08Z</time>
      </trkpt>
      <trkpt lat="48.39305" lon="2.53838">
        <ele>119</ele>
        <time>2011-07-31T08:23:17Z</time>
      </trkpt>
      <trkpt lat="48.39333" lon="2.53825">
        <ele>123</ele>
        <time>2011-07-31T08:23:26Z</time>
      </trkpt>
      <trkpt lat="48.39354" lon="2.53804">
        <ele>122</ele>
        <time>2011-07-31T08:23:32Z</time>
      </trkpt>
      <trkpt lat="48.39369" lon="2.5378">
        <ele>122</ele>
        <time>2011-07-31T08:23:37Z</time>
      </trkpt>
      <trkpt lat="48.39386" lon="2.53766">
        <ele>122</ele>
        <time>2011-07-31T08:23:42Z</time>
      </trkpt>
      <trkpt lat="48.3942" lon="2.53771">
        <ele>120</ele>
        <time>2011-07-31T08:23:52Z</time>
      </trkpt>
      <trkpt lat="48.39434" lon="2.53764">
        <ele>120</ele>
        <time>2011-07-31T08:23:56Z</time>
      </trkpt>
      <trkpt lat="48.3945" lon="2.53774">
        <ele>120</ele>
        <time>2011-07-31T08:24:01Z</time>
      </trkpt>
      <trkpt lat="48.39457" lon="2.53783">
        <ele>120</ele>
        <time>2011-07-31T08:24:03Z</time>
      </trkpt>
      <trkpt lat="48.39497" lon="2.538">
        <ele>120</ele>
        <time>2011-07-31T08:24:15Z</time>
      </trkpt>
      <trkpt lat="48.39508" lon="2.538">
        <ele>120</ele>
        <time>2011-07-31T08:24:18Z</time>
      </trkpt>
      <trkpt lat="48.39538" lon="2.53801">
        <ele>120</ele>
        <time>2011-07-31T08:24:27Z</time>
      </trkpt>
      <trkpt lat="48.39556" lon="2.53803">
        <ele>120</ele>
        <time>2011-07-31T08:24:33Z</time>
      </trkpt>
      <trkpt lat="48.39567" lon="2.53798">
        <ele>120</ele>
        <time>2011-07-31T08:24:37Z</time>
      </trkpt>
      <trkpt lat="48.39587" lon="2.5381">
        <ele>118</ele>
        <time>2011-07-31T08:24:47Z</time>
      </trkpt>
      <trkpt lat="48.39594" lon="2.53801">
        <ele>117</ele>
        <time>2011-07-31T08:24:51Z</time>
      </trkpt>
      <trkpt lat="48.39601" lon="2.53799">
        <ele>117</ele>
        <time>2011-07-31T08:24:56Z</time>
      </trkpt>
      <trkpt lat="48.39612" lon="2.53797">
        <ele>117</ele>
        <time>2011-07-31T08:25:00Z</time>
      </trkpt>
      <trkpt lat="48.3963" lon="2.53802">
        <ele>116</ele>
        <time>2011-07-31T08:25:09Z</time>
      </trkpt>
      <trkpt lat="48.39653" lon="2.53791">
        <ele>115</ele>
        <time>2011-07-31T08:25:19Z</time>
      </trkpt>
      <trkpt lat="48.3966" lon="2.53792">
        <ele>115</ele>
        <time>2011-07-31T08:25:33Z</time>
      </trkpt>
      <trkpt lat="48.39658" lon="2.53793">
        <ele>115</ele>
        <time>2011-07-31T08:26:12Z</time>
      </trkpt>
      <trkpt lat="48.39657" lon="2.53791">
        <ele>115</ele>
        <time>2011-07-31T08:27:07Z</time>
      </trkpt>
      <trkpt lat="48.39656" lon="2.53781">
        <ele>115</ele>
        <time>2011-07-31T08:27:11Z</time>
      </trkpt>
      <trkpt lat="48.39653" lon="2.5377">
        <ele>115</ele>
        <time>2011-07-31T08:27:15Z</time>
      </trkpt>
      <trkpt lat="48.39645" lon="2.53758">
        <ele>116</ele>
        <time>2011-07-31T08:27:20Z</time>
      </trkpt>
      <trkpt lat="48.39642" lon="2.53738">
        <ele>117</ele>
        <time>2011-07-31T08:27:26Z</time>
      </trkpt>
      <trkpt lat="48.39642" lon="2.53704">
        <ele>118</ele>
        <time>2011-07-31T08:27:34Z</time>
      </trkpt>
      <trkpt lat="48.3964" lon="2.53694">
        <ele>118</ele>
        <time>2011-07-31T08:27:36Z</time>
      </trkpt>
      <trkpt lat="48.3964" lon="2.53681">
        <ele>118</ele>
        <time>2011-07-31T08:27:40Z</time>
      </trkpt>
      <trkpt lat="48.39645" lon="2.53662">
        <ele>118</ele>
        <time>2011-07-31T08:27:47Z</time>
      </trkpt>
      <trkpt lat="48.39648" lon="2.53651">
        <ele>118</ele>
        <time>2011-07-31T08:27:53Z</time>
      </trkpt>
      <trkpt lat="48.39655" lon="2.53647">
        <ele>118</ele>
        <time>2011-07-31T08:27:56Z</time>
      </trkpt>
      <trkpt lat="48.39662" lon="2.53634">
        <ele>119</ele>
        <time>2011-07-31T08:28:05Z</time>
      </trkpt>
      <trkpt lat="48.39674" lon="2.53635">
        <ele>113</ele>
        <time>2011-07-31T08:28:14Z</time>
      </trkpt>
      <trkpt lat="48.39684" lon="2.53617">
        <ele>113</ele>
        <time>2011-07-31T08:28:20Z</time>
      </trkpt>
      <trkpt lat="48.39683" lon="2.53608">
        <ele>113</ele>
        <time>2011-07-31T08:28:23Z</time>
      </trkpt>
      <trkpt lat="48.39689" lon="2.53594">
        <ele>113</ele>
        <time>2011-07-31T08:28:27Z</time>
      </trkpt>
      <trkpt lat="48.3969" lon="2.53584">
        <ele>113</ele>
        <time>2011-07-31T08:28:30Z</time>
      </trkpt>
      <trkpt lat="48.39689" lon="2.53577">
        <ele>115</ele>
        <time>2011-07-31T08:28:33Z</time>
      </trkpt>
      <trkpt lat="48.39681" lon="2.53567">
        <ele>115</ele>
        <time>2011-07-31T08:28:37Z</time>
      </trkpt>
      <trkpt lat="48.39683" lon="2.53537">
        <ele>115</ele>
        <time>2011-07-31T08:28:44Z</time>
      </trkpt>
      <trkpt lat="48.39688" lon="2.53507">
        <ele>116</ele>
        <time>2011-07-31T08:28:51Z</time>
      </trkpt>
      <trkpt lat="48.39688" lon="2.53493">
        <ele>117</ele>
        <time>2011-07-31T08:28:54Z</time>
      </trkpt>
      <trkpt lat="48.397" lon="2.53448">
        <ele>116</ele>
        <time>2011-07-31T08:29:01Z</time>
      </trkpt>
      <trkpt lat="48.39717" lon="2.53405">
        <ele>117</ele>
        <time>2011-07-31T08:29:08Z</time>
      </trkpt>
      <trkpt lat="48.39729" lon="2.53374">
        <ele>117</ele>
        <time>2011-07-31T08:29:14Z</time>
      </trkpt>
      <trkpt lat="48.39744" lon="2.53324">
        <ele>118</ele>
        <time>2011-07-31T08:29:23Z</time>
      </trkpt>
      <trkpt lat="48.39745" lon="2.53314">
        <ele>118</ele>
        <time>2011-07-31T08:29:25Z</time>
      </trkpt>
      <trkpt lat="48.39748" lon="2.53306">
        <ele>118</ele>
        <time>2011-07-31T08:29:28Z</time>
      </trkpt>
      <trkpt lat="48.39748" lon="2.53259">
        <ele>119</ele>
        <time>2011-07-31T08:29:40Z</time>
      </trkpt>
      <trkpt lat="48.39742" lon="2.53227">
        <ele>120</ele>
        <time>2011-07-31T08:29:46Z</time>
      </trkpt>
      <trkpt lat="48.39745" lon="2.53208">
        <ele>121</ele>
        <time>2011-07-31T08:29:50Z</time>
      </trkpt>
      <trkpt lat="48.39744" lon="2.53199">
        <ele>121</ele>
        <time>2011-07-31T08:29:52Z</time>
      </trkpt>
      <trkpt lat="48.39743" lon="2.53187">
        <ele>121</ele>
        <time>2011-07-31T08:29:57Z</time>
      </trkpt>
      <trkpt lat="48.39739" lon="2.53179">
        <ele>121</ele>
        <time>2011-07-31T08:30:09Z</time>
      </trkpt>
      <trkpt lat="48.39738" lon="2.53176">
        <ele>121</ele>
        <time>2011-07-31T08:30:15Z</time>
      </trkpt>
      <trkpt lat="48.39731" lon="2.53177">
        <ele>121</ele>
        <time>2011-07-31T08:30:31Z</time>
      </trkpt>
      <trkpt lat="48.39727" lon="2.53176">
        <ele>121</ele>
        <time>2011-07-31T08:30:36Z</time>
      </trkpt>
      <trkpt lat="48.3972" lon="2.53166">
        <ele>122</ele>
        <time>2011-07-31T08:30:40Z</time>
      </trkpt>
      <trkpt lat="48.39718" lon="2.53157">
        <ele>122</ele>
        <time>2011-07-31T08:30:43Z</time>
      </trkpt>
      <trkpt lat="48.39694" lon="2.53147">
        <ele>121</ele>
        <time>2011-07-31T08:30:52Z</time>
      </trkpt>
      <trkpt lat="48.39687" lon="2.53115">
        <ele>121</ele>
        <time>2011-07-31T08:31:00Z</time>
      </trkpt>
      <trkpt lat="48.39682" lon="2.53094">
        <ele>121</ele>
        <time>2011-07-31T08:31:04Z</time>
      </trkpt>
      <trkpt lat="48.39669" lon="2.53076">
        <ele>121</ele>
        <time>2011-07-31T08:31:10Z</time>
      </trkpt>
      <trkpt lat="48.39665" lon="2.53073">
        <ele>120</ele>
        <time>2011-07-31T08:31:13Z</time>
      </trkpt>
      <trkpt lat="48.3966" lon="2.53053">
        <ele>120</ele>
        <time>2011-07-31T08:31:18Z</time>
      </trkpt>
      <trkpt lat="48.39661" lon="2.53013">
        <ele>119</ele>
        <time>2011-07-31T08:31:24Z</time>
      </trkpt>
      <trkpt lat="48.39671" lon="2.52987">
        <ele>118</ele>
        <time>2011-07-31T08:31:35Z</time>
      </trkpt>
      <trkpt lat="48.39671" lon="2.5298">
        <ele>119</ele>
        <time>2011-07-31T08:31:57Z</time>
      </trkpt>
      <trkpt lat="48.39661" lon="2.52975">
        <ele>118</ele>
        <time>2011-07-31T08:32:04Z</time>
      </trkpt>
      <trkpt lat="48.39656" lon="2.52977">
        <ele>118</ele>
        <time>2011-07-31T08:32:07Z</time>
      </trkpt>
      <trkpt lat="48.39651" lon="2.52976">
        <ele>118</ele>
        <time>2011-07-31T08:32:17Z</time>
      </trkpt>
      <trkpt lat="48.39648" lon="2.52972">
        <ele>118</ele>
        <time>2011-07-31T08:32:31Z</time>
      </trkpt>
      <trkpt lat="48.39639" lon="2.52969">
        <ele>118</ele>
        <time>2011-07-31T08:32:48Z</time>
      </trkpt>
      <trkpt lat="48.39633" lon="2.52969">
        <ele>118</ele>
        <time>2011-07-31T08:33:00Z</time>
      </trkpt>
      <trkpt lat="48.39631" lon="2.52969">
        <ele>118</ele>
        <time>2011-07-31T08:33:14Z</time>
      </trkpt>
      <trkpt lat="48.39621" lon="2.52965">
        <ele>119</ele>
        <time>2011-07-31T08:33:31Z</time>
      </trkpt>
      <trkpt lat="48.39616" lon="2.52961">
        <ele>119</ele>
        <time>2011-07-31T08:33:44Z</time>
      </trkpt>
      <trkpt lat="48.39617" lon="2.5296">
        <ele>119</ele>
        <time>2011-07-31T08:33:49Z</time>
      </trkpt>
      <trkpt lat="48.3962" lon="2.52955">
        <ele>119</ele>
        <time>2011-07-31T08:34:11Z</time>
      </trkpt>
      <trkpt lat="48.39621" lon="2.5295">
        <ele>119</ele>
        <time>2011-07-31T08:37:41Z</time>
      </trkpt>
      <trkpt lat="48.39621" lon="2.52926">
        <ele>119</ele>
        <time>2011-07-31T08:37:48Z</time>
      </trkpt>
      <trkpt lat="48.39623" lon="2.52916">
        <ele>118</ele>
        <time>2011-07-31T08:37:52Z</time>
      </trkpt>
      <trkpt lat="48.39629" lon="2.52861">
        <ele>118</ele>
        <time>2011-07-31T08:38:02Z</time>
      </trkpt>
      <trkpt lat="48.39632" lon="2.5283">
        <ele>117</ele>
        <time>2011-07-31T08:38:07Z</time>
      </trkpt>
      <trkpt lat="48.39625" lon="2.52798">
        <ele>117</ele>
        <time>2011-07-31T08:38:12Z</time>
      </trkpt>
      <trkpt lat="48.39626" lon="2.52786">
        <ele>117</ele>
        <time>2011-07-31T08:38:14Z</time>
      </trkpt>
      <trkpt lat="48.39649" lon="2.52727">
        <ele>115</ele>
        <time>2011-07-31T08:38:25Z</time>
      </trkpt>
      <trkpt lat="48.39654" lon="2.52698">
        <ele>114</ele>
        <time>2011-07-31T08:38:31Z</time>
      </trkpt>
      <trkpt lat="48.39661" lon="2.52664">
        <ele>112</ele>
        <time>2011-07-31T08:38:36Z</time>
      </trkpt>
      <trkpt lat="48.39658" lon="2.5263">
        <ele>113</ele>
        <time>2011-07-31T08:38:40Z</time>
      </trkpt>
      <trkpt lat="48.39665" lon="2.52605">
        <ele>112</ele>
        <time>2011-07-31T08:38:43Z</time>
      </trkpt>
      <trkpt lat="48.39663" lon="2.5257">
        <ele>110</ele>
        <time>2011-07-31T08:38:47Z</time>
      </trkpt>
      <trkpt lat="48.39672" lon="2.52534">
        <ele>109</ele>
        <time>2011-07-31T08:38:51Z</time>
      </trkpt>
      <trkpt lat="48.3968" lon="2.52501">
        <ele>108</ele>
        <time>2011-07-31T08:38:55Z</time>
      </trkpt>
      <trkpt lat="48.39679" lon="2.52477">
        <ele>107</ele>
        <time>2011-07-31T08:38:58Z</time>
      </trkpt>
      <trkpt lat="48.3969" lon="2.52443">
        <ele>108</ele>
        <time>2011-07-31T08:39:02Z</time>
      </trkpt>
      <trkpt lat="48.39703" lon="2.52405">
        <ele>106</ele>
        <time>2011-07-31T08:39:06Z</time>
      </trkpt>
      <trkpt lat="48.39714" lon="2.52367">
        <ele>106</ele>
        <time>2011-07-31T08:39:10Z</time>
      </trkpt>
      <trkpt lat="48.39712" lon="2.52331">
        <ele>104</ele>
        <time>2011-07-31T08:39:15Z</time>
      </trkpt>
      <trkpt lat="48.39722" lon="2.52295">
        <ele>104</ele>
        <time>2011-07-31T08:39:23Z</time>
      </trkpt>
      <trkpt lat="48.39739" lon="2.52267">
        <ele>103</ele>
        <time>2011-07-31T08:39:31Z</time>
      </trkpt>
      <trkpt lat="48.39751" lon="2.52237">
        <ele>104</ele>
        <time>2011-07-31T08:39:39Z</time>
      </trkpt>
      <trkpt lat="48.39749" lon="2.52228">
        <ele>102</ele>
        <time>2011-07-31T08:39:43Z</time>
      </trkpt>
      <trkpt lat="48.39735" lon="2.52226">
        <ele>103</ele>
        <time>2011-07-31T08:39:48Z</time>
      </trkpt>
      <trkpt lat="48.39725" lon="2.52217">
        <ele>103</ele>
        <time>2011-07-31T08:39:54Z</time>
      </trkpt>
      <trkpt lat="48.39737" lon="2.52152">
        <ele>100</ele>
        <time>2011-07-31T08:40:06Z</time>
      </trkpt>
      <trkpt lat="48.39748" lon="2.52077">
        <ele>96</ele>
        <time>2011-07-31T08:40:16Z</time>
      </trkpt>
      <trkpt lat="48.39755" lon="2.5204">
        <ele>96</ele>
        <time>2011-07-31T08:40:21Z</time>
      </trkpt>
      <trkpt lat="48.39761" lon="2.5202">
        <ele>96</ele>
        <time>2011-07-31T08:40:24Z</time>
      </trkpt>
      <trkpt lat="48.39772" lon="2.51963">
        <ele>96</ele>
        <time>2011-07-31T08:40:35Z</time>
      </trkpt>
      <trkpt lat="48.39764" lon="2.51917">
        <ele>100</ele>
        <time>2011-07-31T08:40:44Z</time>
      </trkpt>
      <trkpt lat="48.39768" lon="2.51891">
        <ele>98</ele>
        <time>2011-07-31T08:40:50Z</time>
      </trkpt>
      <trkpt lat="48.39769" lon="2.51868">
        <ele>98</ele>
        <time>2011-07-31T08:40:55Z</time>
      </trkpt>
      <trkpt lat="48.39775" lon="2.51833">
        <ele>97</ele>
        <time>2011-07-31T08:41:03Z</time>
      </trkpt>
      <trkpt lat="48.39774" lon="2.51791">
        <ele>95</ele>
        <time>2011-07-31T08:41:12Z</time>
      </trkpt>
      <trkpt lat="48.39773" lon="2.51785">
        <ele>95</ele>
        <time>2011-07-31T08:41:14Z</time>
      </trkpt>
      <trkpt lat="48.39771" lon="2.51768">
        <ele>95</ele>
        <time>2011-07-31T08:41:18Z</time>
      </trkpt>
      <trkpt lat="48.39758" lon="2.5174">
        <ele>94</ele>
        <time>2011-07-31T08:41:23Z</time>
      </trkpt>
      <trkpt lat="48.39749" lon="2.51708">
        <ele>98</ele>
        <time>2011-07-31T08:41:28Z</time>
      </trkpt>
      <trkpt lat="48.39748" lon="2.51686">
        <ele>96</ele>
        <time>2011-07-31T08:41:31Z</time>
      </trkpt>
      <trkpt lat="48.3975" lon="2.51663">
        <ele>89</ele>
        <time>2011-07-31T08:41:34Z</time>
      </trkpt>
      <trkpt lat="48.39751" lon="2.51632">
        <ele>85</ele>
        <time>2011-07-31T08:41:38Z</time>
      </trkpt>
      <trkpt lat="48.39736" lon="2.51597">
        <ele>87</ele>
        <time>2011-07-31T08:41:43Z</time>
      </trkpt>
      <trkpt lat="48.39741" lon="2.51569">
        <ele>82</ele>
        <time>2011-07-31T08:41:49Z</time>
      </trkpt>
      <trkpt lat="48.3975" lon="2.51557">
        <ele>82</ele>
        <time>2011-07-31T08:41:51Z</time>
      </trkpt>
      <trkpt lat="48.39756" lon="2.51535">
        <ele>80</ele>
        <time>2011-07-31T08:41:55Z</time>
      </trkpt>
      <trkpt lat="48.39753" lon="2.51514">
        <ele>80</ele>
        <time>2011-07-31T08:41:58Z</time>
      </trkpt>
      <trkpt lat="48.39747" lon="2.51504">
        <ele>80</ele>
        <time>2011-07-31T08:42:00Z</time>
      </trkpt>
      <trkpt lat="48.39732" lon="2.5147">
        <ele>79</ele>
        <time>2011-07-31T08:42:05Z</time>
      </trkpt>
      <trkpt lat="48.3972" lon="2.51453">
        <ele>79</ele>
        <time>2011-07-31T08:42:09Z</time>
      </trkpt>
      <trkpt lat="48.39692" lon="2.51406">
        <ele>79</ele>
        <time>2011-07-31T08:42:17Z</time>
      </trkpt>
      <trkpt lat="48.3968" lon="2.51373">
        <ele>79</ele>
        <time>2011-07-31T08:42:24Z</time>
      </trkpt>
      <trkpt lat="48.39674" lon="2.51337">
        <ele>79</ele>
        <time>2011-07-31T08:42:31Z</time>
      </trkpt>
      <trkpt lat="48.39672" lon="2.51327">
        <ele>79</ele>
        <time>2011-07-31T08:42:34Z</time>
      </trkpt>
      <trkpt lat="48.39687" lon="2.51265">
        <ele>79</ele>
        <time>2011-07-31T08:42:46Z</time>
      </trkpt>
      <trkpt lat="48.39702" lon="2.51203">
        <ele>79</ele>
        <time>2011-07-31T08:42:57Z</time>
      </trkpt>
      <trkpt lat="48.39711" lon="2.51189">
        <ele>78</ele>
        <time>2011-07-31T08:43:02Z</time>
      </trkpt>
      <trkpt lat="48.39729" lon="2.51218">
        <ele>78</ele>
        <time>2011-07-31T08:43:11Z</time>
      </trkpt>
      <trkpt lat="48.39771" lon="2.51277">
        <ele>78</ele>
        <time>2011-07-31T08:43:24Z</time>
      </trkpt>
      <trkpt lat="48.39798" lon="2.51318">
        <ele>78</ele>
        <time>2011-07-31T08:43:33Z</time>
      </trkpt>
      <trkpt lat="48.39873" lon="2.51437">
        <ele>81</ele>
        <time>2011-07-31T08:43:53Z</time>
      </trkpt>
      <trkpt lat="48.39895" lon="2.51494">
        <ele>81</ele>
        <time>2011-07-31T08:44:02Z</time>
      </trkpt>
      <trkpt lat="48.39914" lon="2.51554">
        <ele>80</ele>
        <time>2011-07-31T08:44:12Z</time>
      </trkpt>
      <trkpt lat="48.39953" lon="2.51662">
        <ele>76</ele>
        <time>2011-07-31T08:44:29Z</time>
      </trkpt>
      <trkpt lat="48.40023" lon="2.51804">
        <ele>78</ele>
        <time>2011-07-31T08:44:52Z</time>
      </trkpt>
      <trkpt lat="48.40098" lon="2.5194">
        <ele>81</ele>
        <time>2011-07-31T08:45:13Z</time>
      </trkpt>
      <trkpt lat="48.4013" lon="2.51999">
        <ele>81</ele>
        <time>2011-07-31T08:45:22Z</time>
      </trkpt>
      <trkpt lat="48.40174" lon="2.52079">
        <ele>80</ele>
        <time>2011-07-31T08:45:35Z</time>
      </trkpt>
      <trkpt lat="48.40187" lon="2.52104">
        <ele>80</ele>
        <time>2011-07-31T08:45:39Z</time>
      </trkpt>
      <trkpt lat="48.40195" lon="2.52131">
        <ele>81</ele>
        <time>2011-07-31T08:45:43Z</time>
      </trkpt>
      <trkpt lat="48.40202" lon="2.52213">
        <ele>80</ele>
        <time>2011-07-31T08:45:54Z</time>
      </trkpt>
      <trkpt lat="48.40204" lon="2.52237">
        <ele>80</ele>
        <time>2011-07-31T08:45:57Z</time>
      </trkpt>
      <trkpt lat="48.40205" lon="2.52286">
        <ele>79</ele>
        <time>2011-07-31T08:46:03Z</time>
      </trkpt>
      <trkpt lat="48.40215" lon="2.52355">
        <ele>78</ele>
        <time>2011-07-31T08:46:11Z</time>
      </trkpt>
      <trkpt lat="48.40243" lon="2.52421">
        <ele>80</ele>
        <time>2011-07-31T08:46:20Z</time>
      </trkpt>
      <trkpt lat="48.40245" lon="2.52427">
        <ele>80</ele>
        <time>2011-07-31T08:46:21Z</time>
      </trkpt>
      <trkpt lat="48.403" lon="2.52531">
        <ele>81</ele>
        <time>2011-07-31T08:46:37Z</time>
      </trkpt>
      <trkpt lat="48.40303" lon="2.52537">
        <ele>82</ele>
        <time>2011-07-31T08:46:38Z</time>
      </trkpt>
      <trkpt lat="48.4032" lon="2.52564">
        <ele>82</ele>
        <time>2011-07-31T08:46:43Z</time>
      </trkpt>
      <trkpt lat="48.40352" lon="2.52598">
        <ele>83</ele>
        <time>2011-07-31T08:46:50Z</time>
      </trkpt>
      <trkpt lat="48.40406" lon="2.52647">
        <ele>83</ele>
        <time>2011-07-31T08:47:02Z</time>
      </trkpt>
      <trkpt lat="48.40428" lon="2.52666">
        <ele>84</ele>
        <time>2011-07-31T08:47:09Z</time>
      </trkpt>
      <trkpt lat="48.40436" lon="2.52647">
        <ele>84</ele>
        <time>2011-07-31T08:47:15Z</time>
      </trkpt>
      <trkpt lat="48.40438" lon="2.52601">
        <ele>83</ele>
        <time>2011-07-31T08:47:21Z</time>
      </trkpt>
      <trkpt lat="48.40441" lon="2.5258">
        <ele>81</ele>
        <time>2011-07-31T08:47:24Z</time>
      </trkpt>
      <trkpt lat="48.40443" lon="2.52557">
        <ele>81</ele>
        <time>2011-07-31T08:49:01Z</time>
      </trkpt>
      <trkpt lat="48.40464" lon="2.52427">
        <ele>81</ele>
        <time>2011-07-31T08:49:18Z</time>
      </trkpt>
      <trkpt lat="48.40487" lon="2.52285">
        <ele>80</ele>
        <time>2011-07-31T08:49:35Z</time>
      </trkpt>
      <trkpt lat="48.40511" lon="2.52133">
        <ele>79</ele>
        <time>2011-07-31T08:49:53Z</time>
      </trkpt>
      <trkpt lat="48.40523" lon="2.52124">
        <ele>79</ele>
        <time>2011-07-31T08:49:58Z</time>
      </trkpt>
      <trkpt lat="48.4057" lon="2.52153">
        <ele>78</ele>
        <time>2011-07-31T08:50:12Z</time>
      </trkpt>
      <trkpt lat="48.40613" lon="2.52178">
        <ele>79</ele>
        <time>2011-07-31T08:50:24Z</time>
      </trkpt>
      <trkpt lat="48.40658" lon="2.52207">
        <ele>80</ele>
        <time>2011-07-31T08:50:37Z</time>
      </trkpt>
      <trkpt lat="48.40674" lon="2.52194">
        <ele>85</ele>
        <time>2011-07-31T08:50:44Z</time>
      </trkpt>
      <trkpt lat="48.40674" lon="2.52184">
        <ele>84</ele>
        <time>2011-07-31T08:50:47Z</time>
      </trkpt>
      <trkpt lat="48.40673" lon="2.5216">
        <ele>81</ele>
        <time>2011-07-31T08:50:52Z</time>
      </trkpt>
      <trkpt lat="48.40671" lon="2.52119">
        <ele>82</ele>
        <time>2011-07-31T08:50:58Z</time>
      </trkpt>
      <trkpt lat="48.40668" lon="2.52104">
        <ele>81</ele>
        <time>2011-07-31T08:51:00Z</time>
      </trkpt>
      <trkpt lat="48.40672" lon="2.52077">
        <ele>78</ele>
        <time>2011-07-31T08:51:04Z</time>
      </trkpt>
      <trkpt lat="48.40676" lon="2.52031">
        <ele>79</ele>
        <time>2011-07-31T08:51:11Z</time>
      </trkpt>
      <trkpt lat="48.40674" lon="2.52014">
        <ele>78</ele>
        <time>2011-07-31T08:51:14Z</time>
      </trkpt>
      <trkpt lat="48.40679" lon="2.51983">
        <ele>78</ele>
        <time>2011-07-31T08:51:19Z</time>
      </trkpt>
      <trkpt lat="48.40682" lon="2.51961">
        <ele>78</ele>
        <time>2011-07-31T08:51:22Z</time>
      </trkpt>
      <trkpt lat="48.40684" lon="2.51941">
        <ele>78</ele>
        <time>2011-07-31T08:51:25Z</time>
      </trkpt>
      <trkpt lat="48.40689" lon="2.51928">
        <ele>78</ele>
        <time>2011-07-31T08:51:28Z</time>
      </trkpt>
      <trkpt lat="48.40691" lon="2.51889">
        <ele>79</ele>
        <time>2011-07-31T08:51:36Z</time>
      </trkpt>
      <trkpt lat="48.40672" lon="2.5186">
        <ele>79</ele>
        <time>2011-07-31T08:51:44Z</time>
      </trkpt>
      <trkpt lat="48.40641" lon="2.51853">
        <ele>76</ele>
        <time>2011-07-31T08:51:51Z</time>
      </trkpt>
      <trkpt lat="48.40625" lon="2.51828">
        <ele>76</ele>
        <time>2011-07-31T08:51:58Z</time>
      </trkpt>
      <trkpt lat="48.40625" lon="2.51817">
        <ele>76</ele>
        <time>2011-07-31T08:52:00Z</time>
      </trkpt>
      <trkpt lat="48.40624" lon="2.51787">
        <ele>75</ele>
        <time>2011-07-31T08:52:04Z</time>
      </trkpt>
      <trkpt lat="48.40631" lon="2.51774">
        <ele>75</ele>
        <time>2011-07-31T08:52:06Z</time>
      </trkpt>
      <trkpt lat="48.40643" lon="2.51719">
        <ele>76</ele>
        <time>2011-07-31T08:52:14Z</time>
      </trkpt>
      <trkpt lat="48.40649" lon="2.51693">
        <ele>76</ele>
        <time>2011-07-31T08:52:18Z</time>
      </trkpt>
      <trkpt lat="48.40653" lon="2.51675">
        <ele>77</ele>
        <time>2011-07-31T08:52:21Z</time>
      </trkpt>
      <trkpt lat="48.40659" lon="2.51654">
        <ele>77</ele>
        <time>2011-07-31T08:52:25Z</time>
      </trkpt>
      <trkpt lat="48.40678" lon="2.51582">
        <ele>80</ele>
        <time>2011-07-31T08:52:38Z</time>
      </trkpt>
      <trkpt lat="48.4068" lon="2.51577">
        <ele>80</ele>
        <time>2011-07-31T08:52:39Z</time>
      </trkpt>
      <trkpt lat="48.40695" lon="2.51541">
        <ele>82</ele>
        <time>2011-07-31T08:52:46Z</time>
      </trkpt>
      <trkpt lat="48.40717" lon="2.51494">
        <ele>81</ele>
        <time>2011-07-31T08:52:56Z</time>
      </trkpt>
      <trkpt lat="48.40741" lon="2.5146">
        <ele>81</ele>
        <time>2011-07-31T08:53:05Z</time>
      </trkpt>
      <trkpt lat="48.40777" lon="2.51407">
        <ele>81</ele>
        <time>2011-07-31T08:53:17Z</time>
      </trkpt>
      <trkpt lat="48.40818" lon="2.51344">
        <ele>82</ele>
        <time>2011-07-31T08:53:31Z</time>
      </trkpt>
      <trkpt lat="48.4082" lon="2.51339">
        <ele>82</ele>
        <time>2011-07-31T08:53:32Z</time>
      </trkpt>
      <trkpt lat="48.40832" lon="2.51312">
        <ele>80</ele>
        <time>2011-07-31T08:53:37Z</time>
      </trkpt>
      <trkpt lat="48.4085" lon="2.51273">
        <ele>86</ele>
        <time>2011-07-31T08:53:44Z</time>
      </trkpt>
      <trkpt lat="48.40862" lon="2.51238">
        <ele>83</ele>
        <time>2011-07-31T08:53:51Z</time>
      </trkpt>
      <trkpt lat="48.40876" lon="2.51201">
        <ele>84</ele>
        <time>2011-07-31T08:53:57Z</time>
      </trkpt>
      <trkpt lat="48.40897" lon="2.51089">
        <ele>81</ele>
        <time>2011-07-31T08:54:15Z</time>
      </trkpt>
      <trkpt lat="48.40902" lon="2.51056">
        <ele>81</ele>
        <time>2011-07-31T08:54:20Z</time>
      </trkpt>
      <trkpt lat="48.4091" lon="2.51017">
        <ele>82</ele>
        <time>2011-07-31T08:54:26Z</time>
      </trkpt>
      <trkpt lat="48.40915" lon="2.50971">
        <ele>82</ele>
        <time>2011-07-31T08:54:33Z</time>
      </trkpt>
      <trkpt lat="48.40925" lon="2.50904">
        <ele>86</ele>
        <time>2011-07-31T08:54:43Z</time>
      </trkpt>
      <trkpt lat="48.40936" lon="2.50855">
        <ele>87</ele>
        <time>2011-07-31T08:54:50Z</time>
      </trkpt>
      <trkpt lat="48.40944" lon="2.50806">
        <ele>86</ele>
        <time>2011-07-31T08:54:58Z</time>
      </trkpt>
      <trkpt lat="48.40949" lon="2.50767">
        <ele>85</ele>
        <time>2011-07-31T08:55:05Z</time>
      </trkpt>
      <trkpt lat="48.40953" lon="2.50715">
        <ele>83</ele>
        <time>2011-07-31T08:55:13Z</time>
      </trkpt>
      <trkpt lat="48.40957" lon="2.50669">
        <ele>83</ele>
        <time>2011-07-31T08:55:20Z</time>
      </trkpt>
      <trkpt lat="48.40957" lon="2.5065">
        <ele>82</ele>
        <time>2011-07-31T08:55:23Z</time>
      </trkpt>
      <trkpt lat="48.40949" lon="2.50528">
        <ele>81</ele>
        <time>2011-07-31T08:55:41Z</time>
      </trkpt>
      <trkpt lat="48.40943" lon="2.50472">
        <ele>82</ele>
        <time>2011-07-31T08:55:49Z</time>
      </trkpt>
      <trkpt lat="48.40941" lon="2.50445">
        <ele>82</ele>
        <time>2011-07-31T08:55:53Z</time>
      </trkpt>
      <trkpt lat="48.40942" lon="2.50425">
        <ele>82</ele>
        <time>2011-07-31T08:55:56Z</time>
      </trkpt>
      <trkpt lat="48.40951" lon="2.50378">
        <ele>83</ele>
        <time>2011-07-31T08:56:08Z</time>
      </trkpt>
      <trkpt lat="48.40956" lon="2.50358">
        <ele>83</ele>
        <time>2011-07-31T08:56:23Z</time>
      </trkpt>
      <trkpt lat="48.40957" lon="2.50351">
        <ele>83</ele>
        <time>2011-07-31T08:56:24Z</time>
      </trkpt>
      <trkpt lat="48.4096" lon="2.50313">
        <ele>83</ele>
        <time>2011-07-31T08:56:30Z</time>
      </trkpt>
      <trkpt lat="48.40963" lon="2.50292">
        <ele>84</ele>
        <time>2011-07-31T08:56:33Z</time>
      </trkpt>
      <trkpt lat="48.40968" lon="2.50259">
        <ele>84</ele>
        <time>2011-07-31T08:56:38Z</time>
      </trkpt>
      <trkpt lat="48.40976" lon="2.50204">
        <ele>86</ele>
        <time>2011-07-31T08:56:46Z</time>
      </trkpt>
      <trkpt lat="48.40986" lon="2.50141">
        <ele>87</ele>
        <time>2011-07-31T08:56:55Z</time>
      </trkpt>
      <trkpt lat="48.40987" lon="2.50112">
        <ele>88</ele>
        <time>2011-07-31T08:56:59Z</time>
      </trkpt>
      <trkpt lat="48.40982" lon="2.50067">
        <ele>88</ele>
        <time>2011-07-31T08:57:05Z</time>
      </trkpt>
      <trkpt lat="48.4099" lon="2.50035">
        <ele>88</ele>
        <time>2011-07-31T08:57:10Z</time>
      </trkpt>
      <trkpt lat="48.41" lon="2.49997">
        <ele>87</ele>
        <time>2011-07-31T08:57:16Z</time>
      </trkpt>
      <trkpt lat="48.41005" lon="2.49974">
        <ele>88</ele>
        <time>2011-07-31T08:57:20Z</time>
      </trkpt>
      <trkpt lat="48.41007" lon="2.4995">
        <ele>88</ele>
        <time>2011-07-31T08:57:24Z</time>
      </trkpt>
      <trkpt lat="48.41016" lon="2.49823">
        <ele>89</ele>
        <time>2011-07-31T08:57:41Z</time>
      </trkpt>
      <trkpt lat="48.41016" lon="2.49809">
        <ele>89</ele>
        <time>2011-07-31T08:57:43Z</time>
      </trkpt>
      <trkpt lat="48.41021" lon="2.49763">
        <ele>88</ele>
        <time>2011-07-31T08:57:53Z</time>
      </trkpt>
      <trkpt lat="48.41038" lon="2.49661">
        <ele>96</ele>
        <time>2011-07-31T08:58:09Z</time>
      </trkpt>
      <trkpt lat="48.41053" lon="2.49516">
        <ele>103</ele>
        <time>2011-07-31T08:58:31Z</time>
      </trkpt>
      <trkpt lat="48.41072" lon="2.49407">
        <ele>110</ele>
        <time>2011-07-31T08:58:50Z</time>
      </trkpt>
      <trkpt lat="48.41101" lon="2.49293">
        <ele>112</ele>
        <time>2011-07-31T08:59:09Z</time>
      </trkpt>
      <trkpt lat="48.41118" lon="2.49175">
        <ele>108</ele>
        <time>2011-07-31T08:59:24Z</time>
      </trkpt>
      <trkpt lat="48.41151" lon="2.49045">
        <ele>98</ele>
        <time>2011-07-31T08:59:40Z</time>
      </trkpt>
      <trkpt lat="48.41167" lon="2.48992">
        <ele>98</ele>
        <time>2011-07-31T08:59:47Z</time>
      </trkpt>
      <trkpt lat="48.41181" lon="2.48945">
        <ele>99</ele>
        <time>2011-07-31T08:59:54Z</time>
      </trkpt>
      <trkpt lat="48.41187" lon="2.48909">
        <ele>98</ele>
        <time>2011-07-31T08:59:59Z</time>
      </trkpt>
      <trkpt lat="48.4119" lon="2.48879">
        <ele>99</ele>
        <time>2011-07-31T09:00:03Z</time>
      </trkpt>
      <trkpt lat="48.41196" lon="2.48858">
        <ele>99</ele>
        <time>2011-07-31T09:00:06Z</time>
      </trkpt>
      <trkpt lat="48.41197" lon="2.48835">
        <ele>99</ele>
        <time>2011-07-31T09:00:09Z</time>
      </trkpt>
      <trkpt lat="48.412" lon="2.48814">
        <ele>98</ele>
        <time>2011-07-31T09:00:12Z</time>
      </trkpt>
      <trkpt lat="48.412" lon="2.48794">
        <ele>98</ele>
        <time>2011-07-31T09:00:15Z</time>
      </trkpt>
      <trkpt lat="48.41218" lon="2.48694">
        <ele>98</ele>
        <time>2011-07-31T09:00:29Z</time>
      </trkpt>
      <trkpt lat="48.4123" lon="2.48641">
        <ele>96</ele>
        <time>2011-07-31T09:00:37Z</time>
      </trkpt>
      <trkpt lat="48.41236" lon="2.48622">
        <ele>95</ele>
        <time>2011-07-31T09:00:40Z</time>
      </trkpt>
      <trkpt lat="48.41248" lon="2.48589">
        <ele>94</ele>
        <time>2011-07-31T09:00:46Z</time>
      </trkpt>
      <trkpt lat="48.41255" lon="2.48576">
        <ele>96</ele>
        <time>2011-07-31T09:00:49Z</time>
      </trkpt>
      <trkpt lat="48.41269" lon="2.48512">
        <ele>98</ele>
        <time>2011-07-31T09:01:00Z</time>
      </trkpt>
      <trkpt lat="48.41287" lon="2.48447">
        <ele>97</ele>
        <time>2011-07-31T09:01:10Z</time>
      </trkpt>
      <trkpt lat="48.41284" lon="2.48425">
        <ele>97</ele>
        <time>2011-07-31T09:01:15Z</time>
      </trkpt>
      <trkpt lat="48.41282" lon="2.48427">
        <ele>97</ele>
        <time>2011-07-31T09:01:21Z</time>
      </trkpt>
      <trkpt lat="48.41299" lon="2.48442">
        <ele>98</ele>
        <time>2011-07-31T09:01:30Z</time>
      </trkpt>
      <trkpt lat="48.41318" lon="2.48454">
        <ele>99</ele>
        <time>2011-07-31T09:01:40Z</time>
      </trkpt>
      <trkpt lat="48.41325" lon="2.4847">
        <ele>100</ele>
        <time>2011-07-31T09:01:49Z</time>
      </trkpt>
      <trkpt lat="48.41326" lon="2.48474">
        <ele>101</ele>
        <time>2011-07-31T09:01:51Z</time>
      </trkpt>
      <trkpt lat="48.41327" lon="2.4848">
        <ele>101</ele>
        <time>2011-07-31T09:01:55Z</time>
      </trkpt>
      <trkpt lat="48.41329" lon="2.48507">
        <ele>105</ele>
        <time>2011-07-31T09:02:05Z</time>
      </trkpt>
      <trkpt lat="48.4133" lon="2.48516">
        <ele>104</ele>
        <time>2011-07-31T09:02:09Z</time>
      </trkpt>
      <trkpt lat="48.41331" lon="2.48521">
        <ele>104</ele>
        <time>2011-07-31T09:02:12Z</time>
      </trkpt>
      <trkpt lat="48.41333" lon="2.48527">
        <ele>104</ele>
        <time>2011-07-31T09:02:15Z</time>
      </trkpt>
      <trkpt lat="48.41339" lon="2.48522">
        <ele>111</ele>
        <time>2011-07-31T09:02:22Z</time>
      </trkpt>
      <trkpt lat="48.41346" lon="2.48518">
        <ele>111</ele>
        <time>2011-07-31T09:02:31Z</time>
      </trkpt>
      <trkpt lat="48.41354" lon="2.48511">
        <ele>111</ele>
        <time>2011-07-31T09:02:47Z</time>
      </trkpt>
      <trkpt lat="48.41354" lon="2.48512">
        <ele>111</ele>
        <time>2011-07-31T09:02:53Z</time>
      </trkpt>
      <trkpt lat="48.41356" lon="2.48508">
        <ele>111</ele>
        <time>2011-07-31T09:02:56Z</time>
      </trkpt>
      <trkpt lat="48.41362" lon="2.48505">
        <ele>112</ele>
        <time>2011-07-31T09:03:00Z</time>
      </trkpt>
      <trkpt lat="48.41381" lon="2.48472">
        <ele>110</ele>
        <time>2011-07-31T09:03:20Z</time>
      </trkpt>
      <trkpt lat="48.41383" lon="2.48461">
        <ele>109</ele>
        <time>2011-07-31T09:03:25Z</time>
      </trkpt>
      <trkpt lat="48.41401" lon="2.4843">
        <ele>110</ele>
        <time>2011-07-31T09:03:40Z</time>
      </trkpt>
      <trkpt lat="48.41416" lon="2.48411">
        <ele>109</ele>
        <time>2011-07-31T09:03:50Z</time>
      </trkpt>
      <trkpt lat="48.41416" lon="2.48411">
        <ele>109</ele>
        <time>2011-07-31T09:05:24Z</time>
      </trkpt>
      <trkpt lat="48.41416" lon="2.48412">
        <ele>109</ele>
        <time>2011-07-31T09:08:42Z</time>
      </trkpt>
      <trkpt lat="48.41417" lon="2.48411">
        <ele>109</ele>
        <time>2011-07-31T09:09:01Z</time>
      </trkpt>
      <trkpt lat="48.41421" lon="2.48414">
        <ele>109</ele>
        <time>2011-07-31T09:09:27Z</time>
      </trkpt>
      <trkpt lat="48.4142" lon="2.48419">
        <ele>111</ele>
        <time>2011-07-31T09:09:39Z</time>
      </trkpt>
      <trkpt lat="48.41415" lon="2.48426">
        <ele>110</ele>
        <time>2011-07-31T09:09:55Z</time>
      </trkpt>
      <trkpt lat="48.41415" lon="2.48427">
        <ele>110</ele>
        <time>2011-07-31T09:09:58Z</time>
      </trkpt>
      <trkpt lat="48.41412" lon="2.4845">
        <ele>110</ele>
        <time>2011-07-31T09:10:08Z</time>
      </trkpt>
      <trkpt lat="48.41409" lon="2.48464">
        <ele>111</ele>
        <time>2011-07-31T09:10:13Z</time>
      </trkpt>
      <trkpt lat="48.41406" lon="2.48473">
        <ele>112</ele>
        <time>2011-07-31T09:10:16Z</time>
      </trkpt>
      <trkpt lat="48.41402" lon="2.48485">
        <ele>113</ele>
        <time>2011-07-31T09:10:20Z</time>
      </trkpt>
      <trkpt lat="48.41395" lon="2.48506">
        <ele>115</ele>
        <time>2011-07-31T09:10:27Z</time>
      </trkpt>
      <trkpt lat="48.41393" lon="2.48515">
        <ele>115</ele>
        <time>2011-07-31T09:10:30Z</time>
      </trkpt>
      <trkpt lat="48.41387" lon="2.4853">
        <ele>114</ele>
        <time>2011-07-31T09:10:35Z</time>
      </trkpt>
      <trkpt lat="48.41386" lon="2.48558">
        <ele>115</ele>
        <time>2011-07-31T09:10:43Z</time>
      </trkpt>
      <trkpt lat="48.41379" lon="2.48566">
        <ele>114</ele>
        <time>2011-07-31T09:10:47Z</time>
      </trkpt>
      <trkpt lat="48.41376" lon="2.48579">
        <ele>114</ele>
        <time>2011-07-31T09:10:51Z</time>
      </trkpt>
      <trkpt lat="48.41378" lon="2.48594">
        <ele>117</ele>
        <time>2011-07-31T09:10:55Z</time>
      </trkpt>
      <trkpt lat="48.41379" lon="2.48612">
        <ele>118</ele>
        <time>2011-07-31T09:11:02Z</time>
      </trkpt>
      <trkpt lat="48.41375" lon="2.48623">
        <ele>118</ele>
        <time>2011-07-31T09:11:07Z</time>
      </trkpt>
      <trkpt lat="48.41359" lon="2.48643">
        <ele>118</ele>
        <time>2011-07-31T09:11:15Z</time>
      </trkpt>
      <trkpt lat="48.41357" lon="2.48649">
        <ele>119</ele>
        <time>2011-07-31T09:11:17Z</time>
      </trkpt>
      <trkpt lat="48.41351" lon="2.48654">
        <ele>119</ele>
        <time>2011-07-31T09:11:20Z</time>
      </trkpt>
      <trkpt lat="48.41342" lon="2.48668">
        <ele>120</ele>
        <time>2011-07-31T09:11:25Z</time>
      </trkpt>
      <trkpt lat="48.41338" lon="2.48702">
        <ele>121</ele>
        <time>2011-07-31T09:11:34Z</time>
      </trkpt>
      <trkpt lat="48.41324" lon="2.48713">
        <ele>115</ele>
        <time>2011-07-31T09:11:41Z</time>
      </trkpt>
      <trkpt lat="48.41307" lon="2.48738">
        <ele>115</ele>
        <time>2011-07-31T09:11:52Z</time>
      </trkpt>
      <trkpt lat="48.41306" lon="2.48741">
        <ele>115</ele>
        <time>2011-07-31T09:11:53Z</time>
      </trkpt>
      <trkpt lat="48.41306" lon="2.48749">
        <ele>115</ele>
        <time>2011-07-31T09:11:55Z</time>
      </trkpt>
      <trkpt lat="48.41296" lon="2.48807">
        <ele>115</ele>
        <time>2011-07-31T09:12:09Z</time>
      </trkpt>
      <trkpt lat="48.41305" lon="2.48848">
        <ele>117</ele>
        <time>2011-07-31T09:12:19Z</time>
      </trkpt>
      <trkpt lat="48.41304" lon="2.48876">
        <ele>117</ele>
        <time>2011-07-31T09:12:25Z</time>
      </trkpt>
      <trkpt lat="48.41301" lon="2.48907">
        <ele>117</ele>
        <time>2011-07-31T09:12:37Z</time>
      </trkpt>
      <trkpt lat="48.41301" lon="2.48908">
        <ele>117</ele>
        <time>2011-07-31T09:12:48Z</time>
      </trkpt>
      <trkpt lat="48.41307" lon="2.48925">
        <ele>118</ele>
        <time>2011-07-31T09:12:55Z</time>
      </trkpt>
      <trkpt lat="48.41304" lon="2.48936">
        <ele>118</ele>
        <time>2011-07-31T09:13:00Z</time>
      </trkpt>
      <trkpt lat="48.41305" lon="2.48981">
        <ele>119</ele>
        <time>2011-07-31T09:13:11Z</time>
      </trkpt>
      <trkpt lat="48.41304" lon="2.49001">
        <ele>120</ele>
        <time>2011-07-31T09:13:16Z</time>
      </trkpt>
      <trkpt lat="48.41298" lon="2.49022">
        <ele>119</ele>
        <time>2011-07-31T09:13:22Z</time>
      </trkpt>
      <trkpt lat="48.41294" lon="2.49024">
        <ele>119</ele>
        <time>2011-07-31T09:13:24Z</time>
      </trkpt>
      <trkpt lat="48.4129" lon="2.49038">
        <ele>119</ele>
        <time>2011-07-31T09:13:29Z</time>
      </trkpt>
      <trkpt lat="48.41292" lon="2.49071">
        <ele>120</ele>
        <time>2011-07-31T09:13:37Z</time>
      </trkpt>
      <trkpt lat="48.41276" lon="2.49108">
        <ele>121</ele>
        <time>2011-07-31T09:13:48Z</time>
      </trkpt>
      <trkpt lat="48.41275" lon="2.49122">
        <ele>122</ele>
        <time>2011-07-31T09:13:51Z</time>
      </trkpt>
      <trkpt lat="48.41263" lon="2.49145">
        <ele>122</ele>
        <time>2011-07-31T09:13:58Z</time>
      </trkpt>
      <trkpt lat="48.41254" lon="2.49167">
        <ele>123</ele>
        <time>2011-07-31T09:14:06Z</time>
      </trkpt>
      <trkpt lat="48.41249" lon="2.49176">
        <ele>121</ele>
        <time>2011-07-31T09:14:12Z</time>
      </trkpt>
      <trkpt lat="48.4122" lon="2.49203">
        <ele>118</ele>
        <time>2011-07-31T09:14:24Z</time>
      </trkpt>
      <trkpt lat="48.41217" lon="2.49204">
        <ele>118</ele>
        <time>2011-07-31T09:14:25Z</time>
      </trkpt>
      <trkpt lat="48.41209" lon="2.49214">
        <ele>117</ele>
        <time>2011-07-31T09:14:29Z</time>
      </trkpt>
      <trkpt lat="48.41218" lon="2.49235">
        <ele>119</ele>
        <time>2011-07-31T09:14:36Z</time>
      </trkpt>
      <trkpt lat="48.41217" lon="2.49265">
        <ele>121</ele>
        <time>2011-07-31T09:14:44Z</time>
      </trkpt>
      <trkpt lat="48.41212" lon="2.49288">
        <ele>120</ele>
        <time>2011-07-31T09:14:50Z</time>
      </trkpt>
      <trkpt lat="48.41206" lon="2.49328">
        <ele>121</ele>
        <time>2011-07-31T09:15:00Z</time>
      </trkpt>
      <trkpt lat="48.41205" lon="2.49333">
        <ele>121</ele>
        <time>2011-07-31T09:15:01Z</time>
      </trkpt>
      <trkpt lat="48.41194" lon="2.49356">
        <ele>121</ele>
        <time>2011-07-31T09:15:07Z</time>
      </trkpt>
      <trkpt lat="48.41172" lon="2.4937">
        <ele>121</ele>
        <time>2011-07-31T09:15:15Z</time>
      </trkpt>
      <trkpt lat="48.41167" lon="2.49384">
        <ele>121</ele>
        <time>2011-07-31T09:15:19Z</time>
      </trkpt>
      <trkpt lat="48.41166" lon="2.4939">
        <ele>117</ele>
        <time>2011-07-31T09:15:21Z</time>
      </trkpt>
      <trkpt lat="48.41169" lon="2.49402">
        <ele>121</ele>
        <time>2011-07-31T09:15:24Z</time>
      </trkpt>
      <trkpt lat="48.41169" lon="2.49415">
        <ele>120</ele>
        <time>2011-07-31T09:15:28Z</time>
      </trkpt>
      <trkpt lat="48.41168" lon="2.4942">
        <ele>120</ele>
        <time>2011-07-31T09:15:30Z</time>
      </trkpt>
      <trkpt lat="48.41165" lon="2.49435">
        <ele>116</ele>
        <time>2011-07-31T09:15:35Z</time>
      </trkpt>
      <trkpt lat="48.4117" lon="2.49445">
        <ele>120</ele>
        <time>2011-07-31T09:15:39Z</time>
      </trkpt>
      <trkpt lat="48.41174" lon="2.49452">
        <ele>120</ele>
        <time>2011-07-31T09:15:41Z</time>
      </trkpt>
      <trkpt lat="48.41174" lon="2.49458">
        <ele>120</ele>
        <time>2011-07-31T09:15:43Z</time>
      </trkpt>
      <trkpt lat="48.41177" lon="2.4947">
        <ele>119</ele>
        <time>2011-07-31T09:15:47Z</time>
      </trkpt>
      <trkpt lat="48.41175" lon="2.49481">
        <ele>119</ele>
        <time>2011-07-31T09:15:52Z</time>
      </trkpt>
      <trkpt lat="48.41175" lon="2.49487">
        <ele>119</ele>
        <time>2011-07-31T09:15:54Z</time>
      </trkpt>
      <trkpt lat="48.4117" lon="2.49505">
        <ele>117</ele>
        <time>2011-07-31T09:16:02Z</time>
      </trkpt>
      <trkpt lat="48.41174" lon="2.49506">
        <ele>117</ele>
        <time>2011-07-31T09:16:04Z</time>
      </trkpt>
      <trkpt lat="48.41197" lon="2.49521">
        <ele>116</ele>
        <time>2011-07-31T09:16:11Z</time>
      </trkpt>
      <trkpt lat="48.41231" lon="2.49551">
        <ele>117</ele>
        <time>2011-07-31T09:16:17Z</time>
      </trkpt>
      <trkpt lat="48.41237" lon="2.49552">
        <ele>117</ele>
        <time>2011-07-31T09:16:19Z</time>
      </trkpt>
      <trkpt lat="48.41259" lon="2.49557">
        <ele>120</ele>
        <time>2011-07-31T09:16:26Z</time>
      </trkpt>
      <trkpt lat="48.4128" lon="2.49575">
        <ele>120</ele>
        <time>2011-07-31T09:16:36Z</time>
      </trkpt>
      <trkpt lat="48.41283" lon="2.4958">
        <ele>120</ele>
        <time>2011-07-31T09:16:38Z</time>
      </trkpt>
      <trkpt lat="48.41286" lon="2.49581">
        <ele>120</ele>
        <time>2011-07-31T09:16:40Z</time>
      </trkpt>
      <trkpt lat="48.41293" lon="2.49581">
        <ele>120</ele>
        <time>2011-07-31T09:16:52Z</time>
      </trkpt>
      <trkpt lat="48.41295" lon="2.49581">
        <ele>120</ele>
        <time>2011-07-31T09:16:57Z</time>
      </trkpt>
      <trkpt lat="48.41308" lon="2.49585">
        <ele>120</ele>
        <time>2011-07-31T09:17:11Z</time>
      </trkpt>
      <trkpt lat="48.4132" lon="2.49586">
        <ele>121</ele>
        <time>2011-07-31T09:17:25Z</time>
      </trkpt>
      <trkpt lat="48.41331" lon="2.49586">
        <ele>122</ele>
        <time>2011-07-31T09:17:37Z</time>
      </trkpt>
      <trkpt lat="48.41335" lon="2.49586">
        <ele>122</ele>
        <time>2011-07-31T09:17:39Z</time>
      </trkpt>
      <trkpt lat="48.41338" lon="2.49595">
        <ele>122</ele>
        <time>2011-07-31T09:17:46Z</time>
      </trkpt>
      <trkpt lat="48.41326" lon="2.49612">
        <ele>121</ele>
        <time>2011-07-31T09:17:55Z</time>
      </trkpt>
      <trkpt lat="48.41323" lon="2.49621">
        <ele>121</ele>
        <time>2011-07-31T09:17:59Z</time>
      </trkpt>
      <trkpt lat="48.41324" lon="2.49638">
        <ele>121</ele>
        <time>2011-07-31T09:18:06Z</time>
      </trkpt>
      <trkpt lat="48.41324" lon="2.49647">
        <ele>121</ele>
        <time>2011-07-31T09:18:10Z</time>
      </trkpt>
      <trkpt lat="48.4131" lon="2.49668">
        <ele>118</ele>
        <time>2011-07-31T09:18:23Z</time>
      </trkpt>
      <trkpt lat="48.41305" lon="2.49675">
        <ele>117</ele>
        <time>2011-07-31T09:18:26Z</time>
      </trkpt>
      <trkpt lat="48.41319" lon="2.49692">
        <ele>117</ele>
        <time>2011-07-31T09:18:36Z</time>
      </trkpt>
      <trkpt lat="48.41351" lon="2.49687">
        <ele>122</ele>
        <time>2011-07-31T09:18:48Z</time>
      </trkpt>
      <trkpt lat="48.41357" lon="2.49684">
        <ele>122</ele>
        <time>2011-07-31T09:18:50Z</time>
      </trkpt>
      <trkpt lat="48.41368" lon="2.49691">
        <ele>122</ele>
        <time>2011-07-31T09:18:54Z</time>
      </trkpt>
      <trkpt lat="48.41372" lon="2.49702">
        <ele>122</ele>
        <time>2011-07-31T09:18:56Z</time>
      </trkpt>
      <trkpt lat="48.41385" lon="2.49722">
        <ele>122</ele>
        <time>2011-07-31T09:19:00Z</time>
      </trkpt>
      <trkpt lat="48.41396" lon="2.49726">
        <ele>122</ele>
        <time>2011-07-31T09:19:02Z</time>
      </trkpt>
      <trkpt lat="48.41417" lon="2.49749">
        <ele>124</ele>
        <time>2011-07-31T09:19:08Z</time>
      </trkpt>
      <trkpt lat="48.41428" lon="2.4977">
        <ele>125</ele>
        <time>2011-07-31T09:19:15Z</time>
      </trkpt>
      <trkpt lat="48.41452" lon="2.49805">
        <ele>125</ele>
        <time>2011-07-31T09:19:30Z</time>
      </trkpt>
      <trkpt lat="48.41481" lon="2.49834">
        <ele>125</ele>
        <time>2011-07-31T09:19:43Z</time>
      </trkpt>
      <trkpt lat="48.41506" lon="2.49838">
        <ele>131</ele>
        <time>2011-07-31T09:19:51Z</time>
      </trkpt>
      <trkpt lat="48.41515" lon="2.49803">
        <ele>133</ele>
        <time>2011-07-31T09:19:58Z</time>
      </trkpt>
      <trkpt lat="48.41522" lon="2.49756">
        <ele>133</ele>
        <time>2011-07-31T09:20:07Z</time>
      </trkpt>
      <trkpt lat="48.41532" lon="2.49686">
        <ele>132</ele>
        <time>2011-07-31T09:20:18Z</time>
      </trkpt>
      <trkpt lat="48.41534" lon="2.49664">
        <ele>130</ele>
        <time>2011-07-31T09:20:21Z</time>
      </trkpt>
      <trkpt lat="48.41541" lon="2.49627">
        <ele>130</ele>
        <time>2011-07-31T09:20:26Z</time>
      </trkpt>
      <trkpt lat="48.4155" lon="2.49535">
        <ele>127</ele>
        <time>2011-07-31T09:20:37Z</time>
      </trkpt>
      <trkpt lat="48.41556" lon="2.495">
        <ele>127</ele>
        <time>2011-07-31T09:20:42Z</time>
      </trkpt>
      <trkpt lat="48.41562" lon="2.4948">
        <ele>126</ele>
        <time>2011-07-31T09:20:45Z</time>
      </trkpt>
      <trkpt lat="48.41566" lon="2.49441">
        <ele>126</ele>
        <time>2011-07-31T09:20:50Z</time>
      </trkpt>
      <trkpt lat="48.41575" lon="2.49369">
        <ele>124</ele>
        <time>2011-07-31T09:20:59Z</time>
      </trkpt>
      <trkpt lat="48.41582" lon="2.49348">
        <ele>124</ele>
        <time>2011-07-31T09:21:02Z</time>
      </trkpt>
      <trkpt lat="48.41588" lon="2.49308">
        <ele>123</ele>
        <time>2011-07-31T09:21:07Z</time>
      </trkpt>
      <trkpt lat="48.41595" lon="2.4927">
        <ele>124</ele>
        <time>2011-07-31T09:21:13Z</time>
      </trkpt>
      <trkpt lat="48.41601" lon="2.49247">
        <ele>125</ele>
        <time>2011-07-31T09:21:17Z</time>
      </trkpt>
      <trkpt lat="48.41603" lon="2.49188">
        <ele>124</ele>
        <time>2011-07-31T09:21:24Z</time>
      </trkpt>
      <trkpt lat="48.41614" lon="2.49068">
        <ele>125</ele>
        <time>2011-07-31T09:21:40Z</time>
      </trkpt>
      <trkpt lat="48.41625" lon="2.49013">
        <ele>124</ele>
        <time>2011-07-31T09:21:48Z</time>
      </trkpt>
      <trkpt lat="48.4163" lon="2.48961">
        <ele>121</ele>
        <time>2011-07-31T09:21:56Z</time>
      </trkpt>
      <trkpt lat="48.41636" lon="2.48913">
        <ele>116</ele>
        <time>2011-07-31T09:22:06Z</time>
      </trkpt>
      <trkpt lat="48.41643" lon="2.48884">
        <ele>115</ele>
        <time>2011-07-31T09:22:12Z</time>
      </trkpt>
      <trkpt lat="48.41669" lon="2.48908">
        <ele>117</ele>
        <time>2011-07-31T09:22:23Z</time>
      </trkpt>
      <trkpt lat="48.41678" lon="2.48903">
        <ele>114</ele>
        <time>2011-07-31T09:22:29Z</time>
      </trkpt>
      <trkpt lat="48.4169" lon="2.4889">
        <ele>111</ele>
        <time>2011-07-31T09:22:33Z</time>
      </trkpt>
      <trkpt lat="48.41697" lon="2.48854">
        <ele>109</ele>
        <time>2011-07-31T09:22:38Z</time>
      </trkpt>
      <trkpt lat="48.41701" lon="2.48837">
        <ele>108</ele>
        <time>2011-07-31T09:22:40Z</time>
      </trkpt>
      <trkpt lat="48.41712" lon="2.48806">
        <ele>101</ele>
        <time>2011-07-31T09:22:44Z</time>
      </trkpt>
      <trkpt lat="48.41723" lon="2.48768">
        <ele>98</ele>
        <time>2011-07-31T09:22:50Z</time>
      </trkpt>
      <trkpt lat="48.41721" lon="2.48765">
        <ele>98</ele>
        <time>2011-07-31T09:22:51Z</time>
      </trkpt>
      <trkpt lat="48.41718" lon="2.48759">
        <ele>98</ele>
        <time>2011-07-31T09:22:53Z</time>
      </trkpt>
      <trkpt lat="48.41725" lon="2.48743">
        <ele>94</ele>
        <time>2011-07-31T09:22:58Z</time>
      </trkpt>
      <trkpt lat="48.41729" lon="2.48732">
        <ele>94</ele>
        <time>2011-07-31T09:23:03Z</time>
      </trkpt>
      <trkpt lat="48.41734" lon="2.48717">
        <ele>93</ele>
        <time>2011-07-31T09:23:14Z</time>
      </trkpt>
      <trkpt lat="48.41756" lon="2.48701">
        <ele>90</ele>
        <time>2011-07-31T09:23:25Z</time>
      </trkpt>
      <trkpt lat="48.41791" lon="2.4868">
        <ele>90</ele>
        <time>2011-07-31T09:23:36Z</time>
      </trkpt>
      <trkpt lat="48.41803" lon="2.48711">
        <ele>90</ele>
        <time>2011-07-31T09:23:45Z</time>
      </trkpt>
      <trkpt lat="48.41806" lon="2.48766">
        <ele>91</ele>
        <time>2011-07-31T09:23:55Z</time>
      </trkpt>
      <trkpt lat="48.41811" lon="2.48834">
        <ele>94</ele>
        <time>2011-07-31T09:24:05Z</time>
      </trkpt>
      <trkpt lat="48.41814" lon="2.48874">
        <ele>95</ele>
        <time>2011-07-31T09:24:17Z</time>
      </trkpt>
      <trkpt lat="48.41815" lon="2.48879">
        <ele>96</ele>
        <time>2011-07-31T09:24:32Z</time>
      </trkpt>
      <trkpt lat="48.41815" lon="2.48882">
        <ele>96</ele>
        <time>2011-07-31T09:24:34Z</time>
      </trkpt>
      <trkpt lat="48.4181" lon="2.48897">
        <ele>96</ele>
        <time>2011-07-31T09:24:39Z</time>
      </trkpt>
      <trkpt lat="48.41808" lon="2.48913">
        <ele>96</ele>
        <time>2011-07-31T09:24:43Z</time>
      </trkpt>
      <trkpt lat="48.41793" lon="2.48945">
        <ele>100</ele>
        <time>2011-07-31T09:24:54Z</time>
      </trkpt>
      <trkpt lat="48.41797" lon="2.48978">
        <ele>101</ele>
        <time>2011-07-31T09:25:03Z</time>
      </trkpt>
      <trkpt lat="48.41804" lon="2.49024">
        <ele>101</ele>
        <time>2011-07-31T09:25:16Z</time>
      </trkpt>
      <trkpt lat="48.41805" lon="2.49028">
        <ele>101</ele>
        <time>2011-07-31T09:25:18Z</time>
      </trkpt>
      <trkpt lat="48.41808" lon="2.49031">
        <ele>101</ele>
        <time>2011-07-31T09:25:21Z</time>
      </trkpt>
      <trkpt lat="48.41829" lon="2.49017">
        <ele>99</ele>
        <time>2011-07-31T09:25:33Z</time>
      </trkpt>
      <trkpt lat="48.41835" lon="2.49015">
        <ele>98</ele>
        <time>2011-07-31T09:25:36Z</time>
      </trkpt>
      <trkpt lat="48.41846" lon="2.49021">
        <ele>99</ele>
        <time>2011-07-31T09:25:41Z</time>
      </trkpt>
      <trkpt lat="48.41881" lon="2.49033">
        <ele>101</ele>
        <time>2011-07-31T09:25:55Z</time>
      </trkpt>
      <trkpt lat="48.41909" lon="2.49048">
        <ele>102</ele>
        <time>2011-07-31T09:26:07Z</time>
      </trkpt>
      <trkpt lat="48.41939" lon="2.49025">
        <ele>108</ele>
        <time>2011-07-31T09:26:19Z</time>
      </trkpt>
      <trkpt lat="48.41951" lon="2.49003">
        <ele>109</ele>
        <time>2011-07-31T09:26:27Z</time>
      </trkpt>
      <trkpt lat="48.41965" lon="2.48947">
        <ele>111</ele>
        <time>2011-07-31T09:26:43Z</time>
      </trkpt>
      <trkpt lat="48.41979" lon="2.489">
        <ele>112</ele>
        <time>2011-07-31T09:27:00Z</time>
      </trkpt>
      <trkpt lat="48.41988" lon="2.48882">
        <ele>112</ele>
        <time>2011-07-31T09:27:09Z</time>
      </trkpt>
      <trkpt lat="48.41993" lon="2.48879">
        <ele>112</ele>
        <time>2011-07-31T09:27:13Z</time>
      </trkpt>
      <trkpt lat="48.41995" lon="2.48878">
        <ele>112</ele>
        <time>2011-07-31T09:27:15Z</time>
      </trkpt>
      <trkpt lat="48.42025" lon="2.48877">
        <ele>116</ele>
        <time>2011-07-31T09:27:35Z</time>
      </trkpt>
      <trkpt lat="48.42048" lon="2.48899">
        <ele>117</ele>
        <time>2011-07-31T09:27:52Z</time>
      </trkpt>
      <trkpt lat="48.4205" lon="2.48903">
        <ele>117</ele>
        <time>2011-07-31T09:27:55Z</time>
      </trkpt>
      <trkpt lat="48.42053" lon="2.48905">
        <ele>117</ele>
        <time>2011-07-31T09:28:07Z</time>
      </trkpt>
      <trkpt lat="48.42054" lon="2.48914">
        <ele>117</ele>
        <time>2011-07-31T09:28:11Z</time>
      </trkpt>
      <trkpt lat="48.42055" lon="2.48923">
        <ele>117</ele>
        <time>2011-07-31T09:28:15Z</time>
      </trkpt>
      <trkpt lat="48.42056" lon="2.48939">
        <ele>117</ele>
        <time>2011-07-31T09:28:21Z</time>
      </trkpt>
      <trkpt lat="48.4205" lon="2.48955">
        <ele>117</ele>
        <time>2011-07-31T09:28:29Z</time>
      </trkpt>
      <trkpt lat="48.4205" lon="2.48962">
        <ele>117</ele>
        <time>2011-07-31T09:28:33Z</time>
      </trkpt>
      <trkpt lat="48.4205" lon="2.48967">
        <ele>117</ele>
        <time>2011-07-31T09:28:35Z</time>
      </trkpt>
      <trkpt lat="48.4205" lon="2.48981">
        <ele>117</ele>
        <time>2011-07-31T09:28:41Z</time>
      </trkpt>
      <trkpt lat="48.4205" lon="2.4899">
        <ele>117</ele>
        <time>2011-07-31T09:28:46Z</time>
      </trkpt>
      <trkpt lat="48.42054" lon="2.48997">
        <ele>117</ele>
        <time>2011-07-31T09:28:59Z</time>
      </trkpt>
      <trkpt lat="48.42057" lon="2.49007">
        <ele>118</ele>
        <time>2011-07-31T09:29:18Z</time>
      </trkpt>
      <trkpt lat="48.42057" lon="2.49007">
        <ele>118</ele>
        <time>2011-07-31T09:29:39Z</time>
      </trkpt>
      <trkpt lat="48.42057" lon="2.49007">
        <ele>118</ele>
        <time>2011-07-31T09:29:47Z</time>
      </trkpt>
      <trkpt lat="48.42055" lon="2.49014">
        <ele>118</ele>
        <time>2011-07-31T09:29:51Z</time>
      </trkpt>
      <trkpt lat="48.42045" lon="2.49056">
        <ele>117</ele>
        <time>2011-07-31T09:30:07Z</time>
      </trkpt>
      <trkpt lat="48.42044" lon="2.49111">
        <ele>118</ele>
        <time>2011-07-31T09:30:22Z</time>
      </trkpt>
      <trkpt lat="48.42036" lon="2.49156">
        <ele>118</ele>
        <time>2011-07-31T09:30:35Z</time>
      </trkpt>
      <trkpt lat="48.42019" lon="2.49188">
        <ele>117</ele>
        <time>2011-07-31T09:30:45Z</time>
      </trkpt>
      <trkpt lat="48.42018" lon="2.49196">
        <ele>117</ele>
        <time>2011-07-31T09:30:48Z</time>
      </trkpt>
      <trkpt lat="48.42007" lon="2.49218">
        <ele>118</ele>
        <time>2011-07-31T09:30:55Z</time>
      </trkpt>
      <trkpt lat="48.42007" lon="2.4924">
        <ele>118</ele>
        <time>2011-07-31T09:30:59Z</time>
      </trkpt>
      <trkpt lat="48.42001" lon="2.49251">
        <ele>118</ele>
        <time>2011-07-31T09:31:03Z</time>
      </trkpt>
      <trkpt lat="48.41999" lon="2.49262">
        <ele>116</ele>
        <time>2011-07-31T09:31:08Z</time>
      </trkpt>
      <trkpt lat="48.41995" lon="2.49298">
        <ele>115</ele>
        <time>2011-07-31T09:31:16Z</time>
      </trkpt>
      <trkpt lat="48.41993" lon="2.49311">
        <ele>115</ele>
        <time>2011-07-31T09:31:19Z</time>
      </trkpt>
      <trkpt lat="48.42015" lon="2.49349">
        <ele>118</ele>
        <time>2011-07-31T09:31:32Z</time>
      </trkpt>
      <trkpt lat="48.42024" lon="2.4939">
        <ele>117</ele>
        <time>2011-07-31T09:31:42Z</time>
      </trkpt>
      <trkpt lat="48.42024" lon="2.49442">
        <ele>116</ele>
        <time>2011-07-31T09:31:55Z</time>
      </trkpt>
      <trkpt lat="48.42039" lon="2.49492">
        <ele>116</ele>
        <time>2011-07-31T09:32:07Z</time>
      </trkpt>
      <trkpt lat="48.42052" lon="2.49543">
        <ele>117</ele>
        <time>2011-07-31T09:32:17Z</time>
      </trkpt>
      <trkpt lat="48.42052" lon="2.49549">
        <ele>117</ele>
        <time>2011-07-31T09:32:18Z</time>
      </trkpt>
      <trkpt lat="48.42045" lon="2.49616">
        <ele>120</ele>
        <time>2011-07-31T09:32:29Z</time>
      </trkpt>
      <trkpt lat="48.42044" lon="2.49628">
        <ele>120</ele>
        <time>2011-07-31T09:32:31Z</time>
      </trkpt>
      <trkpt lat="48.42029" lon="2.49725">
        <ele>121</ele>
        <time>2011-07-31T09:32:48Z</time>
      </trkpt>
      <trkpt lat="48.42029" lon="2.49729">
        <ele>121</ele>
        <time>2011-07-31T09:32:49Z</time>
      </trkpt>
      <trkpt lat="48.42037" lon="2.49735">
        <ele>121</ele>
        <time>2011-07-31T09:32:53Z</time>
      </trkpt>
      <trkpt lat="48.42096" lon="2.49744">
        <ele>120</ele>
        <time>2011-07-31T09:33:07Z</time>
      </trkpt>
      <trkpt lat="48.42112" lon="2.49756">
        <ele>121</ele>
        <time>2011-07-31T09:33:11Z</time>
      </trkpt>
      <trkpt lat="48.42122" lon="2.49769">
        <ele>121</ele>
        <time>2011-07-31T09:33:14Z</time>
      </trkpt>
      <trkpt lat="48.4212" lon="2.49798">
        <ele>121</ele>
        <time>2011-07-31T09:33:21Z</time>
      </trkpt>
      <trkpt lat="48.42115" lon="2.49811">
        <ele>121</ele>
        <time>2011-07-31T09:33:24Z</time>
      </trkpt>
      <trkpt lat="48.42121" lon="2.49841">
        <ele>120</ele>
        <time>2011-07-31T09:33:29Z</time>
      </trkpt>
      <trkpt lat="48.42129" lon="2.49871">
        <ele>119</ele>
        <time>2011-07-31T09:33:33Z</time>
      </trkpt>
      <trkpt lat="48.42125" lon="2.49907">
        <ele>119</ele>
        <time>2011-07-31T09:33:37Z</time>
      </trkpt>
      <trkpt lat="48.42119" lon="2.49921">
        <ele>117</ele>
        <time>2011-07-31T09:33:39Z</time>
      </trkpt>
      <trkpt lat="48.42115" lon="2.49938">
        <ele>118</ele>
        <time>2011-07-31T09:33:41Z</time>
      </trkpt>
      <trkpt lat="48.42107" lon="2.50008">
        <ele>119</ele>
        <time>2011-07-31T09:33:52Z</time>
      </trkpt>
      <trkpt lat="48.42099" lon="2.50047">
        <ele>119</ele>
        <time>2011-07-31T09:34:05Z</time>
      </trkpt>
      <trkpt lat="48.42097" lon="2.50057">
        <ele>120</ele>
        <time>2011-07-31T09:34:09Z</time>
      </trkpt>
      <trkpt lat="48.42076" lon="2.50081">
        <ele>124</ele>
        <time>2011-07-31T09:34:21Z</time>
      </trkpt>
      <trkpt lat="48.42074" lon="2.50091">
        <ele>125</ele>
        <time>2011-07-31T09:34:24Z</time>
      </trkpt>
      <trkpt lat="48.4206" lon="2.50137">
        <ele>127</ele>
        <time>2011-07-31T09:34:37Z</time>
      </trkpt>
      <trkpt lat="48.4206" lon="2.5014">
        <ele>127</ele>
        <time>2011-07-31T09:34:38Z</time>
      </trkpt>
      <trkpt lat="48.4207" lon="2.50174">
        <ele>128</ele>
        <time>2011-07-31T09:34:45Z</time>
      </trkpt>
      <trkpt lat="48.42083" lon="2.50199">
        <ele>128</ele>
        <time>2011-07-31T09:34:51Z</time>
      </trkpt>
      <trkpt lat="48.42086" lon="2.50231">
        <ele>124</ele>
        <time>2011-07-31T09:34:58Z</time>
      </trkpt>
      <trkpt lat="48.42083" lon="2.50271">
        <ele>129</ele>
        <time>2011-07-31T09:35:06Z</time>
      </trkpt>
      <trkpt lat="48.42081" lon="2.50283">
        <ele>129</ele>
        <time>2011-07-31T09:35:08Z</time>
      </trkpt>
      <trkpt lat="48.42096" lon="2.50326">
        <ele>125</ele>
        <time>2011-07-31T09:35:15Z</time>
      </trkpt>
      <trkpt lat="48.42099" lon="2.50363">
        <ele>123</ele>
        <time>2011-07-31T09:35:21Z</time>
      </trkpt>
      <trkpt lat="48.42099" lon="2.50375">
        <ele>123</ele>
        <time>2011-07-31T09:35:23Z</time>
      </trkpt>
      <trkpt lat="48.42105" lon="2.50388">
        <ele>123</ele>
        <time>2011-07-31T09:35:27Z</time>
      </trkpt>
      <trkpt lat="48.42103" lon="2.50392">
        <ele>123</ele>
        <time>2011-07-31T09:35:29Z</time>
      </trkpt>
      <trkpt lat="48.42095" lon="2.50421">
        <ele>124</ele>
        <time>2011-07-31T09:35:36Z</time>
      </trkpt>
      <trkpt lat="48.42095" lon="2.50426">
        <ele>124</ele>
        <time>2011-07-31T09:35:37Z</time>
      </trkpt>
      <trkpt lat="48.42083" lon="2.50473">
        <ele>128</ele>
        <time>2011-07-31T09:35:45Z</time>
      </trkpt>
      <trkpt lat="48.42078" lon="2.50484">
        <ele>128</ele>
        <time>2011-07-31T09:35:47Z</time>
      </trkpt>
      <trkpt lat="48.42073" lon="2.50499">
        <ele>127</ele>
        <time>2011-07-31T09:35:50Z</time>
      </trkpt>
      <trkpt lat="48.42063" lon="2.50545">
        <ele>127</ele>
        <time>2011-07-31T09:36:00Z</time>
      </trkpt>
      <trkpt lat="48.42062" lon="2.50571">
        <ele>126</ele>
        <time>2011-07-31T09:36:04Z</time>
      </trkpt>
      <trkpt lat="48.42047" lon="2.50639">
        <ele>126</ele>
        <time>2011-07-31T09:36:15Z</time>
      </trkpt>
      <trkpt lat="48.42046" lon="2.50645">
        <ele>126</ele>
        <time>2011-07-31T09:36:16Z</time>
      </trkpt>
      <trkpt lat="48.42052" lon="2.50674">
        <ele>124</ele>
        <time>2011-07-31T09:36:24Z</time>
      </trkpt>
      <trkpt lat="48.42052" lon="2.50673">
        <ele>124</ele>
        <time>2011-07-31T09:36:27Z</time>
      </trkpt>
      <trkpt lat="48.42068" lon="2.50677">
        <ele>123</ele>
        <time>2011-07-31T09:36:39Z</time>
      </trkpt>
      <trkpt lat="48.4208" lon="2.50683">
        <ele>122</ele>
        <time>2011-07-31T09:36:45Z</time>
      </trkpt>
      <trkpt lat="48.42096" lon="2.50696">
        <ele>113</ele>
        <time>2011-07-31T09:36:53Z</time>
      </trkpt>
      <trkpt lat="48.42111" lon="2.50705">
        <ele>111</ele>
        <time>2011-07-31T09:36:59Z</time>
      </trkpt>
      <trkpt lat="48.42114" lon="2.50704">
        <ele>111</ele>
        <time>2011-07-31T09:37:01Z</time>
      </trkpt>
      <trkpt lat="48.42119" lon="2.50679">
        <ele>111</ele>
        <time>2011-07-31T09:37:12Z</time>
      </trkpt>
      <trkpt lat="48.42123" lon="2.50677">
        <ele>111</ele>
        <time>2011-07-31T09:37:16Z</time>
      </trkpt>
      <trkpt lat="48.42132" lon="2.50677">
        <ele>109</ele>
        <time>2011-07-31T09:37:20Z</time>
      </trkpt>
      <trkpt lat="48.42137" lon="2.50679">
        <ele>109</ele>
        <time>2011-07-31T09:37:23Z</time>
      </trkpt>
      <trkpt lat="48.42153" lon="2.50672">
        <ele>106</ele>
        <time>2011-07-31T09:37:29Z</time>
      </trkpt>
      <trkpt lat="48.42176" lon="2.50656">
        <ele>102</ele>
        <time>2011-07-31T09:37:36Z</time>
      </trkpt>
      <trkpt lat="48.42179" lon="2.50652">
        <ele>102</ele>
        <time>2011-07-31T09:37:49Z</time>
      </trkpt>
      <trkpt lat="48.42189" lon="2.50646">
        <ele>101</ele>
        <time>2011-07-31T09:38:05Z</time>
      </trkpt>
      <trkpt lat="48.42195" lon="2.50646">
        <ele>101</ele>
        <time>2011-07-31T09:38:19Z</time>
      </trkpt>
      <trkpt lat="48.42201" lon="2.5064">
        <ele>101</ele>
        <time>2011-07-31T09:38:33Z</time>
      </trkpt>
      <trkpt lat="48.42204" lon="2.50638">
        <ele>101</ele>
        <time>2011-07-31T09:38:35Z</time>
      </trkpt>
      <trkpt lat="48.42206" lon="2.50634">
        <ele>101</ele>
        <time>2011-07-31T09:38:38Z</time>
      </trkpt>
      <trkpt lat="48.42215" lon="2.50635">
        <ele>100</ele>
        <time>2011-07-31T09:38:48Z</time>
      </trkpt>
      <trkpt lat="48.42215" lon="2.50635">
        <ele>100</ele>
        <time>2011-07-31T09:39:00Z</time>
      </trkpt>
      <trkpt lat="48.42221" lon="2.5064">
        <ele>100</ele>
        <time>2011-07-31T09:39:05Z</time>
      </trkpt>
      <trkpt lat="48.42224" lon="2.50641">
        <ele>99</ele>
        <time>2011-07-31T09:39:07Z</time>
      </trkpt>
      <trkpt lat="48.42246" lon="2.50644">
        <ele>98</ele>
        <time>2011-07-31T09:39:15Z</time>
      </trkpt>
      <trkpt lat="48.42247" lon="2.50648">
        <ele>98</ele>
        <time>2011-07-31T09:39:16Z</time>
      </trkpt>
      <trkpt lat="48.42246" lon="2.50658">
        <ele>97</ele>
        <time>2011-07-31T09:39:19Z</time>
      </trkpt>
      <trkpt lat="48.42232" lon="2.50718">
        <ele>97</ele>
        <time>2011-07-31T09:39:29Z</time>
      </trkpt>
      <trkpt lat="48.42227" lon="2.50742">
        <ele>96</ele>
        <time>2011-07-31T09:39:32Z</time>
      </trkpt>
      <trkpt lat="48.42219" lon="2.50819">
        <ele>96</ele>
        <time>2011-07-31T09:39:43Z</time>
      </trkpt>
      <trkpt lat="48.42216" lon="2.50839">
        <ele>96</ele>
        <time>2011-07-31T09:39:46Z</time>
      </trkpt>
      <trkpt lat="48.42215" lon="2.5086">
        <ele>96</ele>
        <time>2011-07-31T09:39:49Z</time>
      </trkpt>
      <trkpt lat="48.422" lon="2.50981">
        <ele>93</ele>
        <time>2011-07-31T09:40:05Z</time>
      </trkpt>
      <trkpt lat="48.42183" lon="2.51054">
        <ele>88</ele>
        <time>2011-07-31T09:40:15Z</time>
      </trkpt>
      <trkpt lat="48.42167" lon="2.51091">
        <ele>85</ele>
        <time>2011-07-31T09:40:21Z</time>
      </trkpt>
      <trkpt lat="48.42169" lon="2.51119">
        <ele>85</ele>
        <time>2011-07-31T09:40:25Z</time>
      </trkpt>
      <trkpt lat="48.42173" lon="2.51133">
        <ele>85</ele>
        <time>2011-07-31T09:40:27Z</time>
      </trkpt>
      <trkpt lat="48.42159" lon="2.51198">
        <ele>86</ele>
        <time>2011-07-31T09:40:36Z</time>
      </trkpt>
      <trkpt lat="48.42145" lon="2.51224">
        <ele>86</ele>
        <time>2011-07-31T09:40:41Z</time>
      </trkpt>
      <trkpt lat="48.42138" lon="2.51246">
        <ele>86</ele>
        <time>2011-07-31T09:40:45Z</time>
      </trkpt>
      <trkpt lat="48.42135" lon="2.51265">
        <ele>85</ele>
        <time>2011-07-31T09:40:48Z</time>
      </trkpt>
      <trkpt lat="48.42135" lon="2.51308">
        <ele>85</ele>
        <time>2011-07-31T09:40:53Z</time>
      </trkpt>
      <trkpt lat="48.42129" lon="2.51341">
        <ele>85</ele>
        <time>2011-07-31T09:40:58Z</time>
      </trkpt>
      <trkpt lat="48.42123" lon="2.51415">
        <ele>85</ele>
        <time>2011-07-31T09:41:07Z</time>
      </trkpt>
      <trkpt lat="48.42111" lon="2.51436">
        <ele>85</ele>
        <time>2011-07-31T09:41:11Z</time>
      </trkpt>
      <trkpt lat="48.42104" lon="2.51446">
        <ele>85</ele>
        <time>2011-07-31T09:41:13Z</time>
      </trkpt>
      <trkpt lat="48.4209" lon="2.51495">
        <ele>84</ele>
        <time>2011-07-31T09:41:20Z</time>
      </trkpt>
      <trkpt lat="48.42096" lon="2.51542">
        <ele>84</ele>
        <time>2011-07-31T09:41:26Z</time>
      </trkpt>
      <trkpt lat="48.421" lon="2.51556">
        <ele>84</ele>
        <time>2011-07-31T09:41:28Z</time>
      </trkpt>
      <trkpt lat="48.42097" lon="2.51603">
        <ele>84</ele>
        <time>2011-07-31T09:41:34Z</time>
      </trkpt>
      <trkpt lat="48.42094" lon="2.51624">
        <ele>84</ele>
        <time>2011-07-31T09:41:37Z</time>
      </trkpt>
      <trkpt lat="48.42091" lon="2.51654">
        <ele>83</ele>
        <time>2011-07-31T09:41:41Z</time>
      </trkpt>
      <trkpt lat="48.42086" lon="2.51684">
        <ele>83</ele>
        <time>2011-07-31T09:41:45Z</time>
      </trkpt>
      <trkpt lat="48.42081" lon="2.51722">
        <ele>83</ele>
        <time>2011-07-31T09:41:54Z</time>
      </trkpt>
      <trkpt lat="48.42082" lon="2.51725">
        <ele>83</ele>
        <time>2011-07-31T09:41:58Z</time>
      </trkpt>
      <trkpt lat="48.42075" lon="2.51736">
        <ele>83</ele>
        <time>2011-07-31T09:42:05Z</time>
      </trkpt>
      <trkpt lat="48.4207" lon="2.51755">
        <ele>81</ele>
        <time>2011-07-31T09:42:10Z</time>
      </trkpt>
      <trkpt lat="48.42063" lon="2.5175">
        <ele>81</ele>
        <time>2011-07-31T09:42:15Z</time>
      </trkpt>
      <trkpt lat="48.42049" lon="2.51725">
        <ele>83</ele>
        <time>2011-07-31T09:42:25Z</time>
      </trkpt>
      <trkpt lat="48.42042" lon="2.51719">
        <ele>83</ele>
        <time>2011-07-31T09:42:28Z</time>
      </trkpt>
      <trkpt lat="48.4203" lon="2.51689">
        <ele>85</ele>
        <time>2011-07-31T09:42:37Z</time>
      </trkpt>
      <trkpt lat="48.42014" lon="2.51651">
        <ele>89</ele>
        <time>2011-07-31T09:42:46Z</time>
      </trkpt>
      <trkpt lat="48.42005" lon="2.51616">
        <ele>90</ele>
        <time>2011-07-31T09:42:56Z</time>
      </trkpt>
      <trkpt lat="48.42" lon="2.51604">
        <ele>97</ele>
        <time>2011-07-31T09:43:00Z</time>
      </trkpt>
      <trkpt lat="48.41971" lon="2.51581">
        <ele>102</ele>
        <time>2011-07-31T09:43:13Z</time>
      </trkpt>
      <trkpt lat="48.4195" lon="2.51565">
        <ele>104</ele>
        <time>2011-07-31T09:43:24Z</time>
      </trkpt>
      <trkpt lat="48.41944" lon="2.5156">
        <ele>104</ele>
        <time>2011-07-31T09:43:27Z</time>
      </trkpt>
      <trkpt lat="48.41937" lon="2.5156">
        <ele>105</ele>
        <time>2011-07-31T09:43:31Z</time>
      </trkpt>
      <trkpt lat="48.41924" lon="2.51556">
        <ele>105</ele>
        <time>2011-07-31T09:43:39Z</time>
      </trkpt>
      <trkpt lat="48.41913" lon="2.51548">
        <ele>111</ele>
        <time>2011-07-31T09:43:47Z</time>
      </trkpt>
      <trkpt lat="48.41904" lon="2.51542">
        <ele>112</ele>
        <time>2011-07-31T09:43:54Z</time>
      </trkpt>
      <trkpt lat="48.41892" lon="2.5152">
        <ele>113</ele>
        <time>2011-07-31T09:44:06Z</time>
      </trkpt>
      <trkpt lat="48.41883" lon="2.51493">
        <ele>117</ele>
        <time>2011-07-31T09:44:19Z</time>
      </trkpt>
      <trkpt lat="48.41882" lon="2.51486">
        <ele>117</ele>
        <time>2011-07-31T09:44:22Z</time>
      </trkpt>
      <trkpt lat="48.41863" lon="2.51463">
        <ele>119</ele>
        <time>2011-07-31T09:44:36Z</time>
      </trkpt>
      <trkpt lat="48.41846" lon="2.51459">
        <ele>120</ele>
        <time>2011-07-31T09:44:44Z</time>
      </trkpt>
      <trkpt lat="48.41831" lon="2.51443">
        <ele>124</ele>
        <time>2011-07-31T09:44:53Z</time>
      </trkpt>
      <trkpt lat="48.41828" lon="2.51429">
        <ele>125</ele>
        <time>2011-07-31T09:44:59Z</time>
      </trkpt>
      <trkpt lat="48.41825" lon="2.51406">
        <ele>126</ele>
        <time>2011-07-31T09:45:08Z</time>
      </trkpt>
      <trkpt lat="48.4182" lon="2.51388">
        <ele>126</ele>
        <time>2011-07-31T09:45:18Z</time>
      </trkpt>
      <trkpt lat="48.4182" lon="2.51388">
        <ele>126</ele>
        <time>2011-07-31T09:46:28Z</time>
      </trkpt>
      <trkpt lat="48.4182" lon="2.51387">
        <ele>126</ele>
        <time>2011-07-31T09:46:34Z</time>
      </trkpt>
      <trkpt lat="48.41847" lon="2.51376">
        <ele>123</ele>
        <time>2011-07-31T09:46:46Z</time>
      </trkpt>
      <trkpt lat="48.41859" lon="2.51336">
        <ele>123</ele>
        <time>2011-07-31T09:46:55Z</time>
      </trkpt>
      <trkpt lat="48.41873" lon="2.51281">
        <ele>124</ele>
        <time>2011-07-31T09:47:05Z</time>
      </trkpt>
      <trkpt lat="48.41876" lon="2.51269">
        <ele>124</ele>
        <time>2011-07-31T09:47:07Z</time>
      </trkpt>
      <trkpt lat="48.41878" lon="2.51257">
        <ele>124</ele>
        <time>2011-07-31T09:47:09Z</time>
      </trkpt>
      <trkpt lat="48.41884" lon="2.51247">
        <ele>125</ele>
        <time>2011-07-31T09:47:11Z</time>
      </trkpt>
      <trkpt lat="48.41891" lon="2.51199">
        <ele>125</ele>
        <time>2011-07-31T09:47:19Z</time>
      </trkpt>
      <trkpt lat="48.41897" lon="2.51165">
        <ele>125</ele>
        <time>2011-07-31T09:47:24Z</time>
      </trkpt>
      <trkpt lat="48.41902" lon="2.5115">
        <ele>125</ele>
        <time>2011-07-31T09:47:26Z</time>
      </trkpt>
      <trkpt lat="48.41914" lon="2.51099">
        <ele>125</ele>
        <time>2011-07-31T09:47:35Z</time>
      </trkpt>
      <trkpt lat="48.41922" lon="2.51054">
        <ele>122</ele>
        <time>2011-07-31T09:47:42Z</time>
      </trkpt>
      <trkpt lat="48.41938" lon="2.50991">
        <ele>124</ele>
        <time>2011-07-31T09:47:52Z</time>
      </trkpt>
      <trkpt lat="48.41951" lon="2.50934">
        <ele>124</ele>
        <time>2011-07-31T09:48:01Z</time>
      </trkpt>
      <trkpt lat="48.41963" lon="2.50873">
        <ele>125</ele>
        <time>2011-07-31T09:48:11Z</time>
      </trkpt>
      <trkpt lat="48.4197" lon="2.50853">
        <ele>125</ele>
        <time>2011-07-31T09:48:15Z</time>
      </trkpt>
      <trkpt lat="48.41976" lon="2.5081">
        <ele>126</ele>
        <time>2011-07-31T09:48:22Z</time>
      </trkpt>
      <trkpt lat="48.41984" lon="2.50795">
        <ele>126</ele>
        <time>2011-07-31T09:48:26Z</time>
      </trkpt>
      <trkpt lat="48.41989" lon="2.50774">
        <ele>127</ele>
        <time>2011-07-31T09:48:30Z</time>
      </trkpt>
      <trkpt lat="48.42004" lon="2.50695">
        <ele>126</ele>
        <time>2011-07-31T09:48:43Z</time>
      </trkpt>
      <trkpt lat="48.42001" lon="2.50696">
        <ele>126</ele>
        <time>2011-07-31T09:48:52Z</time>
      </trkpt>
      <trkpt lat="48.41972" lon="2.50704">
        <ele>131</ele>
        <time>2011-07-31T09:49:02Z</time>
      </trkpt>
      <trkpt lat="48.41941" lon="2.50713">
        <ele>131</ele>
        <time>2011-07-31T09:49:09Z</time>
      </trkpt>
      <trkpt lat="48.41918" lon="2.5072">
        <ele>131</ele>
        <time>2011-07-31T09:49:14Z</time>
      </trkpt>
      <trkpt lat="48.41896" lon="2.50729">
        <ele>133</ele>
        <time>2011-07-31T09:49:19Z</time>
      </trkpt>
      <trkpt lat="48.41877" lon="2.50734">
        <ele>134</ele>
        <time>2011-07-31T09:49:23Z</time>
      </trkpt>
      <trkpt lat="48.41839" lon="2.50746">
        <ele>135</ele>
        <time>2011-07-31T09:49:31Z</time>
      </trkpt>
      <trkpt lat="48.4182" lon="2.50754">
        <ele>135</ele>
        <time>2011-07-31T09:49:35Z</time>
      </trkpt>
      <trkpt lat="48.41802" lon="2.50759">
        <ele>134</ele>
        <time>2011-07-31T09:49:39Z</time>
      </trkpt>
      <trkpt lat="48.41779" lon="2.50766">
        <ele>134</ele>
        <time>2011-07-31T09:49:44Z</time>
      </trkpt>
      <trkpt lat="48.41753" lon="2.50773">
        <ele>135</ele>
        <time>2011-07-31T09:49:50Z</time>
      </trkpt>
      <trkpt lat="48.4171" lon="2.50786">
        <ele>134</ele>
        <time>2011-07-31T09:50:00Z</time>
      </trkpt>
      <trkpt lat="48.41692" lon="2.50787">
        <ele>134</ele>
        <time>2011-07-31T09:50:06Z</time>
      </trkpt>
      <trkpt lat="48.41695" lon="2.50727">
        <ele>135</ele>
        <time>2011-07-31T09:50:16Z</time>
      </trkpt>
      <trkpt lat="48.41696" lon="2.50702">
        <ele>135</ele>
        <time>2011-07-31T09:50:19Z</time>
      </trkpt>
      <trkpt lat="48.41697" lon="2.50679">
        <ele>135</ele>
        <time>2011-07-31T09:50:22Z</time>
      </trkpt>
      <trkpt lat="48.417" lon="2.50652">
        <ele>136</ele>
        <time>2011-07-31T09:50:26Z</time>
      </trkpt>
      <trkpt lat="48.41712" lon="2.50563">
        <ele>136</ele>
        <time>2011-07-31T09:50:38Z</time>
      </trkpt>
      <trkpt lat="48.41712" lon="2.50555">
        <ele>136</ele>
        <time>2011-07-31T09:50:39Z</time>
      </trkpt>
      <trkpt lat="48.41713" lon="2.50513">
        <ele>136</ele>
        <time>2011-07-31T09:50:44Z</time>
      </trkpt>
      <trkpt lat="48.4172" lon="2.5045">
        <ele>134</ele>
        <time>2011-07-31T09:50:52Z</time>
      </trkpt>
      <trkpt lat="48.41728" lon="2.50362">
        <ele>131</ele>
        <time>2011-07-31T09:51:01Z</time>
      </trkpt>
      <trkpt lat="48.4173" lon="2.50333">
        <ele>129</ele>
        <time>2011-07-31T09:51:04Z</time>
      </trkpt>
      <trkpt lat="48.4174" lon="2.50229">
        <ele>129</ele>
        <time>2011-07-31T09:51:16Z</time>
      </trkpt>
      <trkpt lat="48.41746" lon="2.50193">
        <ele>128</ele>
        <time>2011-07-31T09:51:21Z</time>
      </trkpt>
      <trkpt lat="48.41752" lon="2.50097">
        <ele>128</ele>
        <time>2011-07-31T09:51:34Z</time>
      </trkpt>
      <trkpt lat="48.41758" lon="2.50045">
        <ele>126</ele>
        <time>2011-07-31T09:51:40Z</time>
      </trkpt>
      <trkpt lat="48.41762" lon="2.50006">
        <ele>126</ele>
        <time>2011-07-31T09:51:44Z</time>
      </trkpt>
      <trkpt lat="48.41743" lon="2.4991">
        <ele>123</ele>
        <time>2011-07-31T09:51:55Z</time>
      </trkpt>
      <trkpt lat="48.4173" lon="2.49875">
        <ele>123</ele>
        <time>2011-07-31T09:52:00Z</time>
      </trkpt>
      <trkpt lat="48.41725" lon="2.49831">
        <ele>122</ele>
        <time>2011-07-31T09:52:06Z</time>
      </trkpt>
      <trkpt lat="48.41721" lon="2.49803">
        <ele>122</ele>
        <time>2011-07-31T09:52:10Z</time>
      </trkpt>
      <trkpt lat="48.4173" lon="2.49796">
        <ele>122</ele>
        <time>2011-07-31T09:52:20Z</time>
      </trkpt>
      <trkpt lat="48.41729" lon="2.49798">
        <ele>122</ele>
        <time>2011-07-31T09:53:55Z</time>
      </trkpt>
      <trkpt lat="48.41724" lon="2.49803">
        <ele>122</ele>
        <time>2011-07-31T09:53:59Z</time>
      </trkpt>
      <trkpt lat="48.4172" lon="2.498">
        <ele>122</ele>
        <time>2011-07-31T09:54:03Z</time>
      </trkpt>
      <trkpt lat="48.41704" lon="2.4975">
        <ele>123</ele>
        <time>2011-07-31T09:54:15Z</time>
      </trkpt>
      <trkpt lat="48.41682" lon="2.49676">
        <ele>121</ele>
        <time>2011-07-31T09:54:25Z</time>
      </trkpt>
      <trkpt lat="48.4168" lon="2.49632">
        <ele>117</ele>
        <time>2011-07-31T09:54:30Z</time>
      </trkpt>
      <trkpt lat="48.41683" lon="2.49621">
        <ele>117</ele>
        <time>2011-07-31T09:54:32Z</time>
      </trkpt>
      <trkpt lat="48.41706" lon="2.49616">
        <ele>116</ele>
        <time>2011-07-31T09:54:42Z</time>
      </trkpt>
      <trkpt lat="48.41717" lon="2.49597">
        <ele>115</ele>
        <time>2011-07-31T09:54:49Z</time>
      </trkpt>
      <trkpt lat="48.4172" lon="2.49585">
        <ele>115</ele>
        <time>2011-07-31T09:54:52Z</time>
      </trkpt>
      <trkpt lat="48.41737" lon="2.49588">
        <ele>114</ele>
        <time>2011-07-31T09:55:04Z</time>
      </trkpt>
      <trkpt lat="48.41738" lon="2.49589">
        <ele>114</ele>
        <time>2011-07-31T09:55:05Z</time>
      </trkpt>
      <trkpt lat="48.41748" lon="2.49585">
        <ele>112</ele>
        <time>2011-07-31T09:55:18Z</time>
      </trkpt>
      <trkpt lat="48.41748" lon="2.49585">
        <ele>112</ele>
        <time>2011-07-31T09:55:53Z</time>
      </trkpt>
      <trkpt lat="48.41746" lon="2.49585">
        <ele>113</ele>
        <time>2011-07-31T10:03:53Z</time>
      </trkpt>
      <trkpt lat="48.41739" lon="2.49587">
        <ele>114</ele>
        <time>2011-07-31T10:04:10Z</time>
      </trkpt>
      <trkpt lat="48.41738" lon="2.49586">
        <ele>114</ele>
        <time>2011-07-31T10:04:13Z</time>
      </trkpt>
      <trkpt lat="48.41722" lon="2.49582">
        <ele>112</ele>
        <time>2011-07-31T10:04:20Z</time>
      </trkpt>
      <trkpt lat="48.41711" lon="2.49609">
        <ele>116</ele>
        <time>2011-07-31T10:04:31Z</time>
      </trkpt>
      <trkpt lat="48.41709" lon="2.49614">
        <ele>116</ele>
        <time>2011-07-31T10:04:33Z</time>
      </trkpt>
      <trkpt lat="48.41685" lon="2.49621">
        <ele>117</ele>
        <time>2011-07-31T10:04:44Z</time>
      </trkpt>
      <trkpt lat="48.4168" lon="2.49627">
        <ele>117</ele>
        <time>2011-07-31T10:04:48Z</time>
      </trkpt>
      <trkpt lat="48.41683" lon="2.49688">
        <ele>121</ele>
        <time>2011-07-31T10:05:04Z</time>
      </trkpt>
      <trkpt lat="48.41709" lon="2.49776">
        <ele>122</ele>
        <time>2011-07-31T10:05:23Z</time>
      </trkpt>
      <trkpt lat="48.41722" lon="2.49851">
        <ele>123</ele>
        <time>2011-07-31T10:05:36Z</time>
      </trkpt>
      <trkpt lat="48.41723" lon="2.49857">
        <ele>123</ele>
        <time>2011-07-31T10:05:37Z</time>
      </trkpt>
      <trkpt lat="48.41729" lon="2.49882">
        <ele>123</ele>
        <time>2011-07-31T10:05:41Z</time>
      </trkpt>
      <trkpt lat="48.41746" lon="2.49926">
        <ele>123</ele>
        <time>2011-07-31T10:05:48Z</time>
      </trkpt>
      <trkpt lat="48.41761" lon="2.49989">
        <ele>125</ele>
        <time>2011-07-31T10:05:57Z</time>
      </trkpt>
      <trkpt lat="48.41761" lon="2.50016">
        <ele>126</ele>
        <time>2011-07-31T10:06:01Z</time>
      </trkpt>
      <trkpt lat="48.41751" lon="2.50074">
        <ele>127</ele>
        <time>2011-07-31T10:06:11Z</time>
      </trkpt>
      <trkpt lat="48.41745" lon="2.50137">
        <ele>127</ele>
        <time>2011-07-31T10:06:21Z</time>
      </trkpt>
      <trkpt lat="48.41738" lon="2.50201">
        <ele>128</ele>
        <time>2011-07-31T10:06:31Z</time>
      </trkpt>
      <trkpt lat="48.41735" lon="2.50234">
        <ele>129</ele>
        <time>2011-07-31T10:06:39Z</time>
      </trkpt>
      <trkpt lat="48.41735" lon="2.50233">
        <ele>129</ele>
        <time>2011-07-31T10:06:42Z</time>
      </trkpt>
      <trkpt lat="48.41736" lon="2.50229">
        <ele>128</ele>
        <time>2011-07-31T10:06:45Z</time>
      </trkpt>
      <trkpt lat="48.4174" lon="2.50218">
        <ele>128</ele>
        <time>2011-07-31T10:06:56Z</time>
      </trkpt>
      <trkpt lat="48.41741" lon="2.50188">
        <ele>128</ele>
        <time>2011-07-31T10:07:04Z</time>
      </trkpt>
      <trkpt lat="48.41719" lon="2.50169">
        <ele>127</ele>
        <time>2011-07-31T10:07:11Z</time>
      </trkpt>
      <trkpt lat="48.4169" lon="2.50152">
        <ele>124</ele>
        <time>2011-07-31T10:07:21Z</time>
      </trkpt>
      <trkpt lat="48.41678" lon="2.5013">
        <ele>123</ele>
        <time>2011-07-31T10:07:26Z</time>
      </trkpt>
      <trkpt lat="48.41673" lon="2.50123">
        <ele>123</ele>
        <time>2011-07-31T10:07:28Z</time>
      </trkpt>
      <trkpt lat="48.41666" lon="2.50108">
        <ele>116</ele>
        <time>2011-07-31T10:07:31Z</time>
      </trkpt>
      <trkpt lat="48.41655" lon="2.50094">
        <ele>116</ele>
        <time>2011-07-31T10:07:35Z</time>
      </trkpt>
      <trkpt lat="48.41635" lon="2.50074">
        <ele>113</ele>
        <time>2011-07-31T10:07:43Z</time>
      </trkpt>
      <trkpt lat="48.41626" lon="2.50075">
        <ele>112</ele>
        <time>2011-07-31T10:07:47Z</time>
      </trkpt>
      <trkpt lat="48.41621" lon="2.50073">
        <ele>112</ele>
        <time>2011-07-31T10:07:49Z</time>
      </trkpt>
      <trkpt lat="48.41612" lon="2.50078">
        <ele>111</ele>
        <time>2011-07-31T10:07:57Z</time>
      </trkpt>
      <trkpt lat="48.41597" lon="2.50078">
        <ele>109</ele>
        <time>2011-07-31T10:08:02Z</time>
      </trkpt>
      <trkpt lat="48.41581" lon="2.50073">
        <ele>105</ele>
        <time>2011-07-31T10:08:07Z</time>
      </trkpt>
      <trkpt lat="48.41563" lon="2.50069">
        <ele>104</ele>
        <time>2011-07-31T10:08:15Z</time>
      </trkpt>
      <trkpt lat="48.41561" lon="2.50071">
        <ele>104</ele>
        <time>2011-07-31T10:08:17Z</time>
      </trkpt>
      <trkpt lat="48.41555" lon="2.50074">
        <ele>104</ele>
        <time>2011-07-31T10:08:20Z</time>
      </trkpt>
      <trkpt lat="48.41542" lon="2.50072">
        <ele>103</ele>
        <time>2011-07-31T10:08:25Z</time>
      </trkpt>
      <trkpt lat="48.41528" lon="2.50073">
        <ele>102</ele>
        <time>2011-07-31T10:08:30Z</time>
      </trkpt>
      <trkpt lat="48.41511" lon="2.50072">
        <ele>100</ele>
        <time>2011-07-31T10:08:34Z</time>
      </trkpt>
      <trkpt lat="48.41469" lon="2.50051">
        <ele>97</ele>
        <time>2011-07-31T10:08:47Z</time>
      </trkpt>
      <trkpt lat="48.41447" lon="2.50042">
        <ele>97</ele>
        <time>2011-07-31T10:08:55Z</time>
      </trkpt>
      <trkpt lat="48.41445" lon="2.50051">
        <ele>97</ele>
        <time>2011-07-31T10:08:59Z</time>
      </trkpt>
      <trkpt lat="48.41457" lon="2.50129">
        <ele>102</ele>
        <time>2011-07-31T10:09:17Z</time>
      </trkpt>
      <trkpt lat="48.41448" lon="2.50202">
        <ele>110</ele>
        <time>2011-07-31T10:09:33Z</time>
      </trkpt>
      <trkpt lat="48.41444" lon="2.50276">
        <ele>115</ele>
        <time>2011-07-31T10:09:48Z</time>
      </trkpt>
      <trkpt lat="48.41452" lon="2.50351">
        <ele>117</ele>
        <time>2011-07-31T10:10:02Z</time>
      </trkpt>
      <trkpt lat="48.41447" lon="2.50397">
        <ele>117</ele>
        <time>2011-07-31T10:10:10Z</time>
      </trkpt>
      <trkpt lat="48.41453" lon="2.50445">
        <ele>118</ele>
        <time>2011-07-31T10:10:18Z</time>
      </trkpt>
      <trkpt lat="48.41474" lon="2.5056">
        <ele>120</ele>
        <time>2011-07-31T10:10:37Z</time>
      </trkpt>
      <trkpt lat="48.41495" lon="2.50676">
        <ele>124</ele>
        <time>2011-07-31T10:10:58Z</time>
      </trkpt>
      <trkpt lat="48.41498" lon="2.50756">
        <ele>126</ele>
        <time>2011-07-31T10:11:12Z</time>
      </trkpt>
      <trkpt lat="48.41475" lon="2.50816">
        <ele>128</ele>
        <time>2011-07-31T10:11:24Z</time>
      </trkpt>
      <trkpt lat="48.41465" lon="2.50821">
        <ele>128</ele>
        <time>2011-07-31T10:11:28Z</time>
      </trkpt>
      <trkpt lat="48.41423" lon="2.50783">
        <ele>128</ele>
        <time>2011-07-31T10:11:41Z</time>
      </trkpt>
      <trkpt lat="48.41392" lon="2.50752">
        <ele>129</ele>
        <time>2011-07-31T10:11:51Z</time>
      </trkpt>
      <trkpt lat="48.41376" lon="2.50734">
        <ele>129</ele>
        <time>2011-07-31T10:11:56Z</time>
      </trkpt>
      <trkpt lat="48.41348" lon="2.50689">
        <ele>129</ele>
        <time>2011-07-31T10:12:06Z</time>
      </trkpt>
      <trkpt lat="48.41333" lon="2.5068">
        <ele>129</ele>
        <time>2011-07-31T10:12:10Z</time>
      </trkpt>
      <trkpt lat="48.41323" lon="2.50679">
        <ele>129</ele>
        <time>2011-07-31T10:12:12Z</time>
      </trkpt>
      <trkpt lat="48.41299" lon="2.50669">
        <ele>128</ele>
        <time>2011-07-31T10:12:16Z</time>
      </trkpt>
      <trkpt lat="48.41284" lon="2.50656">
        <ele>129</ele>
        <time>2011-07-31T10:12:19Z</time>
      </trkpt>
      <trkpt lat="48.41251" lon="2.50632">
        <ele>129</ele>
        <time>2011-07-31T10:12:29Z</time>
      </trkpt>
      <trkpt lat="48.41234" lon="2.50622">
        <ele>127</ele>
        <time>2011-07-31T10:12:34Z</time>
      </trkpt>
      <trkpt lat="48.4121" lon="2.50593">
        <ele>127</ele>
        <time>2011-07-31T10:12:43Z</time>
      </trkpt>
      <trkpt lat="48.41159" lon="2.50602">
        <ele>119</ele>
        <time>2011-07-31T10:12:58Z</time>
      </trkpt>
      <trkpt lat="48.41151" lon="2.506">
        <ele>118</ele>
        <time>2011-07-31T10:13:00Z</time>
      </trkpt>
      <trkpt lat="48.41144" lon="2.50604">
        <ele>117</ele>
        <time>2011-07-31T10:13:02Z</time>
      </trkpt>
      <trkpt lat="48.41144" lon="2.50617">
        <ele>117</ele>
        <time>2011-07-31T10:13:06Z</time>
      </trkpt>
      <trkpt lat="48.41147" lon="2.50626">
        <ele>117</ele>
        <time>2011-07-31T10:13:08Z</time>
      </trkpt>
      <trkpt lat="48.41154" lon="2.50642">
        <ele>117</ele>
        <time>2011-07-31T10:13:13Z</time>
      </trkpt>
      <trkpt lat="48.41169" lon="2.50689">
        <ele>122</ele>
        <time>2011-07-31T10:13:25Z</time>
      </trkpt>
      <trkpt lat="48.41172" lon="2.50696">
        <ele>122</ele>
        <time>2011-07-31T10:13:27Z</time>
      </trkpt>
      <trkpt lat="48.41177" lon="2.507">
        <ele>122</ele>
        <time>2011-07-31T10:13:29Z</time>
      </trkpt>
      <trkpt lat="48.41198" lon="2.5073">
        <ele>121</ele>
        <time>2011-07-31T10:13:39Z</time>
      </trkpt>
      <trkpt lat="48.4122" lon="2.50758">
        <ele>121</ele>
        <time>2011-07-31T10:13:47Z</time>
      </trkpt>
      <trkpt lat="48.41222" lon="2.5076">
        <ele>121</ele>
        <time>2011-07-31T10:13:48Z</time>
      </trkpt>
      <trkpt lat="48.41226" lon="2.50766">
        <ele>121</ele>
        <time>2011-07-31T10:13:50Z</time>
      </trkpt>
      <trkpt lat="48.41231" lon="2.50767">
        <ele>122</ele>
        <time>2011-07-31T10:13:52Z</time>
      </trkpt>
      <trkpt lat="48.41243" lon="2.50778">
        <ele>122</ele>
        <time>2011-07-31T10:14:01Z</time>
      </trkpt>
      <trkpt lat="48.41252" lon="2.50778">
        <ele>126</ele>
        <time>2011-07-31T10:14:06Z</time>
      </trkpt>
      <trkpt lat="48.41263" lon="2.50797">
        <ele>125</ele>
        <time>2011-07-31T10:14:16Z</time>
      </trkpt>
      <trkpt lat="48.41263" lon="2.50803">
        <ele>125</ele>
        <time>2011-07-31T10:14:18Z</time>
      </trkpt>
      <trkpt lat="48.41269" lon="2.50806">
        <ele>125</ele>
        <time>2011-07-31T10:14:22Z</time>
      </trkpt>
      <trkpt lat="48.41276" lon="2.50806">
        <ele>125</ele>
        <time>2011-07-31T10:14:25Z</time>
      </trkpt>
      <trkpt lat="48.41284" lon="2.50798">
        <ele>126</ele>
        <time>2011-07-31T10:14:29Z</time>
      </trkpt>
      <trkpt lat="48.41289" lon="2.50798">
        <ele>126</ele>
        <time>2011-07-31T10:14:33Z</time>
      </trkpt>
      <trkpt lat="48.41304" lon="2.50804">
        <ele>127</ele>
        <time>2011-07-31T10:14:40Z</time>
      </trkpt>
      <trkpt lat="48.41332" lon="2.50812">
        <ele>128</ele>
        <time>2011-07-31T10:14:48Z</time>
      </trkpt>
      <trkpt lat="48.41349" lon="2.50856">
        <ele>127</ele>
        <time>2011-07-31T10:14:57Z</time>
      </trkpt>
      <trkpt lat="48.41354" lon="2.50865">
        <ele>127</ele>
        <time>2011-07-31T10:14:59Z</time>
      </trkpt>
      <trkpt lat="48.41353" lon="2.50887">
        <ele>126</ele>
        <time>2011-07-31T10:15:04Z</time>
      </trkpt>
      <trkpt lat="48.41349" lon="2.50906">
        <ele>124</ele>
        <time>2011-07-31T10:15:08Z</time>
      </trkpt>
      <trkpt lat="48.41349" lon="2.50916">
        <ele>124</ele>
        <time>2011-07-31T10:15:11Z</time>
      </trkpt>
      <trkpt lat="48.41345" lon="2.5092">
        <ele>122</ele>
        <time>2011-07-31T10:15:14Z</time>
      </trkpt>
      <trkpt lat="48.41343" lon="2.50935">
        <ele>122</ele>
        <time>2011-07-31T10:15:21Z</time>
      </trkpt>
      <trkpt lat="48.41346" lon="2.5094">
        <ele>122</ele>
        <time>2011-07-31T10:15:42Z</time>
      </trkpt>
      <trkpt lat="48.41349" lon="2.50942">
        <ele>122</ele>
        <time>2011-07-31T10:15:51Z</time>
      </trkpt>
      <trkpt lat="48.41359" lon="2.50964">
        <ele>122</ele>
        <time>2011-07-31T10:16:03Z</time>
      </trkpt>
      <trkpt lat="48.4136" lon="2.50974">
        <ele>122</ele>
        <time>2011-07-31T10:16:07Z</time>
      </trkpt>
      <trkpt lat="48.41366" lon="2.50985">
        <ele>122</ele>
        <time>2011-07-31T10:16:12Z</time>
      </trkpt>
      <trkpt lat="48.41368" lon="2.50988">
        <ele>122</ele>
        <time>2011-07-31T10:16:14Z</time>
      </trkpt>
      <trkpt lat="48.41371" lon="2.50996">
        <ele>122</ele>
        <time>2011-07-31T10:16:18Z</time>
      </trkpt>
      <trkpt lat="48.41368" lon="2.51004">
        <ele>121</ele>
        <time>2011-07-31T10:16:22Z</time>
      </trkpt>
      <trkpt lat="48.41368" lon="2.5102">
        <ele>122</ele>
        <time>2011-07-31T10:16:29Z</time>
      </trkpt>
      <trkpt lat="48.41372" lon="2.51036">
        <ele>122</ele>
        <time>2011-07-31T10:16:37Z</time>
      </trkpt>
      <trkpt lat="48.41371" lon="2.51046">
        <ele>122</ele>
        <time>2011-07-31T10:16:41Z</time>
      </trkpt>
      <trkpt lat="48.41373" lon="2.51051">
        <ele>122</ele>
        <time>2011-07-31T10:16:43Z</time>
      </trkpt>
      <trkpt lat="48.41378" lon="2.51062">
        <ele>123</ele>
        <time>2011-07-31T10:16:49Z</time>
      </trkpt>
      <trkpt lat="48.41377" lon="2.51079">
        <ele>123</ele>
        <time>2011-07-31T10:16:56Z</time>
      </trkpt>
      <trkpt lat="48.41374" lon="2.51104">
        <ele>123</ele>
        <time>2011-07-31T10:17:03Z</time>
      </trkpt>
      <trkpt lat="48.41372" lon="2.51118">
        <ele>123</ele>
        <time>2011-07-31T10:17:07Z</time>
      </trkpt>
      <trkpt lat="48.41358" lon="2.51162">
        <ele>123</ele>
        <time>2011-07-31T10:17:17Z</time>
      </trkpt>
      <trkpt lat="48.41359" lon="2.51168">
        <ele>124</ele>
        <time>2011-07-31T10:17:19Z</time>
      </trkpt>
      <trkpt lat="48.41359" lon="2.51179">
        <ele>124</ele>
        <time>2011-07-31T10:17:22Z</time>
      </trkpt>
      <trkpt lat="48.41353" lon="2.51191">
        <ele>124</ele>
        <time>2011-07-31T10:17:26Z</time>
      </trkpt>
      <trkpt lat="48.41345" lon="2.51196">
        <ele>124</ele>
        <time>2011-07-31T10:17:29Z</time>
      </trkpt>
      <trkpt lat="48.41338" lon="2.51208">
        <ele>124</ele>
        <time>2011-07-31T10:17:33Z</time>
      </trkpt>
      <trkpt lat="48.41324" lon="2.51219">
        <ele>120</ele>
        <time>2011-07-31T10:17:37Z</time>
      </trkpt>
      <trkpt lat="48.41314" lon="2.51221">
        <ele>120</ele>
        <time>2011-07-31T10:17:39Z</time>
      </trkpt>
      <trkpt lat="48.41297" lon="2.51208">
        <ele>119</ele>
        <time>2011-07-31T10:17:43Z</time>
      </trkpt>
      <trkpt lat="48.41287" lon="2.51194">
        <ele>118</ele>
        <time>2011-07-31T10:17:46Z</time>
      </trkpt>
      <trkpt lat="48.41281" lon="2.51181">
        <ele>117</ele>
        <time>2011-07-31T10:17:48Z</time>
      </trkpt>
      <trkpt lat="48.41262" lon="2.51161">
        <ele>113</ele>
        <time>2011-07-31T10:17:52Z</time>
      </trkpt>
      <trkpt lat="48.41254" lon="2.51161">
        <ele>112</ele>
        <time>2011-07-31T10:17:54Z</time>
      </trkpt>
      <trkpt lat="48.41243" lon="2.51154">
        <ele>107</ele>
        <time>2011-07-31T10:17:57Z</time>
      </trkpt>
      <trkpt lat="48.41234" lon="2.51149">
        <ele>106</ele>
        <time>2011-07-31T10:18:01Z</time>
      </trkpt>
      <trkpt lat="48.41231" lon="2.51147">
        <ele>105</ele>
        <time>2011-07-31T10:18:13Z</time>
      </trkpt>
      <trkpt lat="48.41228" lon="2.51142">
        <ele>105</ele>
        <time>2011-07-31T10:18:17Z</time>
      </trkpt>
      <trkpt lat="48.41223" lon="2.5114">
        <ele>104</ele>
        <time>2011-07-31T10:18:30Z</time>
      </trkpt>
      <trkpt lat="48.41222" lon="2.51139">
        <ele>104</ele>
        <time>2011-07-31T10:18:31Z</time>
      </trkpt>
      <trkpt lat="48.41214" lon="2.51138">
        <ele>103</ele>
        <time>2011-07-31T10:18:40Z</time>
      </trkpt>
      <trkpt lat="48.41204" lon="2.51121">
        <ele>102</ele>
        <time>2011-07-31T10:18:48Z</time>
      </trkpt>
      <trkpt lat="48.41197" lon="2.51108">
        <ele>101</ele>
        <time>2011-07-31T10:18:54Z</time>
      </trkpt>
      <trkpt lat="48.41194" lon="2.51095">
        <ele>101</ele>
        <time>2011-07-31T10:18:57Z</time>
      </trkpt>
      <trkpt lat="48.4117" lon="2.51089">
        <ele>97</ele>
        <time>2011-07-31T10:19:04Z</time>
      </trkpt>
      <trkpt lat="48.41155" lon="2.51084">
        <ele>98</ele>
        <time>2011-07-31T10:19:08Z</time>
      </trkpt>
      <trkpt lat="48.41155" lon="2.51074">
        <ele>99</ele>
        <time>2011-07-31T10:19:12Z</time>
      </trkpt>
      <trkpt lat="48.41159" lon="2.51042">
        <ele>102</ele>
        <time>2011-07-31T10:19:20Z</time>
      </trkpt>
      <trkpt lat="48.41185" lon="2.51014">
        <ele>100</ele>
        <time>2011-07-31T10:19:31Z</time>
      </trkpt>
      <trkpt lat="48.4119" lon="2.51005">
        <ele>101</ele>
        <time>2011-07-31T10:19:34Z</time>
      </trkpt>
      <trkpt lat="48.4122" lon="2.50994">
        <ele>104</ele>
        <time>2011-07-31T10:19:46Z</time>
      </trkpt>
      <trkpt lat="48.41254" lon="2.5097">
        <ele>109</ele>
        <time>2011-07-31T10:19:59Z</time>
      </trkpt>
      <trkpt lat="48.41275" lon="2.5096">
        <ele>112</ele>
        <time>2011-07-31T10:20:09Z</time>
      </trkpt>
      <trkpt lat="48.41277" lon="2.50959">
        <ele>112</ele>
        <time>2011-07-31T10:20:10Z</time>
      </trkpt>
      <trkpt lat="48.41288" lon="2.50949">
        <ele>113</ele>
        <time>2011-07-31T10:20:17Z</time>
      </trkpt>
      <trkpt lat="48.41298" lon="2.50944">
        <ele>114</ele>
        <time>2011-07-31T10:20:23Z</time>
      </trkpt>
      <trkpt lat="48.41302" lon="2.50939">
        <ele>114</ele>
        <time>2011-07-31T10:20:41Z</time>
      </trkpt>
      <trkpt lat="48.41307" lon="2.50936">
        <ele>115</ele>
        <time>2011-07-31T10:20:54Z</time>
      </trkpt>
      <trkpt lat="48.41309" lon="2.50932">
        <ele>115</ele>
        <time>2011-07-31T10:21:07Z</time>
      </trkpt>
      <trkpt lat="48.41317" lon="2.50929">
        <ele>117</ele>
        <time>2011-07-31T10:21:21Z</time>
      </trkpt>
      <trkpt lat="48.41321" lon="2.50924">
        <ele>118</ele>
        <time>2011-07-31T10:21:37Z</time>
      </trkpt>
      <trkpt lat="48.41328" lon="2.50921">
        <ele>119</ele>
        <time>2011-07-31T10:21:53Z</time>
      </trkpt>
      <trkpt lat="48.41338" lon="2.50925">
        <ele>122</ele>
        <time>2011-07-31T10:22:06Z</time>
      </trkpt>
      <trkpt lat="48.41342" lon="2.50925">
        <ele>122</ele>
        <time>2011-07-31T10:22:16Z</time>
      </trkpt>
      <trkpt lat="48.41357" lon="2.50914">
        <ele>124</ele>
        <time>2011-07-31T10:22:30Z</time>
      </trkpt>
      <trkpt lat="48.41389" lon="2.50895">
        <ele>127</ele>
        <time>2011-07-31T10:22:43Z</time>
      </trkpt>
      <trkpt lat="48.41398" lon="2.50889">
        <ele>127</ele>
        <time>2011-07-31T10:22:46Z</time>
      </trkpt>
      <trkpt lat="48.41434" lon="2.50879">
        <ele>129</ele>
        <time>2011-07-31T10:22:55Z</time>
      </trkpt>
      <trkpt lat="48.4147" lon="2.50866">
        <ele>129</ele>
        <time>2011-07-31T10:23:04Z</time>
      </trkpt>
      <trkpt lat="48.4148" lon="2.5086">
        <ele>129</ele>
        <time>2011-07-31T10:23:07Z</time>
      </trkpt>
      <trkpt lat="48.41528" lon="2.50847">
        <ele>131</ele>
        <time>2011-07-31T10:23:18Z</time>
      </trkpt>
      <trkpt lat="48.41569" lon="2.50832">
        <ele>130</ele>
        <time>2011-07-31T10:23:28Z</time>
      </trkpt>
      <trkpt lat="48.41581" lon="2.50826">
        <ele>130</ele>
        <time>2011-07-31T10:23:31Z</time>
      </trkpt>
      <trkpt lat="48.41617" lon="2.50813">
        <ele>132</ele>
        <time>2011-07-31T10:23:40Z</time>
      </trkpt>
      <trkpt lat="48.41652" lon="2.50804">
        <ele>132</ele>
        <time>2011-07-31T10:23:47Z</time>
      </trkpt>
      <trkpt lat="48.41674" lon="2.50799">
        <ele>134</ele>
        <time>2011-07-31T10:23:52Z</time>
      </trkpt>
      <trkpt lat="48.41687" lon="2.50817">
        <ele>134</ele>
        <time>2011-07-31T10:23:58Z</time>
      </trkpt>
      <trkpt lat="48.41686" lon="2.50826">
        <ele>133</ele>
        <time>2011-07-31T10:24:00Z</time>
      </trkpt>
      <trkpt lat="48.41684" lon="2.50847">
        <ele>133</ele>
        <time>2011-07-31T10:24:03Z</time>
      </trkpt>
      <trkpt lat="48.4168" lon="2.50911">
        <ele>134</ele>
        <time>2011-07-31T10:24:11Z</time>
      </trkpt>
      <trkpt lat="48.41676" lon="2.50954">
        <ele>134</ele>
        <time>2011-07-31T10:24:16Z</time>
      </trkpt>
      <trkpt lat="48.41672" lon="2.51003">
        <ele>136</ele>
        <time>2011-07-31T10:24:22Z</time>
      </trkpt>
      <trkpt lat="48.41664" lon="2.51087">
        <ele>135</ele>
        <time>2011-07-31T10:24:33Z</time>
      </trkpt>
      <trkpt lat="48.4166" lon="2.51159">
        <ele>134</ele>
        <time>2011-07-31T10:24:41Z</time>
      </trkpt>
      <trkpt lat="48.41658" lon="2.51202">
        <ele>134</ele>
        <time>2011-07-31T10:24:46Z</time>
      </trkpt>
      <trkpt lat="48.41651" lon="2.51254">
        <ele>134</ele>
        <time>2011-07-31T10:24:53Z</time>
      </trkpt>
      <trkpt lat="48.41643" lon="2.51322">
        <ele>132</ele>
        <time>2011-07-31T10:25:02Z</time>
      </trkpt>
      <trkpt lat="48.41637" lon="2.51412">
        <ele>131</ele>
        <time>2011-07-31T10:25:12Z</time>
      </trkpt>
      <trkpt lat="48.41634" lon="2.51467">
        <ele>131</ele>
        <time>2011-07-31T10:25:18Z</time>
      </trkpt>
      <trkpt lat="48.41624" lon="2.5155">
        <ele>129</ele>
        <time>2011-07-31T10:25:27Z</time>
      </trkpt>
      <trkpt lat="48.41623" lon="2.51559">
        <ele>129</ele>
        <time>2011-07-31T10:25:28Z</time>
      </trkpt>
      <trkpt lat="48.4163" lon="2.51603">
        <ele>127</ele>
        <time>2011-07-31T10:25:32Z</time>
      </trkpt>
      <trkpt lat="48.41661" lon="2.5169">
        <ele>124</ele>
        <time>2011-07-31T10:25:42Z</time>
      </trkpt>
      <trkpt lat="48.41674" lon="2.51732">
        <ele>120</ele>
        <time>2011-07-31T10:25:47Z</time>
      </trkpt>
      <trkpt lat="48.41677" lon="2.51773">
        <ele>121</ele>
        <time>2011-07-31T10:25:52Z</time>
      </trkpt>
      <trkpt lat="48.41694" lon="2.51806">
        <ele>120</ele>
        <time>2011-07-31T10:25:57Z</time>
      </trkpt>
      <trkpt lat="48.41703" lon="2.51816">
        <ele>120</ele>
        <time>2011-07-31T10:25:59Z</time>
      </trkpt>
      <trkpt lat="48.41719" lon="2.5183">
        <ele>120</ele>
        <time>2011-07-31T10:26:02Z</time>
      </trkpt>
      <trkpt lat="48.41748" lon="2.51859">
        <ele>122</ele>
        <time>2011-07-31T10:26:09Z</time>
      </trkpt>
      <trkpt lat="48.4177" lon="2.51904">
        <ele>119</ele>
        <time>2011-07-31T10:26:14Z</time>
      </trkpt>
      <trkpt lat="48.4177" lon="2.5193">
        <ele>120</ele>
        <time>2011-07-31T10:26:17Z</time>
      </trkpt>
      <trkpt lat="48.41774" lon="2.51968">
        <ele>119</ele>
        <time>2011-07-31T10:26:21Z</time>
      </trkpt>
      <trkpt lat="48.41773" lon="2.52005">
        <ele>119</ele>
        <time>2011-07-31T10:26:25Z</time>
      </trkpt>
      <trkpt lat="48.4177" lon="2.52023">
        <ele>119</ele>
        <time>2011-07-31T10:26:27Z</time>
      </trkpt>
      <trkpt lat="48.41774" lon="2.52059">
        <ele>118</ele>
        <time>2011-07-31T10:26:31Z</time>
      </trkpt>
      <trkpt lat="48.41779" lon="2.52078">
        <ele>118</ele>
        <time>2011-07-31T10:26:33Z</time>
      </trkpt>
      <trkpt lat="48.4178" lon="2.5211">
        <ele>116</ele>
        <time>2011-07-31T10:26:36Z</time>
      </trkpt>
      <trkpt lat="48.41774" lon="2.5215">
        <ele>116</ele>
        <time>2011-07-31T10:26:40Z</time>
      </trkpt>
      <trkpt lat="48.4176" lon="2.52186">
        <ele>115</ele>
        <time>2011-07-31T10:26:44Z</time>
      </trkpt>
      <trkpt lat="48.41751" lon="2.52196">
        <ele>115</ele>
        <time>2011-07-31T10:26:46Z</time>
      </trkpt>
      <trkpt lat="48.41731" lon="2.52202">
        <ele>120</ele>
        <time>2011-07-31T10:26:50Z</time>
      </trkpt>
      <trkpt lat="48.41693" lon="2.52207">
        <ele>120</ele>
        <time>2011-07-31T10:26:58Z</time>
      </trkpt>
      <trkpt lat="48.41687" lon="2.52226">
        <ele>121</ele>
        <time>2011-07-31T10:39:58Z</time>
      </trkpt>
      <trkpt lat="48.41678" lon="2.52263">
        <ele>120</ele>
        <time>2011-07-31T10:40:03Z</time>
      </trkpt>
      <trkpt lat="48.4164" lon="2.52384">
        <ele>120</ele>
        <time>2011-07-31T10:40:19Z</time>
      </trkpt>
      <trkpt lat="48.41629" lon="2.52418">
        <ele>120</ele>
        <time>2011-07-31T10:40:23Z</time>
      </trkpt>
      <trkpt lat="48.41613" lon="2.52447">
        <ele>120</ele>
        <time>2011-07-31T10:40:27Z</time>
      </trkpt>
      <trkpt lat="48.41613" lon="2.52485">
        <ele>120</ele>
        <time>2011-07-31T10:40:32Z</time>
      </trkpt>
      <trkpt lat="48.41611" lon="2.52524">
        <ele>119</ele>
        <time>2011-07-31T10:40:38Z</time>
      </trkpt>
      <trkpt lat="48.41583" lon="2.52598">
        <ele>119</ele>
        <time>2011-07-31T10:40:49Z</time>
      </trkpt>
      <trkpt lat="48.41554" lon="2.52639">
        <ele>120</ele>
        <time>2011-07-31T10:40:58Z</time>
      </trkpt>
      <trkpt lat="48.41542" lon="2.52682">
        <ele>121</ele>
        <time>2011-07-31T10:41:09Z</time>
      </trkpt>
      <trkpt lat="48.41555" lon="2.52709">
        <ele>121</ele>
        <time>2011-07-31T10:41:16Z</time>
      </trkpt>
      <trkpt lat="48.41551" lon="2.52749">
        <ele>121</ele>
        <time>2011-07-31T10:41:26Z</time>
      </trkpt>
      <trkpt lat="48.4155" lon="2.52772">
        <ele>121</ele>
        <time>2011-07-31T10:41:32Z</time>
      </trkpt>
      <trkpt lat="48.41544" lon="2.52793">
        <ele>121</ele>
        <time>2011-07-31T10:41:39Z</time>
      </trkpt>
      <trkpt lat="48.41544" lon="2.52802">
        <ele>121</ele>
        <time>2011-07-31T10:41:41Z</time>
      </trkpt>
      <trkpt lat="48.41546" lon="2.52807">
        <ele>121</ele>
        <time>2011-07-31T10:41:46Z</time>
      </trkpt>
      <trkpt lat="48.41528" lon="2.5282">
        <ele>121</ele>
        <time>2011-07-31T10:41:56Z</time>
      </trkpt>
      <trkpt lat="48.41524" lon="2.52821">
        <ele>120</ele>
        <time>2011-07-31T10:41:58Z</time>
      </trkpt>
      <trkpt lat="48.41517" lon="2.52824">
        <ele>120</ele>
        <time>2011-07-31T10:42:04Z</time>
      </trkpt>
      <trkpt lat="48.41514" lon="2.52824">
        <ele>120</ele>
        <time>2011-07-31T10:42:06Z</time>
      </trkpt>
      <trkpt lat="48.4151" lon="2.52828">
        <ele>120</ele>
        <time>2011-07-31T10:42:18Z</time>
      </trkpt>
      <trkpt lat="48.41508" lon="2.52832">
        <ele>120</ele>
        <time>2011-07-31T10:45:06Z</time>
      </trkpt>
      <trkpt lat="48.41501" lon="2.52837">
        <ele>120</ele>
        <time>2011-07-31T10:45:23Z</time>
      </trkpt>
      <trkpt lat="48.41495" lon="2.5284">
        <ele>120</ele>
        <time>2011-07-31T10:45:43Z</time>
      </trkpt>
      <trkpt lat="48.41494" lon="2.52841">
        <ele>120</ele>
        <time>2011-07-31T10:45:44Z</time>
      </trkpt>
      <trkpt lat="48.41491" lon="2.52844">
        <ele>120</ele>
        <time>2011-07-31T10:45:50Z</time>
      </trkpt>
      <trkpt lat="48.41483" lon="2.52844">
        <ele>119</ele>
        <time>2011-07-31T10:46:03Z</time>
      </trkpt>
      <trkpt lat="48.41481" lon="2.52845">
        <ele>119</ele>
        <time>2011-07-31T10:46:06Z</time>
      </trkpt>
      <trkpt lat="48.41476" lon="2.52853">
        <ele>119</ele>
        <time>2011-07-31T10:46:18Z</time>
      </trkpt>
      <trkpt lat="48.41475" lon="2.52854">
        <ele>119</ele>
        <time>2011-07-31T10:46:19Z</time>
      </trkpt>
      <trkpt lat="48.41479" lon="2.52872">
        <ele>119</ele>
        <time>2011-07-31T10:46:24Z</time>
      </trkpt>
      <trkpt lat="48.41489" lon="2.52877">
        <ele>118</ele>
        <time>2011-07-31T10:46:27Z</time>
      </trkpt>
      <trkpt lat="48.41501" lon="2.52898">
        <ele>116</ele>
        <time>2011-07-31T10:46:31Z</time>
      </trkpt>
      <trkpt lat="48.41502" lon="2.52942">
        <ele>112</ele>
        <time>2011-07-31T10:46:39Z</time>
      </trkpt>
      <trkpt lat="48.41503" lon="2.52949">
        <ele>112</ele>
        <time>2011-07-31T10:46:41Z</time>
      </trkpt>
      <trkpt lat="48.4151" lon="2.52953">
        <ele>112</ele>
        <time>2011-07-31T10:46:44Z</time>
      </trkpt>
      <trkpt lat="48.41514" lon="2.52978">
        <ele>110</ele>
        <time>2011-07-31T10:46:49Z</time>
      </trkpt>
      <trkpt lat="48.41517" lon="2.53006">
        <ele>107</ele>
        <time>2011-07-31T10:46:53Z</time>
      </trkpt>
      <trkpt lat="48.4151" lon="2.53032">
        <ele>106</ele>
        <time>2011-07-31T10:46:58Z</time>
      </trkpt>
      <trkpt lat="48.41509" lon="2.53057">
        <ele>104</ele>
        <time>2011-07-31T10:47:02Z</time>
      </trkpt>
      <trkpt lat="48.41512" lon="2.53067">
        <ele>104</ele>
        <time>2011-07-31T10:47:04Z</time>
      </trkpt>
      <trkpt lat="48.41513" lon="2.53088">
        <ele>101</ele>
        <time>2011-07-31T10:47:08Z</time>
      </trkpt>
      <trkpt lat="48.4151" lon="2.53131">
        <ele>99</ele>
        <time>2011-07-31T10:47:14Z</time>
      </trkpt>
      <trkpt lat="48.41494" lon="2.53211">
        <ele>95</ele>
        <time>2011-07-31T10:47:21Z</time>
      </trkpt>
      <trkpt lat="48.41477" lon="2.53278">
        <ele>92</ele>
        <time>2011-07-31T10:47:26Z</time>
      </trkpt>
      <trkpt lat="48.41488" lon="2.53328">
        <ele>88</ele>
        <time>2011-07-31T10:47:31Z</time>
      </trkpt>
      <trkpt lat="48.41493" lon="2.5334">
        <ele>86</ele>
        <time>2011-07-31T10:47:33Z</time>
      </trkpt>
      <trkpt lat="48.41524" lon="2.53398">
        <ele>83</ele>
        <time>2011-07-31T10:47:43Z</time>
      </trkpt>
      <trkpt lat="48.41551" lon="2.53432">
        <ele>81</ele>
        <time>2011-07-31T10:47:51Z</time>
      </trkpt>
      <trkpt lat="48.41563" lon="2.5345">
        <ele>81</ele>
        <time>2011-07-31T10:47:55Z</time>
      </trkpt>
      <trkpt lat="48.41587" lon="2.53475">
        <ele>79</ele>
        <time>2011-07-31T10:48:01Z</time>
      </trkpt>
      <trkpt lat="48.41594" lon="2.53478">
        <ele>79</ele>
        <time>2011-07-31T10:48:03Z</time>
      </trkpt>
      <trkpt lat="48.4162" lon="2.53492">
        <ele>78</ele>
        <time>2011-07-31T10:48:10Z</time>
      </trkpt>
      <trkpt lat="48.41616" lon="2.53517">
        <ele>77</ele>
        <time>2011-07-31T10:48:17Z</time>
      </trkpt>
      <trkpt lat="48.4159" lon="2.53552">
        <ele>76</ele>
        <time>2011-07-31T10:48:25Z</time>
      </trkpt>
      <trkpt lat="48.41579" lon="2.53565">
        <ele>77</ele>
        <time>2011-07-31T10:48:28Z</time>
      </trkpt>
      <trkpt lat="48.41554" lon="2.53593">
        <ele>77</ele>
        <time>2011-07-31T10:48:34Z</time>
      </trkpt>
      <trkpt lat="48.41534" lon="2.53633">
        <ele>78</ele>
        <time>2011-07-31T10:48:41Z</time>
      </trkpt>
      <trkpt lat="48.41511" lon="2.53648">
        <ele>79</ele>
        <time>2011-07-31T10:48:46Z</time>
      </trkpt>
      <trkpt lat="48.41502" lon="2.53647">
        <ele>79</ele>
        <time>2011-07-31T10:48:48Z</time>
      </trkpt>
      <trkpt lat="48.41451" lon="2.53639">
        <ele>81</ele>
        <time>2011-07-31T10:48:58Z</time>
      </trkpt>
      <trkpt lat="48.41436" lon="2.53635">
        <ele>81</ele>
        <time>2011-07-31T10:49:01Z</time>
      </trkpt>
      <trkpt lat="48.41415" lon="2.53644">
        <ele>83</ele>
        <time>2011-07-31T10:49:06Z</time>
      </trkpt>
      <trkpt lat="48.41397" lon="2.53665">
        <ele>83</ele>
        <time>2011-07-31T10:49:11Z</time>
      </trkpt>
      <trkpt lat="48.41359" lon="2.53695">
        <ele>85</ele>
        <time>2011-07-31T10:49:22Z</time>
      </trkpt>
      <trkpt lat="48.41327" lon="2.53719">
        <ele>87</ele>
        <time>2011-07-31T10:49:32Z</time>
      </trkpt>
      <trkpt lat="48.41297" lon="2.53758">
        <ele>86</ele>
        <time>2011-07-31T10:49:44Z</time>
      </trkpt>
      <trkpt lat="48.41289" lon="2.53763">
        <ele>86</ele>
        <time>2011-07-31T10:49:54Z</time>
      </trkpt>
      <trkpt lat="48.41266" lon="2.53777">
        <ele>86</ele>
        <time>2011-07-31T10:50:03Z</time>
      </trkpt>
      <trkpt lat="48.41221" lon="2.53822">
        <ele>84</ele>
        <time>2011-07-31T10:50:12Z</time>
      </trkpt>
      <trkpt lat="48.41198" lon="2.53865">
        <ele>84</ele>
        <time>2011-07-31T10:50:18Z</time>
      </trkpt>
      <trkpt lat="48.41152" lon="2.53893">
        <ele>80</ele>
        <time>2011-07-31T10:50:27Z</time>
      </trkpt>
      <trkpt lat="48.41132" lon="2.53896">
        <ele>80</ele>
        <time>2011-07-31T10:50:30Z</time>
      </trkpt>
      <trkpt lat="48.41097" lon="2.53915">
        <ele>79</ele>
        <time>2011-07-31T10:50:36Z</time>
      </trkpt>
      <trkpt lat="48.41089" lon="2.53927">
        <ele>79</ele>
        <time>2011-07-31T10:50:38Z</time>
      </trkpt>
      <trkpt lat="48.41072" lon="2.53939">
        <ele>78</ele>
        <time>2011-07-31T10:50:41Z</time>
      </trkpt>
      <trkpt lat="48.40991" lon="2.53963">
        <ele>78</ele>
        <time>2011-07-31T10:50:55Z</time>
      </trkpt>
      <trkpt lat="48.40924" lon="2.53976">
        <ele>79</ele>
        <time>2011-07-31T10:51:07Z</time>
      </trkpt>
      <trkpt lat="48.40848" lon="2.54007">
        <ele>78</ele>
        <time>2011-07-31T10:51:21Z</time>
      </trkpt>
      <trkpt lat="48.40761" lon="2.54061">
        <ele>77</ele>
        <time>2011-07-31T10:51:36Z</time>
      </trkpt>
      <trkpt lat="48.40716" lon="2.54086">
        <ele>77</ele>
        <time>2011-07-31T10:51:47Z</time>
      </trkpt>
      <trkpt lat="48.40684" lon="2.54107">
        <ele>78</ele>
        <time>2011-07-31T10:51:53Z</time>
      </trkpt>
      <trkpt lat="48.4062" lon="2.54148">
        <ele>80</ele>
        <time>2011-07-31T10:52:07Z</time>
      </trkpt>
      <trkpt lat="48.40539" lon="2.54141">
        <ele>90</ele>
      </trkpt>
      <trkpt lat="48.4048" lon="2.54206">
        <ele>96</ele>
      </trkpt>
      <trkpt lat="48.40377" lon="2.5418">
        <ele>92</ele>
      </trkpt>
      <trkpt lat="48.40345" lon="2.54222">
        <ele>91</ele>
      </trkpt>
      <trkpt lat="48.40165" lon="2.54159">
        <ele>90</ele>
      </trkpt>
      <trkpt lat="48.40085" lon="2.54154">
        <ele>94</ele>
      </trkpt>
      <trkpt lat="48.40083" lon="2.54154">
        <ele>94</ele>
      </trkpt>
      <trkpt lat="48.40054" lon="2.54146">
        <ele>95</ele>
      </trkpt>
      <trkpt lat="48.40047" lon="2.54107">
        <ele>97</ele>
      </trkpt>
      <trkpt lat="48.40121" lon="2.54048">
        <ele>102</ele>
      </trkpt>
      <trkpt lat="48.40189" lon="2.53962">
        <ele>100</ele>
      </trkpt>
      <trkpt lat="48.40235" lon="2.5384">
        <ele>102</ele>
      </trkpt>
      <trkpt lat="48.40227" lon="2.53749">
        <ele>106</ele>
      </trkpt>
      <trkpt lat="48.40225" lon="2.53674">
        <ele>108</ele>
      </trkpt>
      <trkpt lat="48.40228" lon="2.53557">
        <ele>118</ele>
      </trkpt>
      <trkpt lat="48.40228" lon="2.53494">
        <ele>121</ele>
      </trkpt>
      <trkpt lat="48.40176" lon="2.53494">
        <ele>125</ele>
      </trkpt>
      <trkpt lat="48.40121" lon="2.53481">
        <ele>126</ele>
        <time>2011-07-31T07:36:16Z</time>
      </trkpt>
      <trkpt lat="48.40115" lon="2.53474">
        <ele>126</ele>
        <time>2011-07-31T07:36:18Z</time>
      </trkpt>
      <trkpt lat="48.40097" lon="2.53456">
        <ele>125</ele>
        <time>2011-07-31T07:36:23Z</time>
      </trkpt>
      <trkpt lat="48.40094" lon="2.53446">
        <ele>125</ele>
        <time>2011-07-31T07:36:25Z</time>
      </trkpt>
      <trkpt lat="48.40086" lon="2.53437">
        <ele>125</ele>
        <time>2011-07-31T07:36:29Z</time>
      </trkpt>
      <trkpt lat="48.40079" lon="2.53429">
        <ele>122</ele>
        <time>2011-07-31T07:36:32Z</time>
      </trkpt>
      <trkpt lat="48.40063" lon="2.53415">
        <ele>118</ele>
        <time>2011-07-31T07:36:38Z</time>
      </trkpt>
      <trkpt lat="48.40035" lon="2.53422">
        <ele>118</ele>
        <time>2011-07-31T07:36:47Z</time>
      </trkpt>
      <trkpt lat="48.40016" lon="2.53417">
        <ele>116</ele>
        <time>2011-07-31T07:36:53Z</time>
      </trkpt>
      <trkpt lat="48.40014" lon="2.53406">
        <ele>113</ele>
        <time>2011-07-31T07:36:58Z</time>
      </trkpt>
      <trkpt lat="48.40008" lon="2.53394">
        <ele>112</ele>
        <time>2011-07-31T07:37:03Z</time>
      </trkpt>
      <trkpt lat="48.40002" lon="2.5338">
        <ele>111</ele>
        <time>2011-07-31T07:37:07Z</time>
      </trkpt>
      <trkpt lat="48.4" lon="2.53367">
        <ele>103</ele>
        <time>2011-07-31T07:37:10Z</time>
      </trkpt>
      <trkpt lat="48.39996" lon="2.53362">
        <ele>102</ele>
        <time>2011-07-31T07:37:12Z</time>
      </trkpt>
      <trkpt lat="48.39994" lon="2.53358">
        <ele>102</ele>
        <time>2011-07-31T07:37:21Z</time>
      </trkpt>
      <trkpt lat="48.39996" lon="2.53357">
        <ele>102</ele>
        <time>2011-07-31T07:37:24Z</time>
      </trkpt>
      <trkpt lat="48.40006" lon="2.53338">
        <ele>105</ele>
        <time>2011-07-31T07:37:31Z</time>
      </trkpt>
      <trkpt lat="48.40005" lon="2.53304">
        <ele>104</ele>
        <time>2011-07-31T07:37:36Z</time>
      </trkpt>
      <trkpt lat="48.39999" lon="2.53294">
        <ele>96</ele>
        <time>2011-07-31T07:37:39Z</time>
      </trkpt>
      <trkpt lat="48.39985" lon="2.53273">
        <ele>94</ele>
        <time>2011-07-31T07:37:44Z</time>
      </trkpt>
      <trkpt lat="48.39973" lon="2.53263">
        <ele>94</ele>
        <time>2011-07-31T07:37:47Z</time>
      </trkpt>
      <trkpt lat="48.39955" lon="2.53243">
        <ele>89</ele>
        <time>2011-07-31T07:37:54Z</time>
      </trkpt>
      <trkpt lat="48.39944" lon="2.53236">
        <ele>88</ele>
        <time>2011-07-31T07:37:58Z</time>
      </trkpt>
      <trkpt lat="48.39937" lon="2.53228">
        <ele>88</ele>
        <time>2011-07-31T07:38:00Z</time>
      </trkpt>
      <trkpt lat="48.39921" lon="2.5322">
        <ele>87</ele>
        <time>2011-07-31T07:38:04Z</time>
      </trkpt>
      <trkpt lat="48.39909" lon="2.53212">
        <ele>88</ele>
        <time>2011-07-31T07:38:08Z</time>
      </trkpt>
      <trkpt lat="48.39898" lon="2.53193">
        <ele>88</ele>
        <time>2011-07-31T07:38:14Z</time>
      </trkpt>
      <trkpt lat="48.39909" lon="2.53127">
        <ele>88</ele>
        <time>2011-07-31T07:38:26Z</time>
      </trkpt>
      <trkpt lat="48.39929" lon="2.53028">
        <ele>83</ele>
        <time>2011-07-31T07:38:41Z</time>
      </trkpt>
      <trkpt lat="48.39936" lon="2.52992">
        <ele>83</ele>
        <time>2011-07-31T07:38:46Z</time>
      </trkpt>
      <trkpt lat="48.39955" lon="2.52913">
        <ele>84</ele>
        <time>2011-07-31T07:38:58Z</time>
      </trkpt>
      <trkpt lat="48.39956" lon="2.52909">
        <ele>84</ele>
        <time>2011-07-31T07:38:59Z</time>
      </trkpt>
      <trkpt lat="48.39978" lon="2.52813">
        <ele>82</ele>
        <time>2011-07-31T07:39:13Z</time>
      </trkpt>
      <trkpt lat="48.39981" lon="2.52798">
        <ele>82</ele>
        <time>2011-07-31T07:39:15Z</time>
      </trkpt>
      <trkpt lat="48.39988" lon="2.52775">
        <ele>81</ele>
        <time>2011-07-31T07:39:19Z</time>
      </trkpt>
      <trkpt lat="48.40004" lon="2.52718">
        <ele>77</ele>
        <time>2011-07-31T07:39:29Z</time>
      </trkpt>
      <trkpt lat="48.40005" lon="2.52712">
        <ele>77</ele>
        <time>2011-07-31T07:39:30Z</time>
      </trkpt>
      <trkpt lat="48.40019" lon="2.52672">
        <ele>76</ele>
        <time>2011-07-31T07:39:35Z</time>
      </trkpt>
      <trkpt lat="48.40025" lon="2.52649">
        <ele>77</ele>
        <time>2011-07-31T07:39:39Z</time>
      </trkpt>
      <trkpt lat="48.40038" lon="2.5261">
        <ele>77</ele>
        <time>2011-07-31T07:39:45Z</time>
      </trkpt>
      <trkpt lat="48.40048" lon="2.52575">
        <ele>78</ele>
        <time>2011-07-31T07:39:50Z</time>
      </trkpt>
      <trkpt lat="48.40071" lon="2.52503">
        <ele>78</ele>
        <time>2011-07-31T07:40:01Z</time>
      </trkpt>
      <trkpt lat="48.40075" lon="2.52489">
        <ele>79</ele>
        <time>2011-07-31T07:40:03Z</time>
      </trkpt>
      <trkpt lat="48.401" lon="2.52419">
        <ele>77</ele>
        <time>2011-07-31T07:40:15Z</time>
      </trkpt>
      <trkpt lat="48.40103" lon="2.52415">
        <ele>77</ele>
        <time>2011-07-31T07:40:16Z</time>
      </trkpt>
      <trkpt lat="48.40131" lon="2.52346">
        <ele>78</ele>
        <time>2011-07-31T07:40:30Z</time>
      </trkpt>
      <trkpt lat="48.40136" lon="2.52334">
        <ele>78</ele>
        <time>2011-07-31T07:40:32Z</time>
      </trkpt>
      <trkpt lat="48.40146" lon="2.52312">
        <ele>79</ele>
        <time>2011-07-31T07:40:36Z</time>
      </trkpt>
      <trkpt lat="48.40172" lon="2.52267">
        <ele>79</ele>
        <time>2011-07-31T07:40:45Z</time>
      </trkpt>
      <trkpt lat="48.4019" lon="2.52231">
        <ele>80</ele>
        <time>2011-07-31T07:40:52Z</time>
      </trkpt>
      <trkpt lat="48.40198" lon="2.52178">
        <ele>80</ele>
        <time>2011-07-31T07:41:01Z</time>
      </trkpt>
      <trkpt lat="48.40184" lon="2.52099">
        <ele>80</ele>
        <time>2011-07-31T07:41:13Z</time>
      </trkpt>
      <trkpt lat="48.4017" lon="2.52071">
        <ele>80</ele>
        <time>2011-07-31T07:41:18Z</time>
      </trkpt>
      <trkpt lat="48.4014" lon="2.52025">
        <ele>81</ele>
        <time>2011-07-31T07:41:26Z</time>
      </trkpt>
      <trkpt lat="48.40119" lon="2.51985">
        <ele>81</ele>
        <time>2011-07-31T07:41:32Z</time>
      </trkpt>
      <trkpt lat="48.40107" lon="2.51966">
        <ele>81</ele>
        <time>2011-07-31T07:41:35Z</time>
      </trkpt>
      <trkpt lat="48.401" lon="2.51939">
        <ele>81</ele>
        <time>2011-07-31T07:41:40Z</time>
      </trkpt>
      <trkpt lat="48.4007" lon="2.51895">
        <ele>79</ele>
        <time>2011-07-31T07:41:47Z</time>
      </trkpt>
      <trkpt lat="48.40015" lon="2.51785">
        <ele>78</ele>
        <time>2011-07-31T07:42:05Z</time>
      </trkpt>
      <trkpt lat="48.39962" lon="2.51699">
        <ele>76</ele>
        <time>2011-07-31T07:42:23Z</time>
      </trkpt>
      <trkpt lat="48.39948" lon="2.51715">
        <ele>76</ele>
        <time>2011-07-31T07:42:28Z</time>
      </trkpt>
      <trkpt lat="48.39939" lon="2.51743">
        <ele>76</ele>
        <time>2011-07-31T07:42:33Z</time>
      </trkpt>
      <trkpt lat="48.39928" lon="2.51776">
        <ele>77</ele>
        <time>2011-07-31T07:42:39Z</time>
      </trkpt>
      <trkpt lat="48.39923" lon="2.51794">
        <ele>78</ele>
        <time>2011-07-31T07:42:42Z</time>
      </trkpt>
      <trkpt lat="48.39902" lon="2.51848">
        <ele>83</ele>
        <time>2011-07-31T07:42:53Z</time>
      </trkpt>
      <trkpt lat="48.39863" lon="2.51867">
        <ele>85</ele>
        <time>2011-07-31T07:43:04Z</time>
      </trkpt>
      <trkpt lat="48.39842" lon="2.51897">
        <ele>86</ele>
        <time>2011-07-31T07:43:13Z</time>
      </trkpt>
      <trkpt lat="48.3983" lon="2.51927">
        <ele>90</ele>
        <time>2011-07-31T07:43:20Z</time>
      </trkpt>
      <trkpt lat="48.39794" lon="2.5196">
        <ele>95</ele>
        <time>2011-07-31T07:43:33Z</time>
      </trkpt>
      <trkpt lat="48.39774" lon="2.5197">
        <ele>96</ele>
        <time>2011-07-31T07:43:40Z</time>
      </trkpt>
      <trkpt lat="48.39775" lon="2.51943">
        <ele>97</ele>
        <time>2011-07-31T07:43:49Z</time>
      </trkpt>
      <trkpt lat="48.39773" lon="2.51929">
        <ele>98</ele>
        <time>2011-07-31T07:43:55Z</time>
      </trkpt>
      <trkpt lat="48.39769" lon="2.51887">
        <ele>98</ele>
        <time>2011-07-31T07:44:06Z</time>
      </trkpt>
      <trkpt lat="48.39772" lon="2.51869">
        <ele>98</ele>
        <time>2011-07-31T07:44:11Z</time>
      </trkpt>
      <trkpt lat="48.39771" lon="2.51856">
        <ele>98</ele>
        <time>2011-07-31T07:44:15Z</time>
      </trkpt>
      <trkpt lat="48.39767" lon="2.51819">
        <ele>98</ele>
        <time>2011-07-31T07:44:25Z</time>
      </trkpt>
      <trkpt lat="48.3976" lon="2.5182">
        <ele>99</ele>
        <time>2011-07-31T07:44:40Z</time>
      </trkpt>
      <trkpt lat="48.39758" lon="2.51822">
        <ele>100</ele>
        <time>2011-07-31T07:44:44Z</time>
      </trkpt>
      <trkpt lat="48.39757" lon="2.51825">
        <ele>100</ele>
        <time>2011-07-31T07:44:47Z</time>
      </trkpt>
      <trkpt lat="48.39751" lon="2.5182">
        <ele>100</ele>
        <time>2011-07-31T07:45:00Z</time>
      </trkpt>
      <trkpt lat="48.39745" lon="2.51815">
        <ele>106</ele>
        <time>2011-07-31T07:45:11Z</time>
      </trkpt>
      <trkpt lat="48.3974" lon="2.51805">
        <ele>107</ele>
        <time>2011-07-31T07:45:27Z</time>
      </trkpt>
      <trkpt lat="48.39735" lon="2.51805">
        <ele>107</ele>
        <time>2011-07-31T07:45:34Z</time>
      </trkpt>
      <trkpt lat="48.39731" lon="2.51801">
        <ele>107</ele>
        <time>2011-07-31T07:45:46Z</time>
      </trkpt>
      <trkpt lat="48.39729" lon="2.51798">
        <ele>107</ele>
        <time>2011-07-31T07:45:53Z</time>
      </trkpt>
      <trkpt lat="48.39727" lon="2.51786">
        <ele>107</ele>
        <time>2011-07-31T07:45:59Z</time>
      </trkpt>
      <trkpt lat="48.39726" lon="2.51782">
        <ele>107</ele>
        <time>2011-07-31T07:46:01Z</time>
      </trkpt>
      <trkpt lat="48.3972" lon="2.51778">
        <ele>107</ele>
        <time>2011-07-31T07:46:08Z</time>
      </trkpt>
      <trkpt lat="48.39715" lon="2.51762">
        <ele>107</ele>
        <time>2011-07-31T07:46:16Z</time>
      </trkpt>
      <trkpt lat="48.39713" lon="2.51756">
        <ele>108</ele>
        <time>2011-07-31T07:46:18Z</time>
      </trkpt>
      <trkpt lat="48.3971" lon="2.51748">
        <ele>103</ele>
        <time>2011-07-31T07:46:24Z</time>
      </trkpt>
      <trkpt lat="48.39705" lon="2.51736">
        <ele>104</ele>
        <time>2011-07-31T07:46:35Z</time>
      </trkpt>
      <trkpt lat="48.39704" lon="2.51728">
        <ele>103</ele>
        <time>2011-07-31T07:46:45Z</time>
      </trkpt>
      <trkpt lat="48.39698" lon="2.51719">
        <ele>104</ele>
        <time>2011-07-31T07:46:54Z</time>
      </trkpt>
      <trkpt lat="48.3969" lon="2.517">
        <ele>103</ele>
        <time>2011-07-31T07:47:07Z</time>
      </trkpt>
      <trkpt lat="48.39682" lon="2.51692">
        <ele>103</ele>
        <time>2011-07-31T07:47:18Z</time>
      </trkpt>
      <trkpt lat="48.39677" lon="2.51692">
        <ele>104</ele>
        <time>2011-07-31T07:47:29Z</time>
      </trkpt>
      <trkpt lat="48.3967" lon="2.51692">
        <ele>104</ele>
        <time>2011-07-31T07:47:38Z</time>
      </trkpt>
      <trkpt lat="48.39666" lon="2.51688">
        <ele>107</ele>
        <time>2011-07-31T07:47:43Z</time>
      </trkpt>
      <trkpt lat="48.39664" lon="2.51684">
        <ele>106</ele>
        <time>2011-07-31T07:47:45Z</time>
      </trkpt>
      <trkpt lat="48.39646" lon="2.51677">
        <ele>106</ele>
        <time>2011-07-31T07:47:54Z</time>
      </trkpt>
      <trkpt lat="48.39642" lon="2.5168">
        <ele>106</ele>
        <time>2011-07-31T07:47:56Z</time>
      </trkpt>
      <trkpt lat="48.3963" lon="2.51685">
        <ele>106</ele>
        <time>2011-07-31T07:48:03Z</time>
      </trkpt>
      <trkpt lat="48.3962" lon="2.51685">
        <ele>105</ele>
        <time>2011-07-31T07:48:14Z</time>
      </trkpt>
      <trkpt lat="48.39618" lon="2.51686">
        <ele>105</ele>
        <time>2011-07-31T07:48:20Z</time>
      </trkpt>
      <trkpt lat="48.39611" lon="2.51688">
        <ele>105</ele>
        <time>2011-07-31T07:48:31Z</time>
      </trkpt>
      <trkpt lat="48.39611" lon="2.51691">
        <ele>105</ele>
        <time>2011-07-31T07:48:34Z</time>
      </trkpt>
      <trkpt lat="48.39607" lon="2.5171">
        <ele>106</ele>
        <time>2011-07-31T07:48:52Z</time>
      </trkpt>
      <trkpt lat="48.39605" lon="2.51734">
        <ele>107</ele>
        <time>2011-07-31T07:49:04Z</time>
      </trkpt>
      <trkpt lat="48.39603" lon="2.51747">
        <ele>107</ele>
        <time>2011-07-31T07:49:10Z</time>
      </trkpt>
      <trkpt lat="48.39602" lon="2.51769">
        <ele>111</ele>
        <time>2011-07-31T07:49:17Z</time>
      </trkpt>
      <trkpt lat="48.39598" lon="2.51779">
        <ele>112</ele>
        <time>2011-07-31T07:49:22Z</time>
      </trkpt>
      <trkpt lat="48.39597" lon="2.51791">
        <ele>113</ele>
        <time>2011-07-31T07:49:34Z</time>
      </trkpt>
      <trkpt lat="48.396" lon="2.51798">
        <ele>113</ele>
        <time>2011-07-31T07:49:50Z</time>
      </trkpt>
      <trkpt lat="48.39602" lon="2.51815">
        <ele>114</ele>
        <time>2011-07-31T07:50:03Z</time>
      </trkpt>
      <trkpt lat="48.39604" lon="2.51827">
        <ele>114</ele>
        <time>2011-07-31T07:50:15Z</time>
      </trkpt>
      <trkpt lat="48.39602" lon="2.51828">
        <ele>114</ele>
        <time>2011-07-31T07:50:20Z</time>
      </trkpt>
      <trkpt lat="48.396" lon="2.51844">
        <ele>116</ele>
        <time>2011-07-31T07:50:33Z</time>
      </trkpt>
      <trkpt lat="48.39593" lon="2.5187">
        <ele>117</ele>
        <time>2011-07-31T07:50:45Z</time>
      </trkpt>
      <trkpt lat="48.39589" lon="2.51883">
        <ele>118</ele>
        <time>2011-07-31T07:50:51Z</time>
      </trkpt>
      <trkpt lat="48.39582" lon="2.51889">
        <ele>113</ele>
        <time>2011-07-31T07:50:56Z</time>
      </trkpt>
      <trkpt lat="48.3958" lon="2.51892">
        <ele>113</ele>
        <time>2011-07-31T07:50:58Z</time>
      </trkpt>
      <trkpt lat="48.39576" lon="2.51896">
        <ele>114</ele>
        <time>2011-07-31T07:51:01Z</time>
      </trkpt>
      <trkpt lat="48.39574" lon="2.51902">
        <ele>114</ele>
        <time>2011-07-31T07:51:04Z</time>
      </trkpt>
      <trkpt lat="48.39576" lon="2.51911">
        <ele>116</ele>
        <time>2011-07-31T07:51:08Z</time>
      </trkpt>
      <trkpt lat="48.3958" lon="2.51917">
        <ele>117</ele>
        <time>2011-07-31T07:51:11Z</time>
      </trkpt>
      <trkpt lat="48.39576" lon="2.51927">
        <ele>117</ele>
        <time>2011-07-31T07:51:15Z</time>
      </trkpt>
      <trkpt lat="48.39576" lon="2.5193">
        <ele>116</ele>
        <time>2011-07-31T07:51:17Z</time>
      </trkpt>
      <trkpt lat="48.39577" lon="2.51936">
        <ele>116</ele>
        <time>2011-07-31T07:51:21Z</time>
      </trkpt>
      <trkpt lat="48.39574" lon="2.51963">
        <ele>116</ele>
        <time>2011-07-31T07:51:32Z</time>
      </trkpt>
      <trkpt lat="48.39574" lon="2.51972">
        <ele>116</ele>
        <time>2011-07-31T07:51:35Z</time>
      </trkpt>
      <trkpt lat="48.3957" lon="2.51996">
        <ele>118</ele>
        <time>2011-07-31T07:51:42Z</time>
      </trkpt>
      <trkpt lat="48.39565" lon="2.52009">
        <ele>119</ele>
        <time>2011-07-31T07:51:52Z</time>
      </trkpt>
      <trkpt lat="48.39562" lon="2.52031">
        <ele>119</ele>
        <time>2011-07-31T07:52:04Z</time>
      </trkpt>
      <trkpt lat="48.39562" lon="2.52036">
        <ele>119</ele>
        <time>2011-07-31T07:52:07Z</time>
      </trkpt>
      <trkpt lat="48.3956" lon="2.52047">
        <ele>119</ele>
        <time>2011-07-31T07:52:17Z</time>
      </trkpt>
      <trkpt lat="48.39556" lon="2.52047">
        <ele>119</ele>
        <time>2011-07-31T07:52:20Z</time>
      </trkpt>
      <trkpt lat="48.39551" lon="2.52057">
        <ele>119</ele>
        <time>2011-07-31T07:52:32Z</time>
      </trkpt>
      <trkpt lat="48.3955" lon="2.52058">
        <ele>119</ele>
        <time>2011-07-31T07:52:46Z</time>
      </trkpt>
      <trkpt lat="48.39548" lon="2.52065">
        <ele>119</ele>
        <time>2011-07-31T07:52:50Z</time>
      </trkpt>
      <trkpt lat="48.39545" lon="2.52069">
        <ele>119</ele>
        <time>2011-07-31T07:52:53Z</time>
      </trkpt>
      <trkpt lat="48.39536" lon="2.52073">
        <ele>119</ele>
        <time>2011-07-31T07:53:01Z</time>
      </trkpt>
      <trkpt lat="48.39532" lon="2.52075">
        <ele>119</ele>
        <time>2011-07-31T07:53:06Z</time>
      </trkpt>
      <trkpt lat="48.39524" lon="2.52079">
        <ele>119</ele>
        <time>2011-07-31T07:53:12Z</time>
      </trkpt>
      <trkpt lat="48.39516" lon="2.52078">
        <ele>119</ele>
        <time>2011-07-31T07:53:19Z</time>
      </trkpt>
      <trkpt lat="48.39507" lon="2.52086">
        <ele>119</ele>
        <time>2011-07-31T07:53:29Z</time>
      </trkpt>
      <trkpt lat="48.39507" lon="2.52101">
        <ele>120</ele>
        <time>2011-07-31T07:53:36Z</time>
      </trkpt>
      <trkpt lat="48.39506" lon="2.52107">
        <ele>120</ele>
        <time>2011-07-31T07:53:50Z</time>
      </trkpt>
      <trkpt lat="48.39503" lon="2.52119">
        <ele>120</ele>
        <time>2011-07-31T07:53:57Z</time>
      </trkpt>
      <trkpt lat="48.395" lon="2.52127">
        <ele>120</ele>
        <time>2011-07-31T07:54:00Z</time>
      </trkpt>
      <trkpt lat="48.39493" lon="2.52139">
        <ele>118</ele>
        <time>2011-07-31T07:54:06Z</time>
      </trkpt>
      <trkpt lat="48.39481" lon="2.52136">
        <ele>118</ele>
        <time>2011-07-31T07:54:11Z</time>
      </trkpt>
      <trkpt lat="48.39481" lon="2.52139">
        <ele>118</ele>
        <time>2011-07-31T07:54:28Z</time>
      </trkpt>
      <trkpt lat="48.39479" lon="2.52137">
        <ele>118</ele>
        <time>2011-07-31T07:54:48Z</time>
      </trkpt>
      <trkpt lat="48.39478" lon="2.52139">
        <ele>118</ele>
        <time>2011-07-31T07:54:53Z</time>
      </trkpt>
      <trkpt lat="48.39464" lon="2.52167">
        <ele>118</ele>
        <time>2011-07-31T07:55:06Z</time>
      </trkpt>
      <trkpt lat="48.39456" lon="2.52187">
        <ele>117</ele>
        <time>2011-07-31T07:55:15Z</time>
      </trkpt>
      <trkpt lat="48.39447" lon="2.52211">
        <ele>117</ele>
        <time>2011-07-31T07:55:24Z</time>
      </trkpt>
      <trkpt lat="48.39438" lon="2.52227">
        <ele>117</ele>
        <time>2011-07-31T07:55:30Z</time>
      </trkpt>
      <trkpt lat="48.39431" lon="2.52228">
        <ele>117</ele>
        <time>2011-07-31T07:55:43Z</time>
      </trkpt>
      <trkpt lat="48.39424" lon="2.52232">
        <ele>116</ele>
        <time>2011-07-31T07:55:49Z</time>
      </trkpt>
      <trkpt lat="48.39419" lon="2.52235">
        <ele>116</ele>
        <time>2011-07-31T07:55:52Z</time>
      </trkpt>
      <trkpt lat="48.39406" lon="2.52234">
        <ele>111</ele>
        <time>2011-07-31T07:55:59Z</time>
      </trkpt>
      <trkpt lat="48.39401" lon="2.52232">
        <ele>111</ele>
        <time>2011-07-31T07:56:05Z</time>
      </trkpt>
      <trkpt lat="48.39383" lon="2.52234">
        <ele>109</ele>
        <time>2011-07-31T07:56:17Z</time>
      </trkpt>
      <trkpt lat="48.39381" lon="2.52235">
        <ele>109</ele>
        <time>2011-07-31T07:56:20Z</time>
      </trkpt>
      <trkpt lat="48.3938" lon="2.52236">
        <ele>109</ele>
        <time>2011-07-31T07:56:22Z</time>
      </trkpt>
      <trkpt lat="48.39379" lon="2.5224">
        <ele>109</ele>
        <time>2011-07-31T07:56:26Z</time>
      </trkpt>
      <trkpt lat="48.39377" lon="2.52252">
        <ele>109</ele>
        <time>2011-07-31T07:56:38Z</time>
      </trkpt>
      <trkpt lat="48.39374" lon="2.52258">
        <ele>108</ele>
        <time>2011-07-31T07:56:42Z</time>
      </trkpt>
      <trkpt lat="48.39373" lon="2.52267">
        <ele>108</ele>
        <time>2011-07-31T07:56:46Z</time>
      </trkpt>
      <trkpt lat="48.39373" lon="2.52276">
        <ele>108</ele>
        <time>2011-07-31T07:56:50Z</time>
      </trkpt>
      <trkpt lat="48.39371" lon="2.52281">
        <ele>108</ele>
        <time>2011-07-31T07:56:53Z</time>
      </trkpt>
      <trkpt lat="48.39369" lon="2.52295">
        <ele>108</ele>
        <time>2011-07-31T07:57:00Z</time>
      </trkpt>
      <trkpt lat="48.39367" lon="2.52305">
        <ele>108</ele>
        <time>2011-07-31T07:57:14Z</time>
      </trkpt>
      <trkpt lat="48.39364" lon="2.52312">
        <ele>107</ele>
        <time>2011-07-31T07:57:18Z</time>
      </trkpt>
      <trkpt lat="48.39366" lon="2.52322">
        <ele>108</ele>
        <time>2011-07-31T07:57:24Z</time>
      </trkpt>
      <trkpt lat="48.39365" lon="2.52333">
        <ele>107</ele>
        <time>2011-07-31T07:57:28Z</time>
      </trkpt>
      <trkpt lat="48.39366" lon="2.52362">
        <ele>108</ele>
        <time>2011-07-31T07:57:37Z</time>
      </trkpt>
      <trkpt lat="48.39358" lon="2.5239">
        <ele>107</ele>
        <time>2011-07-31T07:57:44Z</time>
      </trkpt>
      <trkpt lat="48.39365" lon="2.52423">
        <ele>107</ele>
        <time>2011-07-31T07:57:52Z</time>
      </trkpt>
      <trkpt lat="48.39374" lon="2.52438">
        <ele>108</ele>
        <time>2011-07-31T07:57:57Z</time>
      </trkpt>
      <trkpt lat="48.39385" lon="2.52462">
        <ele>110</ele>
        <time>2011-07-31T07:58:12Z</time>
      </trkpt>
      <trkpt lat="48.39388" lon="2.52462">
        <ele>110</ele>
        <time>2011-07-31T07:58:24Z</time>
      </trkpt>
      <trkpt lat="48.3939" lon="2.52466">
        <ele>110</ele>
        <time>2011-07-31T07:58:41Z</time>
      </trkpt>
      <trkpt lat="48.39391" lon="2.52469">
        <ele>110</ele>
        <time>2011-07-31T07:58:44Z</time>
      </trkpt>
      <trkpt lat="48.39391" lon="2.52475">
        <ele>111</ele>
        <time>2011-07-31T07:59:00Z</time>
      </trkpt>
      <trkpt lat="48.39391" lon="2.52475">
        <ele>111</ele>
        <time>2011-07-31T07:59:27Z</time>
      </trkpt>
      <trkpt lat="48.39391" lon="2.52476">
        <ele>111</ele>
        <time>2011-07-31T07:59:51Z</time>
      </trkpt>
      <trkpt lat="48.39399" lon="2.52487">
        <ele>112</ele>
        <time>2011-07-31T08:00:09Z</time>
      </trkpt>
      <trkpt lat="48.39399" lon="2.52492">
        <ele>112</ele>
        <time>2011-07-31T08:00:16Z</time>
      </trkpt>
      <trkpt lat="48.394" lon="2.52502">
        <ele>114</ele>
        <time>2011-07-31T08:00:29Z</time>
      </trkpt>
      <trkpt lat="48.394" lon="2.52506">
        <ele>114</ele>
        <time>2011-07-31T08:00:31Z</time>
      </trkpt>
      <trkpt lat="48.39401" lon="2.52512">
        <ele>113</ele>
        <time>2011-07-31T08:00:33Z</time>
      </trkpt>
      <trkpt lat="48.39406" lon="2.5252">
        <ele>113</ele>
        <time>2011-07-31T08:00:37Z</time>
      </trkpt>
      <trkpt lat="48.39406" lon="2.52538">
        <ele>113</ele>
        <time>2011-07-31T08:00:44Z</time>
      </trkpt>
      <trkpt lat="48.39404" lon="2.52561">
        <ele>113</ele>
        <time>2011-07-31T08:00:51Z</time>
      </trkpt>
      <trkpt lat="48.39402" lon="2.52576">
        <ele>114</ele>
        <time>2011-07-31T08:00:55Z</time>
      </trkpt>
      <trkpt lat="48.39405" lon="2.52605">
        <ele>116</ele>
        <time>2011-07-31T08:01:05Z</time>
      </trkpt>
      <trkpt lat="48.39404" lon="2.5262">
        <ele>115</ele>
        <time>2011-07-31T08:01:09Z</time>
      </trkpt>
      <trkpt lat="48.39398" lon="2.52635">
        <ele>116</ele>
        <time>2011-07-31T08:01:13Z</time>
      </trkpt>
      <trkpt lat="48.39386" lon="2.52686">
        <ele>118</ele>
        <time>2011-07-31T08:01:22Z</time>
      </trkpt>
      <trkpt lat="48.39384" lon="2.52693">
        <ele>118</ele>
        <time>2011-07-31T08:01:23Z</time>
      </trkpt>
      <trkpt lat="48.39382" lon="2.52724">
        <ele>119</ele>
        <time>2011-07-31T08:01:28Z</time>
      </trkpt>
      <trkpt lat="48.39379" lon="2.52723">
        <ele>118</ele>
        <time>2011-07-31T08:01:32Z</time>
      </trkpt>
      <trkpt lat="48.39379" lon="2.52706">
        <ele>118</ele>
        <time>2011-07-31T08:01:39Z</time>
      </trkpt>
      <trkpt lat="48.39383" lon="2.52696">
        <ele>118</ele>
        <time>2011-07-31T08:01:54Z</time>
      </trkpt>
      <trkpt lat="48.39383" lon="2.52696">
        <ele>118</ele>
        <time>2011-07-31T08:02:12Z</time>
      </trkpt>
      <trkpt lat="48.3938" lon="2.52708">
        <ele>118</ele>
        <time>2011-07-31T08:02:16Z</time>
      </trkpt>
      <trkpt lat="48.39377" lon="2.5273">
        <ele>118</ele>
        <time>2011-07-31T08:02:26Z</time>
      </trkpt>
      <trkpt lat="48.39373" lon="2.52729">
        <ele>118</ele>
        <time>2011-07-31T08:02:41Z</time>
      </trkpt>
      <trkpt lat="48.39368" lon="2.52731">
        <ele>118</ele>
        <time>2011-07-31T08:02:48Z</time>
      </trkpt>
      <trkpt lat="48.39364" lon="2.52736">
        <ele>118</ele>
        <time>2011-07-31T08:03:01Z</time>
      </trkpt>
      <trkpt lat="48.39363" lon="2.52739">
        <ele>118</ele>
        <time>2011-07-31T08:03:08Z</time>
      </trkpt>
      <trkpt lat="48.39351" lon="2.52757">
        <ele>119</ele>
        <time>2011-07-31T08:03:18Z</time>
      </trkpt>
      <trkpt lat="48.39347" lon="2.52764">
        <ele>119</ele>
        <time>2011-07-31T08:03:22Z</time>
      </trkpt>
      <trkpt lat="48.39343" lon="2.52768">
        <ele>119</ele>
        <time>2011-07-31T08:03:25Z</time>
      </trkpt>
      <trkpt lat="48.39337" lon="2.52776">
        <ele>120</ele>
        <time>2011-07-31T08:03:30Z</time>
      </trkpt>
      <trkpt lat="48.39332" lon="2.52779">
        <ele>118</ele>
        <time>2011-07-31T08:03:33Z</time>
      </trkpt>
      <trkpt lat="48.39323" lon="2.52778">
        <ele>118</ele>
        <time>2011-07-31T08:03:37Z</time>
      </trkpt>
      <trkpt lat="48.39318" lon="2.52782">
        <ele>118</ele>
        <time>2011-07-31T08:03:41Z</time>
      </trkpt>
      <trkpt lat="48.39312" lon="2.5279">
        <ele>118</ele>
        <time>2011-07-31T08:03:46Z</time>
      </trkpt>
      <trkpt lat="48.39305" lon="2.52791">
        <ele>118</ele>
        <time>2011-07-31T08:03:52Z</time>
      </trkpt>
      <trkpt lat="48.39297" lon="2.52802">
        <ele>118</ele>
        <time>2011-07-31T08:04:07Z</time>
      </trkpt>
      <trkpt lat="48.39292" lon="2.52794">
        <ele>118</ele>
        <time>2011-07-31T08:04:22Z</time>
      </trkpt>
      <trkpt lat="48.39286" lon="2.52795">
        <ele>118</ele>
        <time>2011-07-31T08:04:30Z</time>
      </trkpt>
      <trkpt lat="48.39277" lon="2.52789">
        <ele>118</ele>
        <time>2011-07-31T08:04:37Z</time>
      </trkpt>
      <trkpt lat="48.39272" lon="2.52786">
        <ele>118</ele>
        <time>2011-07-31T08:04:40Z</time>
      </trkpt>
      <trkpt lat="48.39263" lon="2.52772">
        <ele>118</ele>
        <time>2011-07-31T08:04:48Z</time>
      </trkpt>
      <trkpt lat="48.39258" lon="2.52765">
        <ele>117</ele>
        <time>2011-07-31T08:04:52Z</time>
      </trkpt>
      <trkpt lat="48.39252" lon="2.52764">
        <ele>117</ele>
        <time>2011-07-31T08:05:01Z</time>
      </trkpt>
      <trkpt lat="48.39244" lon="2.52764">
        <ele>116</ele>
        <time>2011-07-31T08:05:11Z</time>
      </trkpt>
      <trkpt lat="48.39238" lon="2.52759">
        <ele>116</ele>
        <time>2011-07-31T08:05:21Z</time>
      </trkpt>
      <trkpt lat="48.3923" lon="2.52754">
        <ele>116</ele>
        <time>2011-07-31T08:05:25Z</time>
      </trkpt>
      <trkpt lat="48.39219" lon="2.52745">
        <ele>114</ele>
        <time>2011-07-31T08:05:29Z</time>
      </trkpt>
      <trkpt lat="48.39212" lon="2.52746">
        <ele>114</ele>
        <time>2011-07-31T08:05:42Z</time>
      </trkpt>
      <trkpt lat="48.39208" lon="2.52746">
        <ele>113</ele>
        <time>2011-07-31T08:06:01Z</time>
      </trkpt>
      <trkpt lat="48.39197" lon="2.52744">
        <ele>113</ele>
        <time>2011-07-31T08:06:20Z</time>
      </trkpt>
      <trkpt lat="48.39193" lon="2.52744">
        <ele>113</ele>
        <time>2011-07-31T08:06:24Z</time>
      </trkpt>
      <trkpt lat="48.39188" lon="2.5274">
        <ele>112</ele>
        <time>2011-07-31T08:06:40Z</time>
      </trkpt>
      <trkpt lat="48.39185" lon="2.52736">
        <ele>112</ele>
        <time>2011-07-31T08:06:47Z</time>
      </trkpt>
      <trkpt lat="48.39178" lon="2.52732">
        <ele>112</ele>
        <time>2011-07-31T08:06:58Z</time>
      </trkpt>
      <trkpt lat="48.39177" lon="2.52732">
        <ele>112</ele>
        <time>2011-07-31T08:06:59Z</time>
      </trkpt>
      <trkpt lat="48.39175" lon="2.52733">
        <ele>112</ele>
        <time>2011-07-31T08:07:02Z</time>
      </trkpt>
      <trkpt lat="48.39174" lon="2.52746">
        <ele>112</ele>
        <time>2011-07-31T08:07:12Z</time>
      </trkpt>
      <trkpt lat="48.39169" lon="2.52764">
        <ele>113</ele>
        <time>2011-07-31T08:07:24Z</time>
      </trkpt>
      <trkpt lat="48.39168" lon="2.52771">
        <ele>113</ele>
        <time>2011-07-31T08:07:29Z</time>
      </trkpt>
      <trkpt lat="48.39168" lon="2.52786">
        <ele>114</ele>
        <time>2011-07-31T08:07:36Z</time>
      </trkpt>
      <trkpt lat="48.39167" lon="2.52798">
        <ele>114</ele>
        <time>2011-07-31T08:07:41Z</time>
      </trkpt>
      <trkpt lat="48.39161" lon="2.52815">
        <ele>114</ele>
        <time>2011-07-31T08:07:47Z</time>
      </trkpt>
      <trkpt lat="48.39156" lon="2.52828">
        <ele>114</ele>
        <time>2011-07-31T08:07:52Z</time>
      </trkpt>
      <trkpt lat="48.39151" lon="2.52849">
        <ele>114</ele>
        <time>2011-07-31T08:07:59Z</time>
      </trkpt>
      <trkpt lat="48.39151" lon="2.52863">
        <ele>114</ele>
        <time>2011-07-31T08:08:04Z</time>
      </trkpt>
      <trkpt lat="48.39148" lon="2.52889">
        <ele>114</ele>
        <time>2011-07-31T08:08:12Z</time>
      </trkpt>
      <trkpt lat="48.39147" lon="2.52896">
        <ele>114</ele>
        <time>2011-07-31T08:08:14Z</time>
      </trkpt>
      <trkpt lat="48.39147" lon="2.52927">
        <ele>115</ele>
        <time>2011-07-31T08:08:25Z</time>
      </trkpt>
      <trkpt lat="48.39145" lon="2.52938">
        <ele>114</ele>
        <time>2011-07-31T08:08:28Z</time>
      </trkpt>
      <trkpt lat="48.39142" lon="2.52949">
        <ele>114</ele>
        <time>2011-07-31T08:08:32Z</time>
      </trkpt>
      <trkpt lat="48.39137" lon="2.5297">
        <ele>114</ele>
        <time>2011-07-31T08:08:38Z</time>
      </trkpt>
      <trkpt lat="48.39133" lon="2.52977">
        <ele>114</ele>
        <time>2011-07-31T08:08:40Z</time>
      </trkpt>
      <trkpt lat="48.39128" lon="2.53009">
        <ele>115</ele>
        <time>2011-07-31T08:08:48Z</time>
      </trkpt>
      <trkpt lat="48.39122" lon="2.5307">
        <ele>115</ele>
        <time>2011-07-31T08:09:01Z</time>
      </trkpt>
      <trkpt lat="48.39118" lon="2.53121">
        <ele>116</ele>
        <time>2011-07-31T08:09:11Z</time>
      </trkpt>
      <trkpt lat="48.3912" lon="2.53136">
        <ele>116</ele>
        <time>2011-07-31T08:09:14Z</time>
      </trkpt>
      <trkpt lat="48.39134" lon="2.53173">
        <ele>117</ele>
        <time>2011-07-31T08:09:22Z</time>
      </trkpt>
      <trkpt lat="48.39139" lon="2.53188">
        <ele>117</ele>
        <time>2011-07-31T08:09:33Z</time>
      </trkpt>
      <trkpt lat="48.39149" lon="2.53214">
        <ele>118</ele>
        <time>2011-07-31T08:10:14Z</time>
      </trkpt>
      <trkpt lat="48.39181" lon="2.53283">
        <ele>121</ele>
        <time>2011-07-31T08:10:29Z</time>
      </trkpt>
      <trkpt lat="48.39204" lon="2.53335">
        <ele>122</ele>
        <time>2011-07-31T08:10:41Z</time>
      </trkpt>
      <trkpt lat="48.39208" lon="2.53373">
        <ele>123</ele>
        <time>2011-07-31T08:10:49Z</time>
      </trkpt>
      <trkpt lat="48.39205" lon="2.53409">
        <ele>122</ele>
        <time>2011-07-31T08:10:55Z</time>
      </trkpt>
      <trkpt lat="48.39208" lon="2.53427">
        <ele>122</ele>
        <time>2011-07-31T08:10:58Z</time>
      </trkpt>
      <trkpt lat="48.39207" lon="2.53452">
        <ele>122</ele>
        <time>2011-07-31T08:11:02Z</time>
      </trkpt>
      <trkpt lat="48.39209" lon="2.53476">
        <ele>122</ele>
        <time>2011-07-31T08:11:06Z</time>
      </trkpt>
      <trkpt lat="48.39209" lon="2.53501">
        <ele>120</ele>
        <time>2011-07-31T08:11:10Z</time>
      </trkpt>
      <trkpt lat="48.39211" lon="2.53519">
        <ele>120</ele>
        <time>2011-07-31T08:11:13Z</time>
      </trkpt>
      <trkpt lat="48.39217" lon="2.53538">
        <ele>120</ele>
        <time>2011-07-31T08:11:17Z</time>
      </trkpt>
      <trkpt lat="48.39215" lon="2.53566">
        <ele>120</ele>
        <time>2011-07-31T08:11:22Z</time>
      </trkpt>
      <trkpt lat="48.39218" lon="2.53609">
        <ele>118</ele>
        <time>2011-07-31T08:11:27Z</time>
      </trkpt>
      <trkpt lat="48.39217" lon="2.53637">
        <ele>117</ele>
        <time>2011-07-31T08:11:31Z</time>
      </trkpt>
      <trkpt lat="48.39202" lon="2.53716">
        <ele>115</ele>
        <time>2011-07-31T08:11:43Z</time>
      </trkpt>
      <trkpt lat="48.392" lon="2.53762">
        <ele>112</ele>
        <time>2011-07-31T08:11:49Z</time>
      </trkpt>
      <trkpt lat="48.39188" lon="2.53796">
        <ele>111</ele>
        <time>2011-07-31T08:11:53Z</time>
      </trkpt>
      <trkpt lat="48.3918" lon="2.53824">
        <ele>109</ele>
        <time>2011-07-31T08:11:56Z</time>
      </trkpt>
      <trkpt lat="48.39175" lon="2.53868">
        <ele>108</ele>
        <time>2011-07-31T08:12:00Z</time>
      </trkpt>
      <trkpt lat="48.39156" lon="2.53934">
        <ele>102</ele>
        <time>2011-07-31T08:12:07Z</time>
      </trkpt>
      <trkpt lat="48.39152" lon="2.53971">
        <ele>101</ele>
        <time>2011-07-31T08:12:11Z</time>
      </trkpt>
      <trkpt lat="48.39148" lon="2.54024">
        <ele>98</ele>
        <time>2011-07-31T08:12:17Z</time>
      </trkpt>
      <trkpt lat="48.39137" lon="2.54058">
        <ele>98</ele>
        <time>2011-07-31T08:12:21Z</time>
      </trkpt>
      <trkpt lat="48.39128" lon="2.54115">
        <ele>96</ele>
        <time>2011-07-31T08:12:27Z</time>
      </trkpt>
      <trkpt lat="48.3912" lon="2.54155">
        <ele>96</ele>
        <time>2011-07-31T08:12:32Z</time>
      </trkpt>
      <trkpt lat="48.39119" lon="2.54175">
        <ele>96</ele>
        <time>2011-07-31T08:12:35Z</time>
      </trkpt>
      <trkpt lat="48.39115" lon="2.54199">
        <ele>96</ele>
        <time>2011-07-31T08:12:38Z</time>
      </trkpt>
      <trkpt lat="48.39113" lon="2.54212">
        <ele>96</ele>
        <time>2011-07-31T08:12:40Z</time>
      </trkpt>
      <trkpt lat="48.39109" lon="2.54233">
        <ele>96</ele>
        <time>2011-07-31T08:12:44Z</time>
      </trkpt>
      <trkpt lat="48.39102" lon="2.54267">
        <ele>95</ele>
        <time>2011-07-31T08:12:51Z</time>
      </trkpt>
      <trkpt lat="48.39097" lon="2.543">
        <ele>96</ele>
        <time>2011-07-31T08:12:57Z</time>
      </trkpt>
      <trkpt lat="48.39092" lon="2.54316">
        <ele>95</ele>
        <time>2011-07-31T08:13:00Z</time>
      </trkpt>
      <trkpt lat="48.39089" lon="2.54334">
        <ele>93</ele>
        <time>2011-07-31T08:13:03Z</time>
      </trkpt>
      <trkpt lat="48.39088" lon="2.5436">
        <ele>94</ele>
        <time>2011-07-31T08:13:07Z</time>
      </trkpt>
      <trkpt lat="48.39078" lon="2.54393">
        <ele>90</ele>
        <time>2011-07-31T08:13:12Z</time>
      </trkpt>
      <trkpt lat="48.39079" lon="2.54407">
        <ele>90</ele>
        <time>2011-07-31T08:13:14Z</time>
      </trkpt>
      <trkpt lat="48.39083" lon="2.54426">
        <ele>89</ele>
        <time>2011-07-31T08:13:17Z</time>
      </trkpt>
      <trkpt lat="48.39076" lon="2.54456">
        <ele>88</ele>
        <time>2011-07-31T08:13:20Z</time>
      </trkpt>
      <trkpt lat="48.39067" lon="2.54481">
        <ele>87</ele>
        <time>2011-07-31T08:13:23Z</time>
      </trkpt>
      <trkpt lat="48.39064" lon="2.54503">
        <ele>85</ele>
        <time>2011-07-31T08:13:26Z</time>
      </trkpt>
      <trkpt lat="48.3906" lon="2.54514">
        <ele>85</ele>
        <time>2011-07-31T08:13:28Z</time>
      </trkpt>
      <trkpt lat="48.39063" lon="2.54534">
        <ele>84</ele>
        <time>2011-07-31T08:13:31Z</time>
      </trkpt>
      <trkpt lat="48.39054" lon="2.54611">
        <ele>82</ele>
        <time>2011-07-31T08:13:41Z</time>
      </trkpt>
      <trkpt lat="48.39054" lon="2.54618">
        <ele>82</ele>
        <time>2011-07-31T08:13:42Z</time>
      </trkpt>
      <trkpt lat="48.39056" lon="2.54691">
        <ele>82</ele>
        <time>2011-07-31T08:13:52Z</time>
      </trkpt>
      <trkpt lat="48.39065" lon="2.54747">
        <ele>82</ele>
        <time>2011-07-31T08:14:01Z</time>
      </trkpt>
      <trkpt lat="48.3908" lon="2.54791">
        <ele>81</ele>
        <time>2011-07-31T08:14:07Z</time>
      </trkpt>
      <trkpt lat="48.39084" lon="2.54822">
        <ele>80</ele>
        <time>2011-07-31T08:14:11Z</time>
      </trkpt>
      <trkpt lat="48.39084" lon="2.54843">
        <ele>80</ele>
        <time>2011-07-31T08:14:15Z</time>
      </trkpt>
      <trkpt lat="48.39088" lon="2.54865">
        <ele>79</ele>
        <time>2011-07-31T08:14:18Z</time>
      </trkpt>
      <trkpt lat="48.39075" lon="2.54914">
        <ele>78</ele>
        <time>2011-07-31T08:14:26Z</time>
      </trkpt>
      <trkpt lat="48.39067" lon="2.54972">
        <ele>78</ele>
        <time>2011-07-31T08:14:35Z</time>
      </trkpt>
      <trkpt lat="48.39066" lon="2.55068">
        <ele>79</ele>
        <time>2011-07-31T08:14:52Z</time>
      </trkpt>
      <trkpt lat="48.39058" lon="2.55153">
        <ele>79</ele>
        <time>2011-07-31T08:15:10Z</time>
      </trkpt>
      <trkpt lat="48.39051" lon="2.55212">
        <ele>79</ele>
        <time>2011-07-31T08:15:23Z</time>
      </trkpt>
      <trkpt lat="48.3905" lon="2.55218">
        <ele>79</ele>
        <time>2011-07-31T08:15:25Z</time>
      </trkpt>
      <trkpt lat="48.3905" lon="2.55232">
        <ele>78</ele>
        <time>2011-07-31T08:15:29Z</time>
      </trkpt>
    </trkseg>
  </trk>
</gpx>